Darstellungsparameter: Aktuell verwendete Einstellungen:
Skalierung der Graphiken ... ?
xyx+y,   Skalierungsfaktor:      Skalierung: Modus: x, Faktor: 1
Darstellungszeitraum ... ?
Vom - - bis: - -   Zeitraum: 09.12.2008 - 08.06.2009
Min/Max/Avg-Anzeige ... ?
Zeige MMA aktuell
Zeige MMA Monat
Zeige MMA alles
Zeige --A aktuell
Zeige --A Monat
Zeige --A alles
Keine MMA-Anzeige
MMA:
Keine MMA-Graphiken
MMA-Basis: 09.12.2008 - 08.06.2009
Quicknavigation für Darstellung... ?
Tage:      1T, 2T, 3T, 5T -1T -2T -3T -5T +1T +2T +3T +5T
Wochen: 1W, 2W, 3W -1W -2W -3W +1W +2W +3W
Monate: 1M, 3M, 6M -1M -3M -6M +1M +3M +6M
Jahre:    1J, 3J, 5J, 10J -1J -3J -5J -10J +1J +3J +5J +10J
Nutze für die Darstellung ... ?
Originaldaten oder Mittelwerte auf ...
Stundenbasis Tagesbasis Wochenbasis
Monatsbasis Jahresbasis      Datenbasis: Original-Daten
Darstellen als:
Statistik (Auto) Statistik J:M      Darstellung:
Zur Graphik,    zurück zur Übersicht aller Sensoren.
 
Tabellarische Datenbersicht: ?
 
Sensor: Nr:Datum:Temp:Abs-Feuchte:Windchill:Wind:
Aussen-T/F 1 09-12-2008 00:03:59 -0.3 C 4.51 g/m*3 -0.3 C 0 km/h
2 09-12-2008 00:15:59 -0.3 C 4.51 g/m*3 -0.3 C 0 km/h
3 09-12-2008 00:27:59 -0.2 C 4.54 g/m*3 -0.2 C 0 km/h
4 09-12-2008 00:40:59 -0.1 C 4.57 g/m*3 -0.1 C 0 km/h
5 09-12-2008 00:52:59 -0.1 C 4.57 g/m*3 -0.1 C 0 km/h
6 09-12-2008 01:04:59 -0.1 C 4.57 g/m*3 -0.1 C 0 km/h
7 09-12-2008 01:16:59 -0.1 C 4.57 g/m*3 -0.1 C 0 km/h
8 09-12-2008 01:27:59 -0.2 C 4.54 g/m*3 -0.2 C 0 km/h
9 09-12-2008 01:39:59 -0.2 C 4.49 g/m*3 -0.2 C 0 km/h
10 09-12-2008 01:51:59 -0.2 C 4.49 g/m*3 -0.2 C 0 km/h
11 09-12-2008 02:03:59 -0.3 C 4.46 g/m*3 -0.3 C 0 km/h
12 09-12-2008 02:15:59 -0.4 C 4.43 g/m*3 -0.4 C 0 km/h
13 09-12-2008 02:27:59 -0.3 C 4.41 g/m*3 -0.3 C 0 km/h
14 09-12-2008 02:39:59 -0.4 C 4.38 g/m*3 -0.4 C 0 km/h
15 09-12-2008 02:51:59 -0.4 C 4.38 g/m*3 -0.4 C 0 km/h
16 09-12-2008 03:03:59 -0.3 C 4.41 g/m*3 -0.3 C 0 km/h
17 09-12-2008 03:15:59 -0.4 C 4.34 g/m*3 -0.4 C 0 km/h
18 09-12-2008 03:27:59 -0.6 C 4.28 g/m*3 -0.6 C 0 km/h
19 09-12-2008 03:39:59 -0.6 C 4.28 g/m*3 -0.6 C 0 km/h
20 09-12-2008 03:51:59 -0.7 C 4.25 g/m*3 -0.7 C 0 km/h
21 09-12-2008 04:03:59 -0.8 C 4.22 g/m*3 -0.8 C 0 km/h
22 09-12-2008 04:15:59 -0.9 C 4.14 g/m*3 -0.9 C 0 km/h
23 09-12-2008 04:28:00 -0.9 C 4.14 g/m*3 -0.9 C 0 km/h
24 09-12-2008 04:40:00 -0.8 C 4.17 g/m*3 -0.8 C 0 km/h
25 09-12-2008 04:52:00 -1 C 4.11 g/m*3 -1 C 0 km/h
Sensor: Nr:Datum:Temp:Abs-Feuchte:Windchill:Wind:
Aussen-T/F 26 09-12-2008 05:04:00 -1.1 C 4.09 g/m*3 -1.1 C 0 km/h
27 09-12-2008 05:16:00 -1.2 C 4.06 g/m*3 -1.2 C 0 km/h
28 09-12-2008 05:28:00 -1.3 C 4.03 g/m*3 -1.3 C 0 km/h
29 09-12-2008 05:40:00 -1.5 C 3.97 g/m*3 -1.5 C 0 km/h
30 09-12-2008 05:52:00 -1.4 C 4 g/m*3 -1.4 C 0 km/h
31 09-12-2008 06:04:00 -1.3 C 4.03 g/m*3 -1.3 C 0 km/h
32 09-12-2008 06:16:00 -1.1 C 4.09 g/m*3 -1.1 C 0 km/h
33 09-12-2008 06:28:00 -1 C 4.11 g/m*3 -1 C 0 km/h
34 09-12-2008 06:40:00 -0.8 C 4.13 g/m*3 -0.8 C 0 km/h
35 09-12-2008 06:52:00 -0.7 C 4.15 g/m*3 -0.7 C 0 km/h
36 09-12-2008 07:04:59 -0.6 C 4.14 g/m*3 -0.6 C 0 km/h
37 09-12-2008 07:16:59 -0.5 C 4.12 g/m*3 -0.5 C 0 km/h
38 09-12-2008 07:28:59 -0.4 C 4.1 g/m*3 -0.4 C 0 km/h
39 09-12-2008 07:40:59 -0.3 C 4.08 g/m*3 -0.3 C 0 km/h
40 09-12-2008 07:52:59 -0.2 C 4.11 g/m*3 -0.2 C 0 km/h
41 09-12-2008 08:04:58 -0.1 C 4.14 g/m*3 -0.1 C 0 km/h
42 09-12-2008 08:16:59 0 C 4.12 g/m*3 0 C 0 km/h
43 09-12-2008 08:28:59 0.1 C 4.15 g/m*3 0.1 C 0 km/h
44 09-12-2008 08:40:59 0.2 C 4.13 g/m*3 0.2 C 0 km/h
45 09-12-2008 08:52:58 0.2 C 4.08 g/m*3 0.2 C 0 km/h
46 09-12-2008 09:04:58 0.3 C 4.11 g/m*3 0.3 C 0 km/h
47 09-12-2008 09:16:58 0.4 C 4.13 g/m*3 0.4 C 0 km/h
48 09-12-2008 09:28:58 0.5 C 4.16 g/m*3 0.5 C 0 km/h
49 09-12-2008 09:40:58 0.6 C 4.14 g/m*3 0.6 C 0 km/h
50 09-12-2008 09:52:57 0.8 C 4.2 g/m*3 0.8 C 0 km/h
Sensor: Nr:Datum:Temp:Abs-Feuchte:Windchill:Wind:
Aussen-T/F 51 09-12-2008 10:04:58 0.8 C 4.2 g/m*3 0.8 C 0 km/h
52 09-12-2008 10:16:57 1 C 4.2 g/m*3 1 C 0 km/h
53 09-12-2008 10:28:57 1.2 C 4.26 g/m*3 1.2 C 0 km/h
54 09-12-2008 10:40:57 1.4 C 4.27 g/m*3 1.4 C 0 km/h
55 09-12-2008 10:52:57 1.6 C 4.27 g/m*3 1.6 C 0 km/h
56 09-12-2008 11:04:57 1.9 C 4.25 g/m*3 1.9 C 0 km/h
57 09-12-2008 11:16:57 1.7 C 4.19 g/m*3 1.7 C 0 km/h
58 09-12-2008 11:28:57 1.9 C 4.25 g/m*3 1.9 C 0 km/h
59 09-12-2008 11:40:57 1.8 C 4.22 g/m*3 1.8 C 0 km/h
60 09-12-2008 11:52:57 1.9 C 4.3 g/m*3 1.9 C 0 km/h
61 09-12-2008 12:04:56 1.8 C 4.28 g/m*3 1.8 C 0 km/h
62 09-12-2008 12:16:57 1.7 C 4.25 g/m*3 1.7 C 0 km/h
63 09-12-2008 12:28:57 1.7 C 4.25 g/m*3 1.7 C 0 km/h
64 09-12-2008 12:40:56 1.6 C 4.22 g/m*3 1.6 C 0 km/h
65 09-12-2008 12:52:56 1.7 C 4.3 g/m*3 1.7 C 0 km/h
66 09-12-2008 13:04:56 1.7 C 4.25 g/m*3 1.7 C 0 km/h
67 09-12-2008 13:16:56 1.6 C 4.22 g/m*3 1.6 C 0 km/h
68 09-12-2008 13:28:56 1.7 C 4.25 g/m*3 1.7 C 0 km/h
69 09-12-2008 13:40:56 1.6 C 4.22 g/m*3 1.6 C 0 km/h
70 09-12-2008 13:52:56 1.6 C 4.22 g/m*3 1.6 C 0 km/h
71 09-12-2008 14:04:55 1.6 C 4.27 g/m*3 1.6 C 0 km/h
72 09-12-2008 14:16:56 1.6 C 4.27 g/m*3 1.6 C 0 km/h
73 09-12-2008 14:28:56 1.6 C 4.27 g/m*3 1.6 C 0 km/h
74 09-12-2008 14:40:55 1.6 C 4.27 g/m*3 1.6 C 0 km/h
75 09-12-2008 14:52:56 1.7 C 4.3 g/m*3 1.7 C 0 km/h
Sensor: Nr:Datum:Temp:Abs-Feuchte:Windchill:Wind:
Aussen-T/F 76 09-12-2008 15:04:55 1.7 C 4.25 g/m*3 1.7 C 0 km/h
77 09-12-2008 15:16:55 1.8 C 4.22 g/m*3 1.8 C 0 km/h
78 09-12-2008 15:28:56 1.7 C 4.14 g/m*3 1.7 C 0 km/h
79 09-12-2008 15:40:55 1.7 C 4.14 g/m*3 1.7 C 0 km/h
80 09-12-2008 15:52:55 1.7 C 4.14 g/m*3 1.7 C 0 km/h
81 09-12-2008 16:04:54 1.7 C 4.14 g/m*3 1.7 C 0 km/h
82 09-12-2008 16:16:38 1.6 C 4.11 g/m*3 1.6 C 0 km/h
83 09-12-2008 16:28:38 1.6 C 4.16 g/m*3 1.6 C 0 km/h
84 09-12-2008 16:40:37 1.6 C 4.16 g/m*3 1.6 C 0 km/h
85 09-12-2008 16:52:37 1.5 C 4.19 g/m*3 1.5 C 0 km/h
86 09-12-2008 17:04:37 1.5 C 4.24 g/m*3 1.5 C 0 km/h
87 09-12-2008 17:16:37 1.5 C 4.24 g/m*3 1.5 C 0 km/h
88 09-12-2008 17:28:37 1.5 C 4.3 g/m*3 1.5 C 0 km/h
89 09-12-2008 17:40:37 1.2 C 4.31 g/m*3 1.2 C 0 km/h
90 09-12-2008 17:52:37 1 C 4.36 g/m*3 1 C 0 km/h
91 09-12-2008 18:04:38 0.9 C 4.48 g/m*3 0.9 C 0 km/h
92 09-12-2008 18:16:37 0.8 C 4.51 g/m*3 0.8 C 0 km/h
93 09-12-2008 18:28:37 0.7 C 4.53 g/m*3 0.7 C 0 km/h
94 09-12-2008 18:40:37 0.8 C 4.61 g/m*3 0.8 C 0 km/h
95 09-12-2008 18:52:36 0.7 C 4.58 g/m*3 0.7 C 0 km/h
96 09-12-2008 19:04:37 0.6 C 4.6 g/m*3 0.6 C 0 km/h
97 09-12-2008 19:16:36 0.6 C 4.65 g/m*3 0.6 C 0 km/h
98 09-12-2008 19:28:36 0.6 C 4.65 g/m*3 0.6 C 0 km/h
99 09-12-2008 19:40:36 0.6 C 4.65 g/m*3 0.6 C 0 km/h
100 09-12-2008 19:52:36 0.6 C 4.65 g/m*3 0.6 C 0 km/h
Sensor: Nr:Datum:Temp:Abs-Feuchte:Windchill:Wind:
Aussen-T/F 101 09-12-2008 20:04:36 0.6 C 4.7 g/m*3 0.6 C 0 km/h
102 09-12-2008 20:16:36 0.7 C 4.73 g/m*3 0.7 C 0 km/h
103 09-12-2008 20:28:37 0.8 C 4.76 g/m*3 0.8 C 0 km/h
104 09-12-2008 20:40:35 0.8 C 4.76 g/m*3 0.8 C 0 km/h
105 09-12-2008 20:52:35 0.9 C 4.74 g/m*3 0.9 C 0 km/h
106 09-12-2008 21:04:35 0.9 C 4.74 g/m*3 0.9 C 0 km/h
107 09-12-2008 21:16:35 0.9 C 4.74 g/m*3 0.9 C 0 km/h
108 09-12-2008 21:28:35 0.9 C 4.74 g/m*3 0.9 C 0 km/h
109 09-12-2008 21:40:35 1 C 4.72 g/m*3 1 C 0 km/h
110 09-12-2008 21:52:34 1 C 4.67 g/m*3 1 C 0 km/h
111 09-12-2008 22:04:35 1 C 4.67 g/m*3 1 C 0 km/h
112 09-12-2008 22:17:36 1 C 4.72 g/m*3 1 C 0 km/h
113 09-12-2008 22:29:36 1 C 4.72 g/m*3 1 C 0 km/h
114 09-12-2008 22:41:36 1 C 4.72 g/m*3 1 C 0 km/h
115 09-12-2008 22:53:36 1 C 4.72 g/m*3 1 C 0 km/h
116 09-12-2008 23:05:36 1 C 4.78 g/m*3 1 C 0 km/h
117 09-12-2008 23:17:36 1 C 4.78 g/m*3 1 C 0 km/h
118 09-12-2008 23:29:36 1.1 C 4.81 g/m*3 1.1 C 0 km/h
119 09-12-2008 23:41:36 1.1 C 4.86 g/m*3 1.1 C 0 km/h
120 09-12-2008 23:53:36 1.1 C 4.86 g/m*3 1.1 C 0 km/h
121 10-12-2008 00:05:36 1.1 C 4.86 g/m*3 1.1 C 0 km/h
122 10-12-2008 00:17:36 1.1 C 4.86 g/m*3 1.1 C 0 km/h
123 10-12-2008 00:29:36 1.1 C 4.91 g/m*3 1.1 C 0 km/h
124 10-12-2008 00:41:37 1.2 C 4.95 g/m*3 1.2 C 0 km/h
125 10-12-2008 00:53:37 1 C 4.88 g/m*3 1 C 0 km/h
Sensor: Nr:Datum:Temp:Abs-Feuchte:Windchill:Wind:
Aussen-T/F 126 10-12-2008 01:05:37 0.9 C 4.85 g/m*3 0.9 C 0 km/h
127 10-12-2008 01:17:37 1 C 4.88 g/m*3 1 C 0 km/h
128 10-12-2008 01:29:37 1 C 4.88 g/m*3 1 C 0 km/h
129 10-12-2008 01:41:37 1 C 4.93 g/m*3 1 C 0 km/h
130 10-12-2008 01:53:37 1 C 4.93 g/m*3 1 C 0 km/h
131 10-12-2008 02:05:37 1 C 4.93 g/m*3 1 C 0 km/h
132 10-12-2008 02:17:37 1.1 C 4.96 g/m*3 1.1 C 0 km/h
133 10-12-2008 02:29:37 1.1 C 4.96 g/m*3 1.1 C 0 km/h
134 10-12-2008 02:41:37 1.1 C 4.96 g/m*3 1.1 C 0 km/h
135 10-12-2008 02:53:37 1.2 C 5 g/m*3 1.2 C 0 km/h
136 10-12-2008 03:05:37 1.2 C 5 g/m*3 1.2 C 0 km/h
137 10-12-2008 03:17:37 1.2 C 5 g/m*3 1.2 C 0 km/h
138 10-12-2008 03:29:37 1.2 C 5 g/m*3 1.2 C 0 km/h
139 10-12-2008 03:41:37 1.2 C 5 g/m*3 1.2 C 0 km/h
140 10-12-2008 03:53:37 1.2 C 5 g/m*3 1.2 C 0 km/h
141 10-12-2008 04:05:37 1.2 C 5 g/m*3 1.2 C 0 km/h
142 10-12-2008 04:17:37 1.3 C 5.03 g/m*3 1.3 C 0 km/h
143 10-12-2008 04:29:38 1.3 C 5.03 g/m*3 1.3 C 0 km/h
144 10-12-2008 04:41:38 1.2 C 5 g/m*3 1.2 C 0 km/h
145 10-12-2008 04:53:38 1.2 C 5 g/m*3 1.2 C 0 km/h
146 10-12-2008 05:05:38 1.3 C 5.03 g/m*3 1.3 C 0 km/h
147 10-12-2008 05:17:38 1.3 C 5.03 g/m*3 1.3 C 0 km/h
148 10-12-2008 05:29:38 1.3 C 5.03 g/m*3 1.3 C 0 km/h
149 10-12-2008 05:41:38 1.3 C 5.03 g/m*3 1.3 C 0 km/h
150 10-12-2008 05:53:38 1.3 C 5.03 g/m*3 1.3 C 0 km/h
Sensor: Nr:Datum:Temp:Abs-Feuchte:Windchill:Wind:
Aussen-T/F 151 10-12-2008 06:05:38 1.3 C 5.03 g/m*3 1.3 C 0 km/h
152 10-12-2008 06:17:38 1.3 C 5.03 g/m*3 1.3 C 0 km/h
153 10-12-2008 06:29:38 1.3 C 5.03 g/m*3 1.3 C 0 km/h
154 10-12-2008 06:41:38 1.4 C 5.07 g/m*3 1.4 C 0 km/h
155 10-12-2008 06:53:38 1.4 C 5.07 g/m*3 1.4 C 0 km/h
156 10-12-2008 07:05:35 1.4 C 5.07 g/m*3 1.4 C 0 km/h
157 10-12-2008 07:17:34 1.5 C 5.1 g/m*3 1.5 C 0 km/h
158 10-12-2008 07:29:34 1.5 C 5.1 g/m*3 1.5 C 0 km/h
159 10-12-2008 07:41:35 1.6 C 5.14 g/m*3 1.6 C 0 km/h
160 10-12-2008 07:53:34 1.2 C 5 g/m*3 1.2 C 0 km/h
161 10-12-2008 08:05:34 0.8 C 4.81 g/m*3 0.8 C 0 km/h
162 10-12-2008 08:17:35 1.1 C 4.91 g/m*3 1.1 C 0 km/h
163 10-12-2008 08:29:35 1.1 C 4.91 g/m*3 1.1 C 0 km/h
164 10-12-2008 08:41:34 1.2 C 5 g/m*3 1.2 C 0 km/h
165 10-12-2008 08:53:34 1.3 C 5.03 g/m*3 1.3 C 0 km/h
166 10-12-2008 09:05:34 1.4 C 5.07 g/m*3 1.4 C 0 km/h
167 10-12-2008 09:17:34 1.4 C 5.07 g/m*3 1.4 C 0 km/h
168 10-12-2008 09:29:35 1.5 C 5.1 g/m*3 1.5 C 0 km/h
169 10-12-2008 09:41:33 1.7 C 5.17 g/m*3 1.7 C 0 km/h
170 10-12-2008 09:53:34 1.9 C 5.24 g/m*3 1.9 C 0 km/h
171 10-12-2008 10:05:33 2 C 5.28 g/m*3 2 C 0 km/h
172 10-12-2008 10:17:33 2.1 C 5.31 g/m*3 2.1 C 0 km/h
173 10-12-2008 10:29:33 2.2 C 5.35 g/m*3 2.2 C 0 km/h
174 10-12-2008 10:41:33 2.3 C 5.39 g/m*3 2.3 C 0 km/h
175 10-12-2008 10:53:33 2.6 C 5.5 g/m*3 2.6 C 0 km/h
Sensor: Nr:Datum:Temp:Abs-Feuchte:Windchill:Wind:
Aussen-T/F 176 10-12-2008 11:05:33 2.6 C 5.5 g/m*3 2.6 C 0 km/h
177 10-12-2008 11:17:32 2.6 C 5.5 g/m*3 2.6 C 0 km/h
178 10-12-2008 11:29:32 2.7 C 5.48 g/m*3 2.7 C 0 km/h
179 10-12-2008 11:41:33 2.9 C 5.55 g/m*3 2.9 C 0 km/h
180 10-12-2008 11:53:32 3 C 5.53 g/m*3 3 C 0 km/h
181 10-12-2008 12:05:32 3 C 5.53 g/m*3 3 C 0 km/h
182 10-12-2008 12:17:33 3 C 5.47 g/m*3 3 C 0 km/h
183 10-12-2008 12:29:33 3 C 5.41 g/m*3 3 C 0 km/h
184 10-12-2008 12:41:32 3.1 C 5.45 g/m*3 3.1 C 0 km/h
185 10-12-2008 12:53:32 3.1 C 5.45 g/m*3 3.1 C 0 km/h
186 10-12-2008 13:05:32 3.1 C 5.45 g/m*3 3.1 C 0 km/h
187 10-12-2008 13:17:32 3.1 C 5.39 g/m*3 3.1 C 0 km/h
188 10-12-2008 13:29:32 3.2 C 5.42 g/m*3 3.2 C 0 km/h
189 10-12-2008 13:41:31 3.3 C 5.46 g/m*3 3.3 C 0 km/h
190 10-12-2008 13:53:31 3.3 C 5.46 g/m*3 3.3 C 0 km/h
191 10-12-2008 14:05:31 3.3 C 5.4 g/m*3 3.3 C 0 km/h
192 10-12-2008 14:17:31 3.4 C 5.44 g/m*3 3.4 C 0 km/h
193 10-12-2008 14:29:31 3.5 C 5.47 g/m*3 3.5 C 0 km/h
194 10-12-2008 14:41:32 3.5 C 5.47 g/m*3 3.5 C 0 km/h
195 10-12-2008 14:53:30 3.4 C 5.44 g/m*3 3.4 C 0 km/h
196 10-12-2008 15:05:31 3.4 C 5.44 g/m*3 3.4 C 0 km/h
197 10-12-2008 15:17:30 3.5 C 5.47 g/m*3 3.5 C 0 km/h
198 10-12-2008 15:29:30 3.5 C 5.47 g/m*3 3.5 C 0 km/h
199 10-12-2008 15:41:30 3.4 C 5.44 g/m*3 3.4 C 0 km/h
200 10-12-2008 15:53:30 3.4 C 5.44 g/m*3 3.4 C 0 km/h
Sensor: Nr:Datum:Temp:Abs-Feuchte:Windchill:Wind:
Aussen-T/F 201 10-12-2008 16:05:30 3.2 C 5.36 g/m*3 3.2 C 0 km/h
202 10-12-2008 16:17:30 3.1 C 5.33 g/m*3 3.1 C 0 km/h
203 10-12-2008 16:29:30 3 C 5.35 g/m*3 3 C 0 km/h
204 10-12-2008 16:41:30 2.7 C 5.3 g/m*3 2.7 C 0 km/h
205 10-12-2008 16:53:30 2.5 C 5.23 g/m*3 2.5 C 0 km/h
206 10-12-2008 17:05:29 2.3 C 5.16 g/m*3 2.3 C 0 km/h
207 10-12-2008 17:17:30 2.2 C 5.13 g/m*3 2.2 C 0 km/h
208 10-12-2008 17:29:31 2.1 C 5.09 g/m*3 2.1 C 0 km/h
209 10-12-2008 17:41:29 2.1 C 5.09 g/m*3 2.1 C 0 km/h
210 10-12-2008 17:53:29 2.2 C 5.18 g/m*3 2.2 C 0 km/h
211 10-12-2008 18:05:28 2.3 C 5.22 g/m*3 2.3 C 0 km/h
212 10-12-2008 18:17:29 2.4 C 5.25 g/m*3 2.4 C 0 km/h
213 10-12-2008 18:29:29 2.4 C 5.25 g/m*3 2.4 C 0 km/h
214 10-12-2008 18:41:29 2.4 C 5.25 g/m*3 2.4 C 0 km/h
215 10-12-2008 18:53:28 2.3 C 5.22 g/m*3 2.3 C 0 km/h
216 10-12-2008 19:05:29 2.2 C 5.18 g/m*3 2.2 C 0 km/h
217 10-12-2008 19:17:28 2.2 C 5.18 g/m*3 2.2 C 0 km/h
218 10-12-2008 19:29:28 2 C 5.11 g/m*3 2 C 0 km/h
219 10-12-2008 19:41:28 2 C 5.11 g/m*3 2 C 0 km/h
220 10-12-2008 19:53:28 2 C 5.11 g/m*3 2 C 0 km/h
221 10-12-2008 20:05:28 2 C 5.11 g/m*3 2 C 0 km/h
222 10-12-2008 20:17:28 1.9 C 5.13 g/m*3 1.9 C 0 km/h
223 10-12-2008 20:29:28 2 C 5.11 g/m*3 2 C 0 km/h
224 10-12-2008 20:41:27 2.1 C 5.2 g/m*3 2.1 C 0 km/h
225 10-12-2008 20:53:28 2.1 C 5.2 g/m*3 2.1 C 0 km/h
Sensor: Nr:Datum:Temp:Abs-Feuchte:Windchill:Wind:
Aussen-T/F 226 10-12-2008 21:05:27 2 C 5.17 g/m*3 2 C 0 km/h
227 10-12-2008 21:17:27 1.9 C 5.13 g/m*3 1.9 C 0 km/h
228 10-12-2008 21:29:27 1.8 C 5.1 g/m*3 1.8 C 0 km/h
229 10-12-2008 21:41:27 1.7 C 5.06 g/m*3 1.7 C 0 km/h
230 10-12-2008 21:53:27 1.5 C 4.99 g/m*3 1.5 C 0 km/h
231 10-12-2008 22:05:26 1.6 C 5.03 g/m*3 1.6 C 0 km/h
232 10-12-2008 22:18:02 1.7 C 5.12 g/m*3 1.7 C 0 km/h
233 10-12-2008 22:30:02 1.8 C 5.15 g/m*3 1.8 C 0 km/h
234 10-12-2008 22:42:02 1.9 C 5.19 g/m*3 1.9 C 0 km/h
235 10-12-2008 22:54:03 2 C 5.22 g/m*3 2 C 0 km/h
236 10-12-2008 23:06:03 1.9 C 5.19 g/m*3 1.9 C 0 km/h
237 10-12-2008 23:18:03 1.9 C 5.19 g/m*3 1.9 C 0 km/h
238 10-12-2008 23:30:03 1.9 C 5.19 g/m*3 1.9 C 0 km/h
239 10-12-2008 23:42:03 1.8 C 5.15 g/m*3 1.8 C 0 km/h
240 10-12-2008 23:54:03 1.7 C 5.12 g/m*3 1.7 C 0 km/h
241 11-12-2008 00:06:03 1.5 C 5.05 g/m*3 1.5 C 0 km/h
242 11-12-2008 00:18:03 1.6 C 5.08 g/m*3 1.6 C 0 km/h
243 11-12-2008 00:30:03 1.6 C 5.08 g/m*3 1.6 C 0 km/h
244 11-12-2008 00:42:03 1.5 C 5.05 g/m*3 1.5 C 0 km/h
245 11-12-2008 00:54:03 1.5 C 5.05 g/m*3 1.5 C 0 km/h
246 11-12-2008 01:06:03 1.5 C 5.05 g/m*3 1.5 C 0 km/h
247 11-12-2008 01:18:03 1.5 C 5.05 g/m*3 1.5 C 0 km/h
248 11-12-2008 01:30:03 1.5 C 5.05 g/m*3 1.5 C 0 km/h
249 11-12-2008 01:42:03 1.6 C 5.08 g/m*3 1.6 C 0 km/h
250 11-12-2008 01:54:03 1.5 C 5.05 g/m*3 1.5 C 0 km/h
Sensor: Nr:Datum:Temp:Abs-Feuchte:Windchill:Wind:
Aussen-T/F 251 11-12-2008 02:06:03 1.4 C 5.01 g/m*3 1.4 C 0 km/h
252 11-12-2008 02:18:03 1.2 C 4.89 g/m*3 1.2 C 0 km/h
253 11-12-2008 02:30:03 0.9 C 4.85 g/m*3 0.9 C 0 km/h
254 11-12-2008 02:42:04 0.6 C 4.7 g/m*3 0.6 C 0 km/h
255 11-12-2008 02:54:04 0.5 C 4.66 g/m*3 0.5 C 0 km/h
256 11-12-2008 03:06:04 0.5 C 4.71 g/m*3 0.5 C 0 km/h
257 11-12-2008 03:18:04 0.5 C 4.71 g/m*3 0.5 C 0 km/h
258 11-12-2008 03:30:04 0.6 C 4.75 g/m*3 0.6 C 0 km/h
259 11-12-2008 03:42:04 0.8 C 4.81 g/m*3 0.8 C 0 km/h
260 11-12-2008 03:54:04 1 C 4.88 g/m*3 1 C 0 km/h
261 11-12-2008 04:06:04 1 C 4.88 g/m*3 1 C 0 km/h
262 11-12-2008 04:18:04 0.9 C 4.85 g/m*3 0.9 C 0 km/h
263 11-12-2008 04:30:04 0.9 C 4.79 g/m*3 0.9 C 0 km/h
264 11-12-2008 04:42:04 1 C 4.83 g/m*3 1 C 0 km/h
265 11-12-2008 04:54:04 1 C 4.78 g/m*3 1 C 0 km/h
266 11-12-2008 05:06:04 1 C 4.78 g/m*3 1 C 0 km/h
267 11-12-2008 05:18:04 1 C 4.78 g/m*3 1 C 0 km/h
268 11-12-2008 05:30:04 1 C 4.78 g/m*3 1 C 0 km/h
269 11-12-2008 05:42:04 1 C 4.72 g/m*3 1 C 0 km/h
270 11-12-2008 05:54:04 1 C 4.72 g/m*3 1 C 0 km/h
271 11-12-2008 06:06:04 1.1 C 4.76 g/m*3 1.1 C 0 km/h
272 11-12-2008 06:18:04 1.1 C 4.7 g/m*3 1.1 C 0 km/h
273 11-12-2008 06:30:05 1 C 4.62 g/m*3 1 C 0 km/h
274 11-12-2008 06:42:05 1.1 C 4.65 g/m*3 1.1 C 0 km/h
275 11-12-2008 06:54:28 1 C 4.57 g/m*3 1 C 0 km/h
Sensor: Nr:Datum:Temp:Abs-Feuchte:Windchill:Wind:
Aussen-T/F 276 11-12-2008 07:06:29 0.9 C 4.54 g/m*3 0.9 C 0 km/h
277 11-12-2008 07:18:27 1 C 4.52 g/m*3 1 C 0 km/h
278 11-12-2008 07:30:27 1 C 4.52 g/m*3 1 C 0 km/h
279 11-12-2008 07:42:28 0.9 C 4.48 g/m*3 0.9 C 0 km/h
280 11-12-2008 07:54:27 0.9 C 4.54 g/m*3 0.9 C 0 km/h
281 11-12-2008 08:06:27 1 C 4.52 g/m*3 1 C 0 km/h
282 11-12-2008 08:18:27 0.9 C 4.48 g/m*3 0.9 C 0 km/h
283 11-12-2008 08:30:27 0.8 C 4.45 g/m*3 0.8 C 0 km/h
284 11-12-2008 08:42:27 0.8 C 4.45 g/m*3 0.8 C 0 km/h
285 11-12-2008 08:54:26 0.8 C 4.45 g/m*3 0.8 C 0 km/h
286 11-12-2008 09:06:26 0.9 C 4.48 g/m*3 0.9 C 0 km/h
287 11-12-2008 09:18:27 1 C 4.46 g/m*3 1 C 0 km/h
288 11-12-2008 09:30:27 1.1 C 4.49 g/m*3 1.1 C 0 km/h
289 11-12-2008 09:42:27 1.3 C 4.56 g/m*3 1.3 C 0 km/h
290 11-12-2008 09:54:26 1.4 C 4.53 g/m*3 1.4 C 0 km/h
291 11-12-2008 10:06:26 1.5 C 4.51 g/m*3 1.5 C 0 km/h
292 11-12-2008 10:18:26 1.6 C 4.49 g/m*3 1.6 C 0 km/h
293 11-12-2008 10:30:26 1.7 C 4.46 g/m*3 1.7 C 0 km/h
294 11-12-2008 10:42:26 2 C 4.45 g/m*3 2 C 0 km/h
295 11-12-2008 10:54:25 2.3 C 4.54 g/m*3 2.3 C 0 km/h
296 11-12-2008 11:06:26 2.4 C 4.51 g/m*3 2.4 C 0 km/h
297 11-12-2008 11:18:25 2.3 C 4.31 g/m*3 2.3 C 0 km/h
298 11-12-2008 11:30:25 2.4 C 4.34 g/m*3 2.4 C 0 km/h
299 11-12-2008 11:42:25 2.6 C 4.4 g/m*3 2.6 C 0 km/h
300 11-12-2008 11:54:25 2.8 C 4.4 g/m*3 2.8 C 0 km/h
Sensor: Nr:Datum:Temp:Abs-Feuchte:Windchill:Wind:
Aussen-T/F 301 11-12-2008 12:06:25 2.6 C 4.28 g/m*3 2.6 C 0 km/h
302 11-12-2008 12:18:24 2.7 C 4.37 g/m*3 2.7 C 0 km/h
303 11-12-2008 12:30:24 2.9 C 4.43 g/m*3 2.9 C 0 km/h
304 11-12-2008 12:42:24 2.9 C 4.37 g/m*3 2.9 C 0 km/h
305 11-12-2008 12:54:25 3 C 4.28 g/m*3 3 C 0 km/h
306 11-12-2008 13:06:24 3.1 C 4.31 g/m*3 3.1 C 0 km/h
307 11-12-2008 13:18:24 3.2 C 4.34 g/m*3 3.2 C 0 km/h
308 11-12-2008 13:30:24 3 C 4.22 g/m*3 3 C 0 km/h
309 11-12-2008 13:42:24 2.8 C 4.28 g/m*3 2.8 C 0 km/h
310 11-12-2008 13:54:24 2.9 C 4.31 g/m*3 2.9 C 0 km/h
311 11-12-2008 14:06:23 3.1 C 4.31 g/m*3 3.1 C 0 km/h
312 11-12-2008 14:18:24 3.1 C 4.31 g/m*3 3.1 C 0 km/h
313 11-12-2008 14:30:24 3.2 C 4.4 g/m*3 3.2 C 0 km/h
314 11-12-2008 14:42:24 3 C 4.28 g/m*3 3 C 0 km/h
315 11-12-2008 14:54:23 3 C 4.28 g/m*3 3 C 0 km/h
316 11-12-2008 15:06:24 2.9 C 4.31 g/m*3 2.9 C 0 km/h
317 11-12-2008 15:18:23 2.7 C 4.25 g/m*3 2.7 C 0 km/h
318 11-12-2008 15:30:23 2.8 C 4.34 g/m*3 2.8 C 0 km/h
319 11-12-2008 15:42:23 2.7 C 4.31 g/m*3 2.7 C 0 km/h
320 11-12-2008 15:54:23 2.7 C 4.37 g/m*3 2.7 C 0 km/h
321 11-12-2008 16:06:23 2.4 C 4.34 g/m*3 2.4 C 0 km/h
322 11-12-2008 16:18:22 2.2 C 4.39 g/m*3 2.2 C 0 km/h
323 11-12-2008 16:30:22 2.2 C 4.45 g/m*3 2.2 C 0 km/h
324 11-12-2008 16:42:22 2.1 C 4.48 g/m*3 2.1 C 0 km/h
325 11-12-2008 16:54:22 2.1 C 4.48 g/m*3 2.1 C 0 km/h
Sensor: Nr:Datum:Temp:Abs-Feuchte:Windchill:Wind:
Aussen-T/F 326 11-12-2008 17:06:22 2.1 C 4.48 g/m*3 2.1 C 0 km/h
327 11-12-2008 17:18:22 2 C 4.5 g/m*3 2 C 0 km/h
328 11-12-2008 17:30:22 2 C 4.5 g/m*3 2 C 0 km/h
329 11-12-2008 17:42:22 2 C 4.5 g/m*3 2 C 0 km/h
330 11-12-2008 17:54:22 2 C 4.56 g/m*3 2 C 0 km/h
331 11-12-2008 18:06:23 2.1 C 4.59 g/m*3 2.1 C 0 km/h
332 11-12-2008 18:18:22 2 C 4.56 g/m*3 2 C 0 km/h
333 11-12-2008 18:30:22 1.8 C 4.49 g/m*3 1.8 C 0 km/h
334 11-12-2008 18:42:23 1.7 C 4.46 g/m*3 1.7 C 0 km/h
335 11-12-2008 18:54:22 1.7 C 4.46 g/m*3 1.7 C 0 km/h
336 11-12-2008 19:06:22 1.6 C 4.43 g/m*3 1.6 C 0 km/h
337 11-12-2008 19:18:21 1.6 C 4.49 g/m*3 1.6 C 0 km/h
338 11-12-2008 19:30:21 1.6 C 4.49 g/m*3 1.6 C 0 km/h
339 11-12-2008 19:42:22 1.5 C 4.46 g/m*3 1.5 C 0 km/h
340 11-12-2008 19:54:21 1.4 C 4.43 g/m*3 1.4 C 0 km/h
341 11-12-2008 20:06:21 1.2 C 4.37 g/m*3 1.2 C 0 km/h
342 11-12-2008 20:18:21 1.2 C 4.42 g/m*3 1.2 C 0 km/h
343 11-12-2008 20:30:21 1 C 4.36 g/m*3 1 C 0 km/h
344 11-12-2008 20:42:21 0.9 C 4.38 g/m*3 0.9 C 0 km/h
345 11-12-2008 20:54:20 0.7 C 4.32 g/m*3 0.7 C 0 km/h
346 11-12-2008 21:06:21 0.7 C 4.37 g/m*3 0.7 C 0 km/h
347 11-12-2008 21:18:20 0.7 C 4.37 g/m*3 0.7 C 0 km/h
348 11-12-2008 21:30:20 0.7 C 4.42 g/m*3 0.7 C 0 km/h
349 11-12-2008 21:42:20 0.5 C 4.36 g/m*3 0.5 C 0 km/h
350 11-12-2008 21:54:19 0.4 C 4.33 g/m*3 0.4 C 0 km/h
Sensor: Nr:Datum:Temp:Abs-Feuchte:Windchill:Wind:
Aussen-T/F 351 11-12-2008 22:06:19 0.3 C 4.3 g/m*3 0.3 C 0 km/h
352 11-12-2008 22:18:19 0.1 C 4.29 g/m*3 0.1 C 0 km/h
353 11-12-2008 22:30:19 0 C 4.26 g/m*3 0 C 0 km/h
354 11-12-2008 22:42:19 -0.2 C 4.21 g/m*3 -0.2 C 0 km/h
355 11-12-2008 22:55:20 -0.2 C 4.21 g/m*3 -0.2 C 0 km/h
356 11-12-2008 23:07:20 -0.3 C 4.18 g/m*3 -0.3 C 0 km/h
357 11-12-2008 23:19:21 -0.3 C 4.22 g/m*3 -0.3 C 0 km/h
358 11-12-2008 23:31:21 -0.2 C 4.25 g/m*3 -0.2 C 0 km/h
359 11-12-2008 23:43:21 -0.4 C 4.19 g/m*3 -0.4 C 0 km/h
360 11-12-2008 23:55:21 -0.6 C 4.14 g/m*3 -0.6 C 0 km/h
361 12-12-2008 00:07:21 -0.8 C 4.08 g/m*3 -0.8 C 0 km/h
362 12-12-2008 00:19:21 -0.9 C 4.05 g/m*3 -0.9 C 0 km/h
363 12-12-2008 00:31:21 -0.9 C 4.1 g/m*3 -0.9 C 0 km/h
364 12-12-2008 00:43:21 -0.6 C 4.23 g/m*3 -0.6 C 0 km/h
365 12-12-2008 00:55:21 -0.3 C 4.32 g/m*3 -0.3 C 0 km/h
366 12-12-2008 01:07:21 -0.5 C 4.26 g/m*3 -0.5 C 0 km/h
367 12-12-2008 01:19:21 -0.6 C 4.23 g/m*3 -0.6 C 0 km/h
368 12-12-2008 01:31:21 -0.5 C 4.26 g/m*3 -0.5 C 0 km/h
369 12-12-2008 01:43:21 -0.5 C 4.26 g/m*3 -0.5 C 0 km/h
370 12-12-2008 01:55:21 -0.5 C 4.26 g/m*3 -0.5 C 0 km/h
371 12-12-2008 02:07:21 -0.6 C 4.23 g/m*3 -0.6 C 0 km/h
372 12-12-2008 02:19:21 -0.7 C 4.2 g/m*3 -0.7 C 0 km/h
373 12-12-2008 02:31:21 -1 C 4.07 g/m*3 -1 C 0 km/h
374 12-12-2008 02:43:21 -0.9 C 4.14 g/m*3 -0.9 C 0 km/h
375 12-12-2008 02:55:21 -0.8 C 4.17 g/m*3 -0.8 C 0 km/h
Sensor: Nr:Datum:Temp:Abs-Feuchte:Windchill:Wind:
Aussen-T/F 376 12-12-2008 03:07:22 -0.9 C 4.14 g/m*3 -0.9 C 0 km/h
377 12-12-2008 03:19:22 -1 C 4.07 g/m*3 -1 C 0 km/h
378 12-12-2008 03:31:22 -1 C 4.07 g/m*3 -1 C 0 km/h
379 12-12-2008 03:43:22 -1.2 C 4.01 g/m*3 -1.2 C 0 km/h
380 12-12-2008 03:55:22 -1.4 C 3.96 g/m*3 -1.4 C 0 km/h
381 12-12-2008 04:07:22 -1.3 C 3.98 g/m*3 -1.3 C 0 km/h
382 12-12-2008 04:19:22 -1.5 C 3.93 g/m*3 -1.5 C 0 km/h
383 12-12-2008 04:31:22 -1.6 C 3.9 g/m*3 -1.6 C 0 km/h
384 12-12-2008 04:43:22 -1.4 C 4 g/m*3 -1.4 C 0 km/h
385 12-12-2008 04:55:22 -1.5 C 3.97 g/m*3 -1.5 C 0 km/h
386 12-12-2008 05:07:22 -1.4 C 4 g/m*3 -1.4 C 0 km/h
387 12-12-2008 05:19:22 -1.2 C 4.06 g/m*3 -1.2 C 0 km/h
388 12-12-2008 05:31:22 -1.1 C 4.09 g/m*3 -1.1 C 0 km/h
389 12-12-2008 05:43:22 -1.5 C 3.93 g/m*3 -1.5 C 0 km/h
390 12-12-2008 05:55:22 -1.8 C 3.85 g/m*3 -1.8 C 0 km/h
391 12-12-2008 06:07:22 -1.5 C 3.93 g/m*3 -1.5 C 0 km/h
392 12-12-2008 06:19:22 -1.6 C 3.9 g/m*3 -1.6 C 0 km/h
393 12-12-2008 06:31:22 -1.5 C 3.93 g/m*3 -1.5 C 0 km/h
394 12-12-2008 06:43:22 -1.6 C 3.9 g/m*3 -1.6 C 0 km/h
395 12-12-2008 06:55:22 -1.5 C 3.93 g/m*3 -1.5 C 0 km/h
396 12-12-2008 07:07:20 -1.6 C 3.9 g/m*3 -1.6 C 0 km/h
397 12-12-2008 07:19:20 -1.7 C 3.83 g/m*3 -1.7 C 0 km/h
398 12-12-2008 07:31:20 -1.5 C 3.89 g/m*3 -1.5 C 0 km/h
399 12-12-2008 07:43:20 -1.3 C 3.94 g/m*3 -1.3 C 0 km/h
400 12-12-2008 07:55:20 -1.1 C 4 g/m*3 -1.1 C 0 km/h
Sensor: Nr:Datum:Temp:Abs-Feuchte:Windchill:Wind:
Aussen-T/F 401 12-12-2008 08:07:20 -0.9 C 4.01 g/m*3 -0.9 C 0 km/h
402 12-12-2008 08:19:19 -0.8 C 3.99 g/m*3 -0.8 C 0 km/h
403 12-12-2008 08:31:19 -0.7 C 3.97 g/m*3 -0.7 C 0 km/h
404 12-12-2008 08:43:20 -0.6 C 3.9 g/m*3 -0.6 C 0 km/h
405 12-12-2008 08:55:19 -0.6 C 3.9 g/m*3 -0.6 C 0 km/h
406 12-12-2008 09:07:19 -0.4 C 3.96 g/m*3 -0.4 C 0 km/h
407 12-12-2008 09:19:18 -0.3 C 3.99 g/m*3 -0.3 C 0 km/h
408 12-12-2008 09:31:19 -0.2 C 4.01 g/m*3 -0.2 C 0 km/h
409 12-12-2008 09:43:19 -0.1 C 4.04 g/m*3 -0.1 C 0 km/h
410 12-12-2008 09:55:18 0.1 C 4.1 g/m*3 0.1 C 0 km/h
411 12-12-2008 10:07:18 0.2 C 4.13 g/m*3 0.2 C 0 km/h
412 12-12-2008 10:19:18 0.7 C 4.27 g/m*3 0.7 C 0 km/h
413 12-12-2008 10:31:18 0.6 C 4.24 g/m*3 0.6 C 0 km/h
414 12-12-2008 10:43:18 0.7 C 4.22 g/m*3 0.7 C 0 km/h
415 12-12-2008 10:55:18 0.9 C 4.28 g/m*3 0.9 C 0 km/h
416 12-12-2008 11:07:17 0.9 C 4.12 g/m*3 0.9 C 0 km/h
417 12-12-2008 11:19:18 0.9 C 3.92 g/m*3 0.9 C 0 km/h
418 12-12-2008 11:31:18 0.8 C 3.79 g/m*3 0.8 C 0 km/h
419 12-12-2008 11:43:18 0.8 C 3.79 g/m*3 0.8 C 0 km/h
420 12-12-2008 11:55:17 0.8 C 3.69 g/m*3 0.8 C 0 km/h
421 12-12-2008 12:07:18 1 C 3.69 g/m*3 1 C 0 km/h
422 12-12-2008 12:19:17 1 C 3.69 g/m*3 1 C 0 km/h
423 12-12-2008 12:31:17 1 C 3.63 g/m*3 1 C 0 km/h
424 12-12-2008 12:43:17 1 C 3.63 g/m*3 1 C 0 km/h
425 12-12-2008 12:55:17 1 C 3.69 g/m*3 1 C 0 km/h
Sensor: Nr:Datum:Temp:Abs-Feuchte:Windchill:Wind:
Aussen-T/F 426 12-12-2008 13:07:17 0.8 C 3.69 g/m*3 0.8 C 0 km/h
427 12-12-2008 13:19:16 0.8 C 3.63 g/m*3 0.8 C 0 km/h
428 12-12-2008 13:31:16 0.8 C 3.69 g/m*3 0.8 C 0 km/h
429 12-12-2008 13:43:16 1 C 3.69 g/m*3 1 C 0 km/h
430 12-12-2008 13:55:16 1 C 3.69 g/m*3 1 C 0 km/h
431 12-12-2008 14:07:16 0.8 C 3.63 g/m*3 0.8 C 0 km/h
432 12-12-2008 14:19:16 0.9 C 3.66 g/m*3 0.9 C 0 km/h
433 12-12-2008 14:31:16 1 C 3.63 g/m*3 1 C 0 km/h
434 12-12-2008 14:43:16 1 C 3.69 g/m*3 1 C 0 km/h
435 12-12-2008 14:55:16 0.9 C 3.61 g/m*3 0.9 C 0 km/h
436 12-12-2008 15:07:15 0.9 C 3.66 g/m*3 0.9 C 0 km/h
437 12-12-2008 15:19:16 0.9 C 3.66 g/m*3 0.9 C 0 km/h
438 12-12-2008 15:31:16 0.8 C 3.69 g/m*3 0.8 C 0 km/h
439 12-12-2008 15:43:16 0.8 C 3.69 g/m*3 0.8 C 0 km/h
440 12-12-2008 15:55:15 0.7 C 3.66 g/m*3 0.7 C 0 km/h
441 12-12-2008 16:07:15 0.6 C 3.64 g/m*3 0.6 C 0 km/h
442 12-12-2008 16:19:15 0.6 C 3.64 g/m*3 0.6 C 0 km/h
443 12-12-2008 16:31:15 0.5 C 3.66 g/m*3 0.5 C 0 km/h
444 12-12-2008 16:43:15 0.4 C 3.64 g/m*3 0.4 C 0 km/h
445 12-12-2008 16:55:14 0.4 C 3.64 g/m*3 0.4 C 0 km/h
446 12-12-2008 17:07:15 0.4 C 3.64 g/m*3 0.4 C 0 km/h
447 12-12-2008 17:19:14 0.4 C 3.69 g/m*3 0.4 C 0 km/h
448 12-12-2008 17:31:14 0.4 C 3.64 g/m*3 0.4 C 0 km/h
449 12-12-2008 17:43:14 0.3 C 3.56 g/m*3 0.3 C 0 km/h
450 12-12-2008 17:55:14 0.3 C 3.56 g/m*3 0.3 C 0 km/h
Sensor: Nr:Datum:Temp:Abs-Feuchte:Windchill:Wind:
Aussen-T/F 451 12-12-2008 18:07:15 0.3 C 3.61 g/m*3 0.3 C 0 km/h
452 12-12-2008 18:19:16 0.2 C 3.59 g/m*3 0.2 C 0 km/h
453 12-12-2008 18:31:14 0.1 C 3.51 g/m*3 0.1 C 0 km/h
454 12-12-2008 18:43:14 0.2 C 3.59 g/m*3 0.2 C 0 km/h
455 12-12-2008 18:55:13 0.1 C 3.51 g/m*3 0.1 C 0 km/h
456 12-12-2008 19:07:14 0 C 3.49 g/m*3 0 C 0 km/h
457 12-12-2008 19:19:13 0 C 3.49 g/m*3 0 C 0 km/h
458 12-12-2008 19:31:14 0 C 3.54 g/m*3 0 C 0 km/h
459 12-12-2008 19:43:14 -0.1 C 3.51 g/m*3 -0.1 C 0 km/h
460 12-12-2008 19:55:13 -0.2 C 3.44 g/m*3 -0.2 C 0 km/h
461 12-12-2008 20:07:13 -0.3 C 3.42 g/m*3 -0.3 C 0 km/h
462 12-12-2008 20:19:13 -0.3 C 3.42 g/m*3 -0.3 C 0 km/h
463 12-12-2008 20:31:13 -0.3 C 3.42 g/m*3 -0.3 C 0 km/h
464 12-12-2008 20:43:13 -0.3 C 3.42 g/m*3 -0.3 C 0 km/h
465 12-12-2008 20:55:12 -0.4 C 3.39 g/m*3 -0.4 C 0 km/h
466 12-12-2008 21:07:13 -0.5 C 3.37 g/m*3 -0.5 C 0 km/h
467 12-12-2008 21:19:12 -0.4 C 3.39 g/m*3 -0.4 C 0 km/h
468 12-12-2008 21:31:12 -0.5 C 3.37 g/m*3 -0.5 C 0 km/h
469 12-12-2008 21:43:12 -0.4 C 3.35 g/m*3 -0.4 C 0 km/h
470 12-12-2008 21:55:11 -0.4 C 3.35 g/m*3 -0.4 C 0 km/h
471 12-12-2008 22:07:12 -0.4 C 3.39 g/m*3 -0.4 C 0 km/h
472 12-12-2008 22:20:38 -0.4 C 3.39 g/m*3 -0.4 C 0 km/h
473 12-12-2008 22:32:38 -0.5 C 3.32 g/m*3 -0.5 C 0 km/h
474 12-12-2008 22:44:38 -0.5 C 3.32 g/m*3 -0.5 C 0 km/h
475 12-12-2008 22:56:38 -0.6 C 3.35 g/m*3 -0.6 C 0 km/h
Sensor: Nr:Datum:Temp:Abs-Feuchte:Windchill:Wind:
Aussen-T/F 476 12-12-2008 23:08:38 -0.6 C 3.3 g/m*3 -0.6 C 0 km/h
477 12-12-2008 23:20:38 -0.7 C 3.32 g/m*3 -0.7 C 0 km/h
478 12-12-2008 23:32:38 -0.6 C 3.35 g/m*3 -0.6 C 0 km/h
479 12-12-2008 23:44:38 -0.6 C 3.35 g/m*3 -0.6 C 0 km/h
480 12-12-2008 23:56:38 -0.6 C 3.35 g/m*3 -0.6 C 0 km/h
481 13-12-2008 00:08:38 -0.6 C 3.35 g/m*3 -0.6 C 0 km/h
482 13-12-2008 00:20:38 -0.7 C 3.32 g/m*3 -0.7 C 0 km/h
483 13-12-2008 00:32:38 -0.7 C 3.32 g/m*3 -0.7 C 0 km/h
484 13-12-2008 00:44:38 -0.7 C 3.37 g/m*3 -0.7 C 0 km/h
485 13-12-2008 00:56:38 -0.7 C 3.37 g/m*3 -0.7 C 0 km/h
486 13-12-2008 01:08:38 -0.7 C 3.37 g/m*3 -0.7 C 0 km/h
487 13-12-2008 01:20:38 -0.7 C 3.37 g/m*3 -0.7 C 0 km/h
488 13-12-2008 01:32:39 -0.7 C 3.37 g/m*3 -0.7 C 0 km/h
489 13-12-2008 01:44:39 -0.7 C 3.37 g/m*3 -0.7 C 0 km/h
490 13-12-2008 01:56:39 -0.8 C 3.35 g/m*3 -0.8 C 0 km/h
491 13-12-2008 02:08:39 -0.8 C 3.39 g/m*3 -0.8 C 0 km/h
492 13-12-2008 02:20:39 -0.9 C 3.37 g/m*3 -0.9 C 0 km/h
493 13-12-2008 02:32:39 -0.9 C 3.37 g/m*3 -0.9 C 0 km/h
494 13-12-2008 02:44:39 -1 C 3.35 g/m*3 -1 C 0 km/h
495 13-12-2008 02:56:39 -1.1 C 3.32 g/m*3 -1.1 C 0 km/h
496 13-12-2008 03:08:39 -1.1 C 3.32 g/m*3 -1.1 C 0 km/h
497 13-12-2008 03:20:39 -1.1 C 3.32 g/m*3 -1.1 C 0 km/h
498 13-12-2008 03:32:39 -1.1 C 3.32 g/m*3 -1.1 C 0 km/h
499 13-12-2008 03:44:39 -1.2 C 3.3 g/m*3 -1.2 C 0 km/h
500 13-12-2008 03:56:39 -1.2 C 3.3 g/m*3 -1.2 C 0 km/h
Sensor: Nr:Datum:Temp:Abs-Feuchte:Windchill:Wind:
Aussen-T/F 501 13-12-2008 04:08:39 -1.3 C 3.28 g/m*3 -1.3 C 0 km/h
502 13-12-2008 04:20:39 -1.3 C 3.32 g/m*3 -1.3 C 0 km/h
503 13-12-2008 04:32:39 -1.3 C 3.32 g/m*3 -1.3 C 0 km/h
504 13-12-2008 04:44:39 -1.3 C 3.32 g/m*3 -1.3 C 0 km/h
505 13-12-2008 04:56:39 -1.3 C 3.32 g/m*3 -1.3 C 0 km/h
506 13-12-2008 05:08:39 -1.2 C 3.34 g/m*3 -1.2 C 0 km/h
507 13-12-2008 05:20:40 -1.1 C 3.41 g/m*3 -1.1 C 0 km/h
508 13-12-2008 05:32:40 -1.1 C 3.37 g/m*3 -1.1 C 0 km/h
509 13-12-2008 05:44:40 -1 C 3.39 g/m*3 -1 C 0 km/h
510 13-12-2008 05:56:40 -0.9 C 3.41 g/m*3 -0.9 C 0 km/h
511 13-12-2008 06:08:40 -0.8 C 3.44 g/m*3 -0.8 C 0 km/h
512 13-12-2008 06:20:40 -0.8 C 3.44 g/m*3 -0.8 C 0 km/h
513 13-12-2008 06:32:40 -0.8 C 3.44 g/m*3 -0.8 C 0 km/h
514 13-12-2008 06:44:40 -0.8 C 3.39 g/m*3 -0.8 C 0 km/h
515 13-12-2008 06:56:40 -0.7 C 3.46 g/m*3 -0.7 C 0 km/h
516 13-12-2008 07:08:40 -0.7 C 3.46 g/m*3 -0.7 C 0 km/h
517 13-12-2008 07:20:40 -0.7 C 3.46 g/m*3 -0.7 C 0 km/h
518 13-12-2008 07:32:40 -0.6 C 3.49 g/m*3 -0.6 C 0 km/h
519 13-12-2008 07:44:40 -0.6 C 3.49 g/m*3 -0.6 C 0 km/h
520 13-12-2008 07:56:40 -0.6 C 3.49 g/m*3 -0.6 C 0 km/h
521 13-12-2008 08:08:37 -0.6 C 3.53 g/m*3 -0.6 C 0 km/h
522 13-12-2008 08:20:37 -0.5 C 3.56 g/m*3 -0.5 C 0 km/h
523 13-12-2008 08:32:37 -0.5 C 3.56 g/m*3 -0.5 C 0 km/h
524 13-12-2008 08:44:37 -0.5 C 3.56 g/m*3 -0.5 C 0 km/h
525 13-12-2008 08:56:37 -0.5 C 3.6 g/m*3 -0.5 C 0 km/h
Sensor: Nr:Datum:Temp:Abs-Feuchte:Windchill:Wind:
Aussen-T/F 526 13-12-2008 09:08:37 -0.4 C 3.63 g/m*3 -0.4 C 0 km/h
527 13-12-2008 09:20:37 -0.3 C 3.65 g/m*3 -0.3 C 0 km/h
528 13-12-2008 09:32:37 -0.2 C 3.68 g/m*3 -0.2 C 0 km/h
529 13-12-2008 09:44:37 -0.2 C 3.68 g/m*3 -0.2 C 0 km/h
530 13-12-2008 09:56:37 -0.1 C 3.71 g/m*3 -0.1 C 0 km/h
531 13-12-2008 10:08:36 0.1 C 3.76 g/m*3 0.1 C 0 km/h
532 13-12-2008 10:20:37 0.1 C 3.76 g/m*3 0.1 C 0 km/h
533 13-12-2008 10:32:36 0.2 C 3.78 g/m*3 0.2 C 0 km/h
534 13-12-2008 10:44:36 0.3 C 3.81 g/m*3 0.3 C 0 km/h
535 13-12-2008 10:56:36 0.3 C 3.81 g/m*3 0.3 C 0 km/h
536 13-12-2008 11:08:36 0.3 C 3.81 g/m*3 0.3 C 0 km/h
537 13-12-2008 11:20:36 0.3 C 3.81 g/m*3 0.3 C 0 km/h
538 13-12-2008 11:32:36 0.3 C 3.81 g/m*3 0.3 C 0 km/h
539 13-12-2008 11:44:36 0.3 C 3.86 g/m*3 0.3 C 0 km/h
540 13-12-2008 11:56:36 0.4 C 3.93 g/m*3 0.4 C 0 km/h
541 13-12-2008 12:08:36 0.5 C 3.96 g/m*3 0.5 C 0 km/h
542 13-12-2008 12:20:35 0.5 C 3.96 g/m*3 0.5 C 0 km/h
543 13-12-2008 12:32:35 0.5 C 3.96 g/m*3 0.5 C 0 km/h
544 13-12-2008 12:44:35 0.5 C 3.96 g/m*3 0.5 C 0 km/h
545 13-12-2008 12:56:35 0.7 C 3.97 g/m*3 0.7 C 0 km/h
546 13-12-2008 13:08:35 0.7 C 3.97 g/m*3 0.7 C 0 km/h
547 13-12-2008 13:20:34 0.8 C 3.94 g/m*3 0.8 C 0 km/h
548 13-12-2008 13:32:35 0.8 C 3.89 g/m*3 0.8 C 0 km/h
549 13-12-2008 13:44:35 0.8 C 3.84 g/m*3 0.8 C 0 km/h
550 13-12-2008 13:56:34 0.9 C 3.76 g/m*3 0.9 C 0 km/h
Sensor: Nr:Datum:Temp:Abs-Feuchte:Windchill:Wind:
Aussen-T/F 551 13-12-2008 14:08:36 1 C 3.74 g/m*3 1 C 0 km/h
552 13-12-2008 14:20:35 1 C 3.69 g/m*3 1 C 0 km/h
553 13-12-2008 14:32:35 1 C 3.69 g/m*3 1 C 0 km/h
554 13-12-2008 14:44:35 1 C 3.63 g/m*3 1 C 0 km/h
555 13-12-2008 14:56:35 1 C 3.69 g/m*3 1 C 0 km/h
556 13-12-2008 15:08:34 1 C 3.69 g/m*3 1 C 0 km/h
557 13-12-2008 15:20:34 1 C 3.69 g/m*3 1 C 0 km/h
558 13-12-2008 15:32:33 1 C 3.69 g/m*3 1 C 0 km/h
559 13-12-2008 15:44:33 1 C 3.63 g/m*3 1 C 0 km/h
560 13-12-2008 15:56:33 1 C 3.63 g/m*3 1 C 0 km/h
561 13-12-2008 16:08:33 1 C 3.63 g/m*3 1 C 0 km/h
562 13-12-2008 16:20:33 0.9 C 3.66 g/m*3 0.9 C 0 km/h
563 13-12-2008 16:32:33 0.9 C 3.66 g/m*3 0.9 C 0 km/h
564 13-12-2008 16:44:33 0.9 C 3.71 g/m*3 0.9 C 0 km/h
565 13-12-2008 16:56:33 0.8 C 3.69 g/m*3 0.8 C 0 km/h
566 13-12-2008 17:08:32 0.8 C 3.63 g/m*3 0.8 C 0 km/h
567 13-12-2008 17:20:33 0.8 C 3.63 g/m*3 0.8 C 0 km/h
568 13-12-2008 17:32:33 0.8 C 3.63 g/m*3 0.8 C 0 km/h
569 13-12-2008 17:44:33 0.7 C 3.61 g/m*3 0.7 C 0 km/h
570 13-12-2008 17:56:32 0.7 C 3.61 g/m*3 0.7 C 0 km/h
571 13-12-2008 18:08:33 0.8 C 3.63 g/m*3 0.8 C 0 km/h
572 13-12-2008 18:20:32 0.6 C 3.53 g/m*3 0.6 C 0 km/h
573 13-12-2008 18:32:32 0.5 C 3.56 g/m*3 0.5 C 0 km/h
574 13-12-2008 18:44:32 0.3 C 3.51 g/m*3 0.3 C 0 km/h
575 13-12-2008 18:56:32 -0.1 C 3.46 g/m*3 -0.1 C 0 km/h
Sensor: Nr:Datum:Temp:Abs-Feuchte:Windchill:Wind:
Aussen-T/F 576 13-12-2008 19:08:32 -0.2 C 3.49 g/m*3 -0.2 C 0 km/h
577 13-12-2008 19:20:31 -0.2 C 3.49 g/m*3 -0.2 C 0 km/h
578 13-12-2008 19:32:31 -0.2 C 3.44 g/m*3 -0.2 C 0 km/h
579 13-12-2008 19:44:31 -0.6 C 3.39 g/m*3 -0.6 C 0 km/h
580 13-12-2008 19:56:31 -1 C 3.35 g/m*3 -1 C 0 km/h
581 13-12-2008 20:08:31 -1.2 C 3.34 g/m*3 -1.2 C 0 km/h
582 13-12-2008 20:20:31 -1.4 C 3.39 g/m*3 -1.4 C 0 km/h
583 13-12-2008 20:32:31 -0.5 C 3.51 g/m*3 -0.5 C 0 km/h
584 13-12-2008 20:44:31 -0.7 C 3.46 g/m*3 -0.7 C 0 km/h
585 13-12-2008 20:56:31 -1 C 3.44 g/m*3 -1 C 0 km/h
586 13-12-2008 21:08:31 -1 C 3.48 g/m*3 -1 C 0 km/h
587 13-12-2008 21:20:30 -1.1 C 3.5 g/m*3 -1.1 C 0 km/h
588 13-12-2008 21:32:30 -1.3 C 3.5 g/m*3 -1.3 C 0 km/h
589 13-12-2008 21:44:31 -1.4 C 3.52 g/m*3 -1.4 C 0 km/h
590 13-12-2008 21:56:30 -1.3 C 3.59 g/m*3 -1.3 C 0 km/h
591 13-12-2008 22:08:30 -1.1 C 3.64 g/m*3 -1.1 C 0 km/h
592 13-12-2008 22:20:29 -0.9 C 3.69 g/m*3 -0.9 C 0 km/h
593 13-12-2008 22:32:30 -0.5 C 3.7 g/m*3 -0.5 C 0 km/h
594 13-12-2008 22:44:30 -0.6 C 3.63 g/m*3 -0.6 C 0 km/h
595 13-12-2008 22:57:30 -0.8 C 3.58 g/m*3 -0.8 C 0 km/h
596 13-12-2008 23:09:30 -0.9 C 3.6 g/m*3 -0.9 C 0 km/h
597 13-12-2008 23:21:30 -0.8 C 3.62 g/m*3 -0.8 C 0 km/h
598 13-12-2008 23:33:30 -0.6 C 3.67 g/m*3 -0.6 C 0 km/h
599 13-12-2008 23:45:30 -0.7 C 3.65 g/m*3 -0.7 C 0 km/h
600 13-12-2008 23:57:30 -1 C 3.57 g/m*3 -1 C 0 km/h
Sensor: Nr:Datum:Temp:Abs-Feuchte:Windchill:Wind:
Aussen-T/F 601 14-12-2008 00:09:30 -1 C 3.57 g/m*3 -1 C 0 km/h
602 14-12-2008 00:21:30 -1.3 C 3.54 g/m*3 -1.3 C 0 km/h
603 14-12-2008 00:33:30 -1.4 C 3.56 g/m*3 -1.4 C 0 km/h
604 14-12-2008 00:45:30 -1.2 C 3.7 g/m*3 -1.2 C 0 km/h
605 14-12-2008 00:57:30 -1 C 3.75 g/m*3 -1 C 0 km/h
606 14-12-2008 01:09:30 -1.2 C 3.7 g/m*3 -1.2 C 0 km/h
607 14-12-2008 01:21:30 -1.4 C 3.65 g/m*3 -1.4 C 0 km/h
608 14-12-2008 01:33:30 -1.4 C 3.65 g/m*3 -1.4 C 0 km/h
609 14-12-2008 01:45:31 -1.2 C 3.74 g/m*3 -1.2 C 0 km/h
610 14-12-2008 01:57:31 -1 C 3.8 g/m*3 -1 C 0 km/h
611 14-12-2008 02:09:31 -1.1 C 3.73 g/m*3 -1.1 C 0 km/h
612 14-12-2008 02:21:31 -1.2 C 3.7 g/m*3 -1.2 C 0 km/h
613 14-12-2008 02:33:31 -0.8 C 3.8 g/m*3 -0.8 C 0 km/h
614 14-12-2008 02:45:31 -0.5 C 3.88 g/m*3 -0.5 C 0 km/h
615 14-12-2008 02:57:31 -0.4 C 3.86 g/m*3 -0.4 C 0 km/h
616 14-12-2008 03:09:31 -0.5 C 3.84 g/m*3 -0.5 C 0 km/h
617 14-12-2008 03:21:31 -0.4 C 3.86 g/m*3 -0.4 C 0 km/h
618 14-12-2008 03:33:31 -0.5 C 3.84 g/m*3 -0.5 C 0 km/h
619 14-12-2008 03:45:31 -0.5 C 3.84 g/m*3 -0.5 C 0 km/h
620 14-12-2008 03:57:31 -0.6 C 3.81 g/m*3 -0.6 C 0 km/h
621 14-12-2008 04:09:31 -0.8 C 3.76 g/m*3 -0.8 C 0 km/h
622 14-12-2008 04:21:31 -0.9 C 3.73 g/m*3 -0.9 C 0 km/h
623 14-12-2008 04:33:31 -0.8 C 3.8 g/m*3 -0.8 C 0 km/h
624 14-12-2008 04:45:31 -0.8 C 3.8 g/m*3 -0.8 C 0 km/h
625 14-12-2008 04:57:31 -0.9 C 3.78 g/m*3 -0.9 C 0 km/h
Sensor: Nr:Datum:Temp:Abs-Feuchte:Windchill:Wind:
Aussen-T/F 626 14-12-2008 05:09:31 -0.9 C 3.73 g/m*3 -0.9 C 0 km/h
627 14-12-2008 05:21:31 -1 C 3.71 g/m*3 -1 C 0 km/h
628 14-12-2008 05:33:31 -1.1 C 3.73 g/m*3 -1.1 C 0 km/h
629 14-12-2008 05:45:32 -1.1 C 3.73 g/m*3 -1.1 C 0 km/h
630 14-12-2008 05:57:32 -1.1 C 3.73 g/m*3 -1.1 C 0 km/h
631 14-12-2008 06:09:32 -1.1 C 3.73 g/m*3 -1.1 C 0 km/h
632 14-12-2008 06:21:32 -1.1 C 3.77 g/m*3 -1.1 C 0 km/h
633 14-12-2008 06:33:32 -1.1 C 3.77 g/m*3 -1.1 C 0 km/h
634 14-12-2008 06:45:32 -1 C 3.8 g/m*3 -1 C 0 km/h
635 14-12-2008 06:57:32 -1.1 C 3.77 g/m*3 -1.1 C 0 km/h
636 14-12-2008 07:09:32 -1.1 C 3.77 g/m*3 -1.1 C 0 km/h
637 14-12-2008 07:21:32 -1.3 C 3.67 g/m*3 -1.3 C 0 km/h
638 14-12-2008 07:33:32 -1.3 C 3.72 g/m*3 -1.3 C 0 km/h
639 14-12-2008 07:45:32 -1.4 C 3.69 g/m*3 -1.4 C 0 km/h
640 14-12-2008 07:57:32 -1.4 C 3.69 g/m*3 -1.4 C 0 km/h
641 14-12-2008 08:09:31 -1.4 C 3.69 g/m*3 -1.4 C 0 km/h
642 14-12-2008 08:21:30 -1.5 C 3.71 g/m*3 -1.5 C 0 km/h
643 14-12-2008 08:33:31 -1.4 C 3.74 g/m*3 -1.4 C 0 km/h
644 14-12-2008 08:45:30 -1.5 C 3.71 g/m*3 -1.5 C 0 km/h
645 14-12-2008 08:57:30 -1.5 C 3.71 g/m*3 -1.5 C 0 km/h
646 14-12-2008 09:09:30 -1.3 C 3.76 g/m*3 -1.3 C 0 km/h
647 14-12-2008 09:21:30 -1 C 3.89 g/m*3 -1 C 0 km/h
648 14-12-2008 09:33:30 -0.9 C 3.91 g/m*3 -0.9 C 0 km/h
649 14-12-2008 09:45:29 -0.8 C 3.9 g/m*3 -0.8 C 0 km/h
650 14-12-2008 09:57:29 -0.7 C 3.92 g/m*3 -0.7 C 0 km/h
Sensor: Nr:Datum:Temp:Abs-Feuchte:Windchill:Wind:
Aussen-T/F 651 14-12-2008 10:09:30 -0.7 C 3.92 g/m*3 -0.7 C 0 km/h
652 14-12-2008 10:21:30 -0.4 C 4.05 g/m*3 -0.4 C 0 km/h
653 14-12-2008 10:33:29 0 C 4.12 g/m*3 0 C 0 km/h
654 14-12-2008 10:45:30 0.2 C 4.18 g/m*3 0.2 C 0 km/h
655 14-12-2008 10:57:30 0.7 C 4.37 g/m*3 0.7 C 0 km/h
656 14-12-2008 11:09:29 1 C 4.41 g/m*3 1 C 0 km/h
657 14-12-2008 11:21:29 1.2 C 4.42 g/m*3 1.2 C 0 km/h
658 14-12-2008 11:33:28 1.2 C 4.42 g/m*3 1.2 C 0 km/h
659 14-12-2008 11:45:29 1.1 C 4.39 g/m*3 1.1 C 0 km/h
660 14-12-2008 11:57:29 1.1 C 4.44 g/m*3 1.1 C 0 km/h
661 14-12-2008 12:09:29 1.2 C 4.47 g/m*3 1.2 C 0 km/h
662 14-12-2008 12:21:28 1 C 4.41 g/m*3 1 C 0 km/h
663 14-12-2008 12:33:29 1 C 4.46 g/m*3 1 C 0 km/h
664 14-12-2008 12:45:28 1.1 C 4.49 g/m*3 1.1 C 0 km/h
665 14-12-2008 12:57:28 1.4 C 4.64 g/m*3 1.4 C 0 km/h
666 14-12-2008 13:09:28 1.8 C 4.77 g/m*3 1.8 C 0 km/h
667 14-12-2008 13:21:28 2.2 C 4.79 g/m*3 2.2 C 0 km/h
668 14-12-2008 13:33:28 2.4 C 4.8 g/m*3 2.4 C 0 km/h
669 14-12-2008 13:45:27 2.3 C 4.71 g/m*3 2.3 C 0 km/h
670 14-12-2008 13:57:27 2.6 C 4.8 g/m*3 2.6 C 0 km/h
671 14-12-2008 14:09:28 2.8 C 4.81 g/m*3 2.8 C 0 km/h
672 14-12-2008 14:21:28 2.5 C 4.66 g/m*3 2.5 C 0 km/h
673 14-12-2008 14:33:27 2.5 C 4.66 g/m*3 2.5 C 0 km/h
674 14-12-2008 14:45:27 2.4 C 4.62 g/m*3 2.4 C 0 km/h
675 14-12-2008 14:57:27 2.3 C 4.65 g/m*3 2.3 C 0 km/h
Sensor: Nr:Datum:Temp:Abs-Feuchte:Windchill:Wind:
Aussen-T/F 676 14-12-2008 15:09:27 2.4 C 4.68 g/m*3 2.4 C 0 km/h
677 14-12-2008 15:21:27 2.3 C 4.65 g/m*3 2.3 C 0 km/h
678 14-12-2008 15:33:26 2.1 C 4.64 g/m*3 2.1 C 0 km/h
679 14-12-2008 15:45:27 2.1 C 4.64 g/m*3 2.1 C 0 km/h
680 14-12-2008 15:57:28 2.1 C 4.7 g/m*3 2.1 C 0 km/h
681 14-12-2008 16:09:26 2.2 C 4.73 g/m*3 2.2 C 0 km/h
682 14-12-2008 16:21:26 1.7 C 4.57 g/m*3 1.7 C 0 km/h
683 14-12-2008 16:33:27 1.5 C 4.57 g/m*3 1.5 C 0 km/h
684 14-12-2008 16:45:26 1.4 C 4.59 g/m*3 1.4 C 0 km/h
685 14-12-2008 16:57:26 1.2 C 4.53 g/m*3 1.2 C 0 km/h
686 14-12-2008 17:09:26 1.3 C 4.61 g/m*3 1.3 C 0 km/h
687 14-12-2008 17:21:25 1.3 C 4.66 g/m*3 1.3 C 0 km/h
688 14-12-2008 17:33:26 1.2 C 4.63 g/m*3 1.2 C 0 km/h
689 14-12-2008 17:45:25 1.2 C 4.63 g/m*3 1.2 C 0 km/h
690 14-12-2008 17:57:25 1 C 4.62 g/m*3 1 C 0 km/h
691 14-12-2008 18:09:25 1 C 4.62 g/m*3 1 C 0 km/h
692 14-12-2008 18:21:25 0.9 C 4.64 g/m*3 0.9 C 0 km/h
693 14-12-2008 18:33:25 0.9 C 4.64 g/m*3 0.9 C 0 km/h
694 14-12-2008 18:45:25 0.9 C 4.69 g/m*3 0.9 C 0 km/h
695 14-12-2008 18:57:25 0.7 C 4.63 g/m*3 0.7 C 0 km/h
696 14-12-2008 19:09:25 0.5 C 4.51 g/m*3 0.5 C 0 km/h
697 14-12-2008 19:21:25 0.7 C 4.63 g/m*3 0.7 C 0 km/h
698 14-12-2008 19:33:24 0.8 C 4.71 g/m*3 0.8 C 0 km/h
699 14-12-2008 19:45:25 0.7 C 4.68 g/m*3 0.7 C 0 km/h
700 14-12-2008 19:57:25 0.7 C 4.68 g/m*3 0.7 C 0 km/h
Sensor: Nr:Datum:Temp:Abs-Feuchte:Windchill:Wind:
Aussen-T/F 701 14-12-2008 20:09:24 0.9 C 4.74 g/m*3 0.9 C 0 km/h
702 14-12-2008 20:21:24 1 C 4.78 g/m*3 1 C 0 km/h
703 14-12-2008 20:33:24 1.2 C 4.84 g/m*3 1.2 C 0 km/h
704 14-12-2008 20:45:23 1.1 C 4.81 g/m*3 1.1 C 0 km/h
705 14-12-2008 20:57:23 1.2 C 4.84 g/m*3 1.2 C 0 km/h
706 14-12-2008 21:09:24 1 C 4.72 g/m*3 1 C 0 km/h
707 14-12-2008 21:21:23 1 C 4.72 g/m*3 1 C 0 km/h
708 14-12-2008 21:33:24 0.8 C 4.71 g/m*3 0.8 C 0 km/h
709 14-12-2008 21:45:24 0.8 C 4.71 g/m*3 0.8 C 0 km/h
710 14-12-2008 21:57:24 0.8 C 4.71 g/m*3 0.8 C 0 km/h
711 14-12-2008 22:09:23 0.7 C 4.68 g/m*3 0.7 C 0 km/h
712 14-12-2008 22:21:23 0.6 C 4.65 g/m*3 0.6 C 0 km/h
713 14-12-2008 22:34:24 0.5 C 4.61 g/m*3 0.5 C 0 km/h
714 14-12-2008 22:46:24 0.6 C 4.65 g/m*3 0.6 C 0 km/h
715 14-12-2008 22:58:24 0.7 C 4.73 g/m*3 0.7 C 0 km/h
716 14-12-2008 23:10:24 0.6 C 4.65 g/m*3 0.6 C 0 km/h
717 14-12-2008 23:22:24 0.7 C 4.68 g/m*3 0.7 C 0 km/h
718 14-12-2008 23:34:24 0.9 C 4.79 g/m*3 0.9 C 0 km/h
719 14-12-2008 23:46:24 1.3 C 4.87 g/m*3 1.3 C 0 km/h
720 14-12-2008 23:58:25 1.5 C 4.89 g/m*3 1.5 C 0 km/h
721 15-12-2008 00:10:25 1.4 C 4.8 g/m*3 1.4 C 0 km/h
722 15-12-2008 00:22:25 1.2 C 4.68 g/m*3 1.2 C 0 km/h
723 15-12-2008 00:34:25 0.8 C 4.56 g/m*3 0.8 C 0 km/h
724 15-12-2008 00:46:25 0.6 C 4.54 g/m*3 0.6 C 0 km/h
725 15-12-2008 00:58:25 0.5 C 4.51 g/m*3 0.5 C 0 km/h
Sensor: Nr:Datum:Temp:Abs-Feuchte:Windchill:Wind:
Aussen-T/F 726 15-12-2008 01:10:25 0.2 C 4.42 g/m*3 0.2 C 0 km/h
727 15-12-2008 01:22:25 0.2 C 4.47 g/m*3 0.2 C 0 km/h
728 15-12-2008 01:34:25 0.2 C 4.47 g/m*3 0.2 C 0 km/h
729 15-12-2008 01:46:25 0.4 C 4.58 g/m*3 0.4 C 0 km/h
730 15-12-2008 01:58:25 0.3 C 4.55 g/m*3 0.3 C 0 km/h
731 15-12-2008 02:10:25 0.3 C 4.55 g/m*3 0.3 C 0 km/h
732 15-12-2008 02:22:25 0.1 C 4.49 g/m*3 0.1 C 0 km/h
733 15-12-2008 02:34:25 0 C 4.46 g/m*3 0 C 0 km/h
734 15-12-2008 02:46:25 -0.1 C 4.43 g/m*3 -0.1 C 0 km/h
735 15-12-2008 02:58:25 -0.1 C 4.43 g/m*3 -0.1 C 0 km/h
736 15-12-2008 03:10:25 -0.2 C 4.4 g/m*3 -0.2 C 0 km/h
737 15-12-2008 03:22:25 -0.3 C 4.41 g/m*3 -0.3 C 0 km/h
738 15-12-2008 03:34:25 -0.4 C 4.38 g/m*3 -0.4 C 0 km/h
739 15-12-2008 03:46:25 -0.3 C 4.41 g/m*3 -0.3 C 0 km/h
740 15-12-2008 03:58:26 -0.4 C 4.38 g/m*3 -0.4 C 0 km/h
741 15-12-2008 04:10:26 -0.4 C 4.38 g/m*3 -0.4 C 0 km/h
742 15-12-2008 04:22:26 -0.3 C 4.46 g/m*3 -0.3 C 0 km/h
743 15-12-2008 04:34:26 -0.3 C 4.46 g/m*3 -0.3 C 0 km/h
744 15-12-2008 04:46:26 -0.3 C 4.46 g/m*3 -0.3 C 0 km/h
745 15-12-2008 04:58:26 -0.3 C 4.46 g/m*3 -0.3 C 0 km/h
746 15-12-2008 05:10:26 -0.5 C 4.4 g/m*3 -0.5 C 0 km/h
747 15-12-2008 05:22:26 -0.4 C 4.43 g/m*3 -0.4 C 0 km/h
748 15-12-2008 05:34:26 -0.5 C 4.4 g/m*3 -0.5 C 0 km/h
749 15-12-2008 05:46:26 -0.6 C 4.37 g/m*3 -0.6 C 0 km/h
750 15-12-2008 05:58:26 -0.9 C 4.28 g/m*3 -0.9 C 0 km/h
Sensor: Nr:Datum:Temp:Abs-Feuchte:Windchill:Wind:
Aussen-T/F 751 15-12-2008 06:10:26 -1 C 4.25 g/m*3 -1 C 0 km/h
752 15-12-2008 06:22:26 -1 C 4.25 g/m*3 -1 C 0 km/h
753 15-12-2008 06:34:24 -1.1 C 4.26 g/m*3 -1.1 C 0 km/h
754 15-12-2008 06:46:23 -1.3 C 4.16 g/m*3 -1.3 C 0 km/h
755 15-12-2008 06:58:23 -1.6 C 4.07 g/m*3 -1.6 C 0 km/h
756 15-12-2008 07:10:24 -1.4 C 4.18 g/m*3 -1.4 C 0 km/h
757 15-12-2008 07:22:23 -1.5 C 4.15 g/m*3 -1.5 C 0 km/h
758 15-12-2008 07:34:23 -1.4 C 4.18 g/m*3 -1.4 C 0 km/h
759 15-12-2008 07:46:22 -1.4 C 4.18 g/m*3 -1.4 C 0 km/h
760 15-12-2008 07:58:22 -1.6 C 4.12 g/m*3 -1.6 C 0 km/h
761 15-12-2008 08:10:23 -1.7 C 4.09 g/m*3 -1.7 C 0 km/h
762 15-12-2008 08:22:23 -1.9 C 4.03 g/m*3 -1.9 C 0 km/h
763 15-12-2008 08:34:22 -2 C 4 g/m*3 -2 C 0 km/h
764 15-12-2008 08:46:23 -2 C 4 g/m*3 -2 C 0 km/h
765 15-12-2008 08:58:23 -2.1 C 3.98 g/m*3 -2.1 C 0 km/h
766 15-12-2008 09:10:22 -2.1 C 3.98 g/m*3 -2.1 C 0 km/h
767 15-12-2008 09:22:22 -1.8 C 4.06 g/m*3 -1.8 C 0 km/h
768 15-12-2008 09:34:22 -1.8 C 4.06 g/m*3 -1.8 C 0 km/h
769 15-12-2008 09:46:22 -1.8 C 4.06 g/m*3 -1.8 C 0 km/h
770 15-12-2008 09:58:22 -1.7 C 4.09 g/m*3 -1.7 C 0 km/h
771 15-12-2008 10:10:22 -1.6 C 4.12 g/m*3 -1.6 C 0 km/h
772 15-12-2008 10:22:21 -1.5 C 4.15 g/m*3 -1.5 C 0 km/h
773 15-12-2008 10:34:22 -1.4 C 4.18 g/m*3 -1.4 C 0 km/h
774 15-12-2008 10:46:21 -1.1 C 4.26 g/m*3 -1.1 C 0 km/h
775 15-12-2008 10:58:21 -0.9 C 4.32 g/m*3 -0.9 C 0 km/h
Sensor: Nr:Datum:Temp:Abs-Feuchte:Windchill:Wind:
Aussen-T/F 776 15-12-2008 11:10:21 -0.7 C 4.39 g/m*3 -0.7 C 0 km/h
777 15-12-2008 11:22:21 -0.8 C 4.35 g/m*3 -0.8 C 0 km/h
778 15-12-2008 11:34:21 -0.7 C 4.39 g/m*3 -0.7 C 0 km/h
779 15-12-2008 11:46:20 -0.6 C 4.42 g/m*3 -0.6 C 0 km/h
780 15-12-2008 11:58:20 -0.4 C 4.48 g/m*3 -0.4 C 0 km/h
781 15-12-2008 12:10:21 -0.2 C 4.54 g/m*3 -0.2 C 0 km/h
782 15-12-2008 12:22:21 -0.2 C 4.54 g/m*3 -0.2 C 0 km/h
783 15-12-2008 12:34:20 0.1 C 4.63 g/m*3 0.1 C 0 km/h
784 15-12-2008 12:46:21 0.2 C 4.67 g/m*3 0.2 C 0 km/h
785 15-12-2008 12:58:21 0.3 C 4.7 g/m*3 0.3 C 0 km/h
786 15-12-2008 13:10:20 0.5 C 4.76 g/m*3 0.5 C 0 km/h
787 15-12-2008 13:22:20 0.5 C 4.76 g/m*3 0.5 C 0 km/h
788 15-12-2008 13:34:19 0.5 C 4.76 g/m*3 0.5 C 0 km/h
789 15-12-2008 13:46:20 0.7 C 4.83 g/m*3 0.7 C 0 km/h
790 15-12-2008 13:58:20 0.7 C 4.83 g/m*3 0.7 C 0 km/h
791 15-12-2008 14:10:19 0.8 C 4.86 g/m*3 0.8 C 0 km/h
792 15-12-2008 14:22:19 1 C 4.93 g/m*3 1 C 0 km/h
793 15-12-2008 14:34:20 1 C 4.93 g/m*3 1 C 0 km/h
794 15-12-2008 14:46:19 1.1 C 4.96 g/m*3 1.1 C 0 km/h
795 15-12-2008 14:58:19 1.1 C 4.96 g/m*3 1.1 C 0 km/h
796 15-12-2008 15:10:19 1.1 C 4.96 g/m*3 1.1 C 0 km/h
797 15-12-2008 15:22:19 1 C 4.93 g/m*3 1 C 0 km/h
798 15-12-2008 15:34:19 1 C 4.93 g/m*3 1 C 0 km/h
799 15-12-2008 15:46:18 0.9 C 4.9 g/m*3 0.9 C 0 km/h
800 15-12-2008 15:58:18 0.7 C 4.83 g/m*3 0.7 C 0 km/h
Sensor: Nr:Datum:Temp:Abs-Feuchte:Windchill:Wind:
Aussen-T/F 801 15-12-2008 16:10:19 0.7 C 4.83 g/m*3 0.7 C 0 km/h
802 15-12-2008 16:22:19 0.5 C 4.76 g/m*3 0.5 C 0 km/h
803 15-12-2008 16:34:18 0.2 C 4.67 g/m*3 0.2 C 0 km/h
804 15-12-2008 16:46:18 0.2 C 4.67 g/m*3 0.2 C 0 km/h
805 15-12-2008 16:58:18 0 C 4.6 g/m*3 0 C 0 km/h
806 15-12-2008 17:10:18 -0.1 C 4.57 g/m*3 -0.1 C 0 km/h
807 15-12-2008 17:22:18 0 C 4.6 g/m*3 0 C 0 km/h
808 15-12-2008 17:34:17 0.3 C 4.7 g/m*3 0.3 C 0 km/h
809 15-12-2008 17:46:18 0.3 C 4.7 g/m*3 0.3 C 0 km/h
810 15-12-2008 17:58:18 0.2 C 4.67 g/m*3 0.2 C 0 km/h
811 15-12-2008 18:10:17 0.1 C 4.63 g/m*3 0.1 C 0 km/h
812 15-12-2008 18:22:17 0.1 C 4.63 g/m*3 0.1 C 0 km/h
813 15-12-2008 18:34:18 0.1 C 4.63 g/m*3 0.1 C 0 km/h
814 15-12-2008 18:46:17 0.2 C 4.67 g/m*3 0.2 C 0 km/h
815 15-12-2008 18:58:17 0.2 C 4.67 g/m*3 0.2 C 0 km/h
816 15-12-2008 19:10:17 0.3 C 4.7 g/m*3 0.3 C 0 km/h
817 15-12-2008 19:22:17 0.3 C 4.7 g/m*3 0.3 C 0 km/h
818 15-12-2008 19:34:16 0.4 C 4.73 g/m*3 0.4 C 0 km/h
819 15-12-2008 19:46:17 0.4 C 4.73 g/m*3 0.4 C 0 km/h
820 15-12-2008 19:58:17 0.4 C 4.73 g/m*3 0.4 C 0 km/h
821 15-12-2008 20:10:16 0.4 C 4.73 g/m*3 0.4 C 0 km/h
822 15-12-2008 20:22:16 0.4 C 4.73 g/m*3 0.4 C 0 km/h
823 15-12-2008 20:34:16 0.6 C 4.8 g/m*3 0.6 C 0 km/h
824 15-12-2008 20:46:16 0.6 C 4.8 g/m*3 0.6 C 0 km/h
825 15-12-2008 20:58:16 0.6 C 4.8 g/m*3 0.6 C 0 km/h
Sensor: Nr:Datum:Temp:Abs-Feuchte:Windchill:Wind:
Aussen-T/F 826 15-12-2008 21:10:15 0.6 C 4.8 g/m*3 0.6 C 0 km/h
827 15-12-2008 21:22:16 0.6 C 4.8 g/m*3 0.6 C 0 km/h
828 15-12-2008 21:34:16 0.5 C 4.76 g/m*3 0.5 C 0 km/h
829 15-12-2008 21:46:15 0.6 C 4.8 g/m*3 0.6 C 0 km/h
830 15-12-2008 21:58:15 0.6 C 4.8 g/m*3 0.6 C 0 km/h
831 15-12-2008 22:10:16 0.6 C 4.8 g/m*3 0.6 C 0 km/h
832 15-12-2008 22:23:15 0.6 C 4.8 g/m*3 0.6 C 0 km/h
833 15-12-2008 22:35:15 0.6 C 4.8 g/m*3 0.6 C 0 km/h
834 15-12-2008 22:47:15 0.6 C 4.8 g/m*3 0.6 C 0 km/h
835 15-12-2008 22:59:15 0.6 C 4.8 g/m*3 0.6 C 0 km/h
836 15-12-2008 23:11:15 0.6 C 4.8 g/m*3 0.6 C 0 km/h
837 15-12-2008 23:23:15 0.6 C 4.8 g/m*3 0.6 C 0 km/h
838 15-12-2008 23:35:15 0.6 C 4.8 g/m*3 0.6 C 0 km/h
839 15-12-2008 23:47:15 0.6 C 4.8 g/m*3 0.6 C 0 km/h
840 15-12-2008 23:59:15 0.6 C 4.8 g/m*3 0.6 C 0 km/h
841 16-12-2008 00:11:16 0.7 C 4.83 g/m*3 0.7 C 0 km/h
842 16-12-2008 00:23:16 0.7 C 4.83 g/m*3 0.7 C 0 km/h
843 16-12-2008 00:35:16 0.7 C 4.83 g/m*3 0.7 C 0 km/h
844 16-12-2008 00:47:16 0.6 C 4.8 g/m*3 0.6 C 0 km/h
845 16-12-2008 00:59:16 0.6 C 4.8 g/m*3 0.6 C 0 km/h
846 16-12-2008 01:11:16 0.6 C 4.8 g/m*3 0.6 C 0 km/h
847 16-12-2008 01:23:16 0.6 C 4.8 g/m*3 0.6 C 0 km/h
848 16-12-2008 01:35:16 0.6 C 4.8 g/m*3 0.6 C 0 km/h
849 16-12-2008 01:47:16 0.6 C 4.8 g/m*3 0.6 C 0 km/h
850 16-12-2008 01:59:16 0.6 C 4.8 g/m*3 0.6 C 0 km/h
Sensor: Nr:Datum:Temp:Abs-Feuchte:Windchill:Wind:
Aussen-T/F 851 16-12-2008 02:11:16 0.6 C 4.8 g/m*3 0.6 C 0 km/h
852 16-12-2008 02:23:16 0.6 C 4.8 g/m*3 0.6 C 0 km/h
853 16-12-2008 02:35:16 0.5 C 4.76 g/m*3 0.5 C 0 km/h
854 16-12-2008 02:47:16 0.5 C 4.76 g/m*3 0.5 C 0 km/h
855 16-12-2008 02:59:16 0.5 C 4.76 g/m*3 0.5 C 0 km/h
856 16-12-2008 03:11:16 0.4 C 4.73 g/m*3 0.4 C 0 km/h
857 16-12-2008 03:23:16 0.4 C 4.73 g/m*3 0.4 C 0 km/h
858 16-12-2008 03:35:16 0.3 C 4.7 g/m*3 0.3 C 0 km/h
859 16-12-2008 03:47:16 0.3 C 4.7 g/m*3 0.3 C 0 km/h
860 16-12-2008 03:59:17 0.3 C 4.7 g/m*3 0.3 C 0 km/h
861 16-12-2008 04:11:17 0.3 C 4.65 g/m*3 0.3 C 0 km/h
862 16-12-2008 04:23:17 0.3 C 4.65 g/m*3 0.3 C 0 km/h
863 16-12-2008 04:35:17 0.3 C 4.65 g/m*3 0.3 C 0 km/h
864 16-12-2008 04:47:17 0.2 C 4.62 g/m*3 0.2 C 0 km/h
865 16-12-2008 04:59:17 0.1 C 4.59 g/m*3 0.1 C 0 km/h
866 16-12-2008 05:11:17 0.2 C 4.62 g/m*3 0.2 C 0 km/h
867 16-12-2008 05:23:17 0.2 C 4.62 g/m*3 0.2 C 0 km/h
868 16-12-2008 05:35:17 0.2 C 4.62 g/m*3 0.2 C 0 km/h
869 16-12-2008 05:47:17 0.2 C 4.57 g/m*3 0.2 C 0 km/h
870 16-12-2008 05:59:17 0 C 4.51 g/m*3 0 C 0 km/h
871 16-12-2008 06:11:17 0 C 4.51 g/m*3 0 C 0 km/h
872 16-12-2008 06:23:17 0 C 4.51 g/m*3 0 C 0 km/h
873 16-12-2008 06:35:16 -0.1 C 4.47 g/m*3 -0.1 C 0 km/h
874 16-12-2008 06:47:15 -0.2 C 4.4 g/m*3 -0.2 C 0 km/h
875 16-12-2008 06:59:15 -0.2 C 4.4 g/m*3 -0.2 C 0 km/h
Sensor: Nr:Datum:Temp:Abs-Feuchte:Windchill:Wind:
Aussen-T/F 876 16-12-2008 07:11:16 -0.2 C 4.4 g/m*3 -0.2 C 0 km/h
877 16-12-2008 07:23:15 -0.2 C 4.4 g/m*3 -0.2 C 0 km/h
878 16-12-2008 07:35:15 -0.1 C 4.43 g/m*3 -0.1 C 0 km/h
879 16-12-2008 07:47:14 -0.1 C 4.43 g/m*3 -0.1 C 0 km/h
880 16-12-2008 07:59:14 -0.1 C 4.43 g/m*3 -0.1 C 0 km/h
881 16-12-2008 08:11:15 -0.1 C 4.43 g/m*3 -0.1 C 0 km/h
882 16-12-2008 08:23:15 -0.2 C 4.4 g/m*3 -0.2 C 0 km/h
883 16-12-2008 08:35:14 -0.3 C 4.37 g/m*3 -0.3 C 0 km/h
884 16-12-2008 08:47:15 -0.3 C 4.32 g/m*3 -0.3 C 0 km/h
885 16-12-2008 08:59:15 -0.3 C 4.32 g/m*3 -0.3 C 0 km/h
886 16-12-2008 09:11:14 -0.2 C 4.35 g/m*3 -0.2 C 0 km/h
887 16-12-2008 09:23:14 -0.2 C 4.35 g/m*3 -0.2 C 0 km/h
888 16-12-2008 09:35:14 0 C 4.41 g/m*3 0 C 0 km/h
889 16-12-2008 09:47:14 0 C 4.41 g/m*3 0 C 0 km/h
890 16-12-2008 09:59:14 0.1 C 4.44 g/m*3 0.1 C 0 km/h
891 16-12-2008 10:11:14 0 C 4.41 g/m*3 0 C 0 km/h
892 16-12-2008 10:23:13 0 C 4.36 g/m*3 0 C 0 km/h
893 16-12-2008 10:35:14 0 C 4.36 g/m*3 0 C 0 km/h
894 16-12-2008 10:47:13 0 C 4.36 g/m*3 0 C 0 km/h
895 16-12-2008 10:59:13 0 C 4.36 g/m*3 0 C 0 km/h
896 16-12-2008 11:11:13 0 C 4.31 g/m*3 0 C 0 km/h
897 16-12-2008 11:23:13 0.2 C 4.37 g/m*3 0.2 C 0 km/h
898 16-12-2008 11:35:13 0.2 C 4.37 g/m*3 0.2 C 0 km/h
899 16-12-2008 11:47:12 0.4 C 4.43 g/m*3 0.4 C 0 km/h
900 16-12-2008 11:59:12 0.6 C 4.49 g/m*3 0.6 C 0 km/h
Sensor: Nr:Datum:Temp:Abs-Feuchte:Windchill:Wind:
Aussen-T/F 901 16-12-2008 12:11:13 0.7 C 4.53 g/m*3 0.7 C 0 km/h
902 16-12-2008 12:23:13 0.7 C 4.53 g/m*3 0.7 C 0 km/h
903 16-12-2008 12:35:12 0.6 C 4.49 g/m*3 0.6 C 0 km/h
904 16-12-2008 12:47:12 0.6 C 4.49 g/m*3 0.6 C 0 km/h
905 16-12-2008 12:59:12 0.7 C 4.53 g/m*3 0.7 C 0 km/h
906 16-12-2008 13:11:12 0.7 C 4.53 g/m*3 0.7 C 0 km/h
907 16-12-2008 13:23:12 0.8 C 4.56 g/m*3 0.8 C 0 km/h
908 16-12-2008 13:35:11 0.8 C 4.56 g/m*3 0.8 C 0 km/h
909 16-12-2008 13:47:12 0.9 C 4.59 g/m*3 0.9 C 0 km/h
910 16-12-2008 13:59:12 0.8 C 4.56 g/m*3 0.8 C 0 km/h
911 16-12-2008 14:11:11 0.9 C 4.64 g/m*3 0.9 C 0 km/h
912 16-12-2008 14:23:11 1 C 4.62 g/m*3 1 C 0 km/h
913 16-12-2008 14:35:12 1 C 4.67 g/m*3 1 C 0 km/h
914 16-12-2008 14:47:11 1 C 4.62 g/m*3 1 C 0 km/h
915 16-12-2008 14:59:11 1 C 4.62 g/m*3 1 C 0 km/h
916 16-12-2008 15:11:11 0.9 C 4.64 g/m*3 0.9 C 0 km/h
917 16-12-2008 15:23:11 0.8 C 4.61 g/m*3 0.8 C 0 km/h
918 16-12-2008 15:35:11 0.8 C 4.61 g/m*3 0.8 C 0 km/h
919 16-12-2008 15:47:10 0.9 C 4.69 g/m*3 0.9 C 0 km/h
920 16-12-2008 15:59:10 0.8 C 4.66 g/m*3 0.8 C 0 km/h
921 16-12-2008 16:11:10 0.8 C 4.66 g/m*3 0.8 C 0 km/h
922 16-12-2008 16:23:11 0.7 C 4.63 g/m*3 0.7 C 0 km/h
923 16-12-2008 16:35:10 0.6 C 4.6 g/m*3 0.6 C 0 km/h
924 16-12-2008 16:47:10 0.7 C 4.63 g/m*3 0.7 C 0 km/h
925 16-12-2008 16:59:10 0.7 C 4.63 g/m*3 0.7 C 0 km/h
Sensor: Nr:Datum:Temp:Abs-Feuchte:Windchill:Wind:
Aussen-T/F 926 16-12-2008 17:11:10 0.7 C 4.63 g/m*3 0.7 C 0 km/h
927 16-12-2008 17:23:10 0.6 C 4.6 g/m*3 0.6 C 0 km/h
928 16-12-2008 17:35:10 0.7 C 4.68 g/m*3 0.7 C 0 km/h
929 16-12-2008 17:47:10 0.7 C 4.68 g/m*3 0.7 C 0 km/h
930 16-12-2008 17:59:10 0.6 C 4.65 g/m*3 0.6 C 0 km/h
931 16-12-2008 18:11:09 0.6 C 4.65 g/m*3 0.6 C 0 km/h
932 16-12-2008 18:23:09 0.5 C 4.61 g/m*3 0.5 C 0 km/h
933 16-12-2008 18:35:10 0.6 C 4.65 g/m*3 0.6 C 0 km/h
934 16-12-2008 18:47:09 0.6 C 4.65 g/m*3 0.6 C 0 km/h
935 16-12-2008 18:59:09 0.6 C 4.65 g/m*3 0.6 C 0 km/h
936 16-12-2008 19:11:09 0.5 C 4.61 g/m*3 0.5 C 0 km/h
937 16-12-2008 19:23:09 0.6 C 4.65 g/m*3 0.6 C 0 km/h
938 16-12-2008 19:35:08 0.6 C 4.65 g/m*3 0.6 C 0 km/h
939 16-12-2008 19:47:09 0.6 C 4.65 g/m*3 0.6 C 0 km/h
940 16-12-2008 19:59:10 0.6 C 4.65 g/m*3 0.6 C 0 km/h
941 16-12-2008 20:11:08 0.5 C 4.61 g/m*3 0.5 C 0 km/h
942 16-12-2008 20:23:08 0.6 C 4.65 g/m*3 0.6 C 0 km/h
943 16-12-2008 20:35:08 0.6 C 4.65 g/m*3 0.6 C 0 km/h
944 16-12-2008 20:47:08 0.5 C 4.61 g/m*3 0.5 C 0 km/h
945 16-12-2008 20:59:08 0.6 C 4.65 g/m*3 0.6 C 0 km/h
946 16-12-2008 21:11:08 0.6 C 4.65 g/m*3 0.6 C 0 km/h
947 16-12-2008 21:23:08 0.6 C 4.65 g/m*3 0.6 C 0 km/h
948 16-12-2008 21:35:07 0.6 C 4.65 g/m*3 0.6 C 0 km/h
949 16-12-2008 21:48:08 0.6 C 4.65 g/m*3 0.6 C 0 km/h
950 16-12-2008 22:00:08 0.5 C 4.61 g/m*3 0.5 C 0 km/h
Sensor: Nr:Datum:Temp:Abs-Feuchte:Windchill:Wind:
Aussen-T/F 951 16-12-2008 22:12:08 0.5 C 4.61 g/m*3 0.5 C 0 km/h
952 16-12-2008 22:24:08 0.5 C 4.61 g/m*3 0.5 C 0 km/h
953 16-12-2008 22:36:08 0.5 C 4.61 g/m*3 0.5 C 0 km/h
954 16-12-2008 22:48:08 0.5 C 4.61 g/m*3 0.5 C 0 km/h
955 16-12-2008 23:00:08 0.5 C 4.61 g/m*3 0.5 C 0 km/h
956 16-12-2008 23:12:08 0.5 C 4.61 g/m*3 0.5 C 0 km/h
957 16-12-2008 23:24:08 0.5 C 4.61 g/m*3 0.5 C 0 km/h
958 16-12-2008 23:36:08 0.5 C 4.61 g/m*3 0.5 C 0 km/h
959 16-12-2008 23:48:08 0.5 C 4.61 g/m*3 0.5 C 0 km/h
960 17-12-2008 00:00:09 0.5 C 4.61 g/m*3 0.5 C 0 km/h
961 17-12-2008 00:12:09 0.3 C 4.55 g/m*3 0.3 C 0 km/h
962 17-12-2008 00:24:09 0.4 C 4.58 g/m*3 0.4 C 0 km/h
963 17-12-2008 00:36:09 0.5 C 4.61 g/m*3 0.5 C 0 km/h
964 17-12-2008 00:48:09 0.3 C 4.55 g/m*3 0.3 C 0 km/h
965 17-12-2008 01:00:09 0.3 C 4.55 g/m*3 0.3 C 0 km/h
966 17-12-2008 01:12:09 0.3 C 4.55 g/m*3 0.3 C 0 km/h
967 17-12-2008 01:24:09 0.2 C 4.52 g/m*3 0.2 C 0 km/h
968 17-12-2008 01:36:09 0.1 C 4.49 g/m*3 0.1 C 0 km/h
969 17-12-2008 01:48:09 0.1 C 4.49 g/m*3 0.1 C 0 km/h
970 17-12-2008 02:00:09 0 C 4.46 g/m*3 0 C 0 km/h
971 17-12-2008 02:12:09 0 C 4.46 g/m*3 0 C 0 km/h
972 17-12-2008 02:24:09 -0.1 C 4.43 g/m*3 -0.1 C 0 km/h
973 17-12-2008 02:36:09 -0.1 C 4.43 g/m*3 -0.1 C 0 km/h
974 17-12-2008 02:48:09 -0.2 C 4.4 g/m*3 -0.2 C 0 km/h
975 17-12-2008 03:00:09 -0.2 C 4.35 g/m*3 -0.2 C 0 km/h
Sensor: Nr:Datum:Temp:Abs-Feuchte:Windchill:Wind:
Aussen-T/F 976 17-12-2008 03:12:09 -0.3 C 4.32 g/m*3 -0.3 C 0 km/h
977 17-12-2008 03:24:09 -0.2 C 4.35 g/m*3 -0.2 C 0 km/h
978 17-12-2008 03:36:09 -0.3 C 4.32 g/m*3 -0.3 C 0 km/h
979 17-12-2008 03:48:09 -0.4 C 4.29 g/m*3 -0.4 C 0 km/h
980 17-12-2008 04:00:10 -0.4 C 4.29 g/m*3 -0.4 C 0 km/h
981 17-12-2008 04:12:10 -0.4 C 4.29 g/m*3 -0.4 C 0 km/h
982 17-12-2008 04:24:10 -0.5 C 4.26 g/m*3 -0.5 C 0 km/h
983 17-12-2008 04:36:10 -0.5 C 4.21 g/m*3 -0.5 C 0 km/h
984 17-12-2008 04:48:10 -0.6 C 4.18 g/m*3 -0.6 C 0 km/h
985 17-12-2008 05:00:10 -0.6 C 4.18 g/m*3 -0.6 C 0 km/h
986 17-12-2008 05:12:10 -0.6 C 4.18 g/m*3 -0.6 C 0 km/h
987 17-12-2008 05:24:10 -0.7 C 4.15 g/m*3 -0.7 C 0 km/h
988 17-12-2008 05:36:10 -0.8 C 4.13 g/m*3 -0.8 C 0 km/h
989 17-12-2008 05:48:10 -1 C 4.07 g/m*3 -1 C 0 km/h
990 17-12-2008 06:00:10 -1.1 C 4 g/m*3 -1.1 C 0 km/h
991 17-12-2008 06:12:10 -1.2 C 3.97 g/m*3 -1.2 C 0 km/h
992 17-12-2008 06:24:10 -1.2 C 3.97 g/m*3 -1.2 C 0 km/h
993 17-12-2008 06:36:10 -1.2 C 3.97 g/m*3 -1.2 C 0 km/h
994 17-12-2008 06:48:10 -1.2 C 3.92 g/m*3 -1.2 C 0 km/h
995 17-12-2008 07:00:10 -1.2 C 3.92 g/m*3 -1.2 C 0 km/h
996 17-12-2008 07:12:09 -1.2 C 3.92 g/m*3 -1.2 C 0 km/h
997 17-12-2008 07:24:08 -1.2 C 3.88 g/m*3 -1.2 C 0 km/h
998 17-12-2008 07:36:08 -1.2 C 3.88 g/m*3 -1.2 C 0 km/h
999 17-12-2008 07:48:08 -1.1 C 3.86 g/m*3 -1.1 C 0 km/h
1000 17-12-2008 08:00:08 -1 C 3.89 g/m*3 -1 C 0 km/h
Sensor: Nr:Datum:Temp:Abs-Feuchte:Windchill:Wind:
Aussen-T/F 1001 17-12-2008 08:12:08 -1 C 3.89 g/m*3 -1 C 0 km/h
1002 17-12-2008 08:24:08 -1.1 C 3.82 g/m*3 -1.1 C 0 km/h
1003 17-12-2008 08:36:08 -1.2 C 3.74 g/m*3 -1.2 C 0 km/h
1004 17-12-2008 08:48:08 -1.2 C 3.74 g/m*3 -1.2 C 0 km/h
1005 17-12-2008 09:00:08 -1.1 C 3.82 g/m*3 -1.1 C 0 km/h
1006 17-12-2008 09:12:08 -1.1 C 3.77 g/m*3 -1.1 C 0 km/h
1007 17-12-2008 09:24:07 -0.9 C 3.82 g/m*3 -0.9 C 0 km/h
1008 17-12-2008 09:36:07 -1 C 3.8 g/m*3 -1 C 0 km/h
1009 17-12-2008 09:48:07 -0.9 C 3.78 g/m*3 -0.9 C 0 km/h
1010 17-12-2008 10:00:07 -0.9 C 3.78 g/m*3 -0.9 C 0 km/h
1011 17-12-2008 10:12:07 -0.7 C 3.78 g/m*3 -0.7 C 0 km/h
1012 17-12-2008 10:24:06 -0.7 C 3.78 g/m*3 -0.7 C 0 km/h
1013 17-12-2008 10:36:07 -0.6 C 3.76 g/m*3 -0.6 C 0 km/h
1014 17-12-2008 10:48:06 -0.4 C 3.82 g/m*3 -0.4 C 0 km/h
1015 17-12-2008 11:00:06 -0.3 C 3.8 g/m*3 -0.3 C 0 km/h
1016 17-12-2008 11:12:06 -0.1 C 3.85 g/m*3 -0.1 C 0 km/h
1017 17-12-2008 11:24:07 0.1 C 3.85 g/m*3 0.1 C 0 km/h
1018 17-12-2008 11:36:06 0.1 C 3.81 g/m*3 0.1 C 0 km/h
1019 17-12-2008 11:48:06 0 C 3.73 g/m*3 0 C 0 km/h
1020 17-12-2008 12:00:06 0.1 C 3.76 g/m*3 0.1 C 0 km/h
1021 17-12-2008 12:12:06 0.1 C 3.76 g/m*3 0.1 C 0 km/h
1022 17-12-2008 12:24:06 0.2 C 3.78 g/m*3 0.2 C 0 km/h
1023 17-12-2008 12:36:05 0.2 C 3.78 g/m*3 0.2 C 0 km/h
1024 17-12-2008 12:48:06 0.3 C 3.81 g/m*3 0.3 C 0 km/h
1025 17-12-2008 13:00:07 0.4 C 3.88 g/m*3 0.4 C 0 km/h
Sensor: Nr:Datum:Temp:Abs-Feuchte:Windchill:Wind:
Aussen-T/F 1026 17-12-2008 13:12:05 0.5 C 3.86 g/m*3 0.5 C 0 km/h
1027 17-12-2008 13:24:05 0.5 C 3.91 g/m*3 0.5 C 0 km/h
1028 17-12-2008 13:36:05 0.6 C 3.94 g/m*3 0.6 C 0 km/h
1029 17-12-2008 13:48:05 0.6 C 3.94 g/m*3 0.6 C 0 km/h
1030 17-12-2008 14:00:05 0.6 C 3.99 g/m*3 0.6 C 0 km/h
1031 17-12-2008 14:12:05 0.4 C 4.03 g/m*3 0.4 C 0 km/h
1032 17-12-2008 14:24:04 0.3 C 4.16 g/m*3 0.3 C 0 km/h
1033 17-12-2008 14:36:05 0.2 C 4.22 g/m*3 0.2 C 0 km/h
1034 17-12-2008 14:48:04 0.1 C 4.29 g/m*3 0.1 C 0 km/h
1035 17-12-2008 15:00:04 0.1 C 4.34 g/m*3 0.1 C 0 km/h
1036 17-12-2008 15:12:05 0.1 C 4.39 g/m*3 0.1 C 0 km/h
1037 17-12-2008 15:24:04 0.1 C 4.44 g/m*3 0.1 C 0 km/h
1038 17-12-2008 15:36:04 0.1 C 4.44 g/m*3 0.1 C 0 km/h
1039 17-12-2008 15:48:04 0.2 C 4.47 g/m*3 0.2 C 0 km/h
1040 17-12-2008 16:00:04 0.2 C 4.52 g/m*3 0.2 C 0 km/h
1041 17-12-2008 16:12:04 0.2 C 4.52 g/m*3 0.2 C 0 km/h
1042 17-12-2008 16:24:03 0.1 C 4.49 g/m*3 0.1 C 0 km/h
1043 17-12-2008 16:36:03 0 C 4.51 g/m*3 0 C 0 km/h
1044 17-12-2008 16:48:03 0 C 4.51 g/m*3 0 C 0 km/h
1045 17-12-2008 17:00:03 0 C 4.55 g/m*3 0 C 0 km/h
1046 17-12-2008 17:12:03 0.1 C 4.59 g/m*3 0.1 C 0 km/h
1047 17-12-2008 17:24:03 0.1 C 4.59 g/m*3 0.1 C 0 km/h
1048 17-12-2008 17:36:03 0.1 C 4.59 g/m*3 0.1 C 0 km/h
1049 17-12-2008 17:48:03 0.1 C 4.59 g/m*3 0.1 C 0 km/h
1050 17-12-2008 18:00:03 0.2 C 4.67 g/m*3 0.2 C 0 km/h
Sensor: Nr:Datum:Temp:Abs-Feuchte:Windchill:Wind:
Aussen-T/F 1051 17-12-2008 18:12:02 0.2 C 4.67 g/m*3 0.2 C 0 km/h
1052 17-12-2008 18:24:03 0.3 C 4.7 g/m*3 0.3 C 0 km/h
1053 17-12-2008 18:36:02 0.3 C 4.7 g/m*3 0.3 C 0 km/h
1054 17-12-2008 18:48:02 0.4 C 4.73 g/m*3 0.4 C 0 km/h
1055 17-12-2008 19:00:02 0.5 C 4.76 g/m*3 0.5 C 0 km/h
1056 17-12-2008 19:12:02 0.5 C 4.76 g/m*3 0.5 C 0 km/h
1057 17-12-2008 19:24:02 0.5 C 4.76 g/m*3 0.5 C 0 km/h
1058 17-12-2008 19:36:02 0.5 C 4.76 g/m*3 0.5 C 0 km/h
1059 17-12-2008 19:48:02 0.5 C 4.76 g/m*3 0.5 C 0 km/h
1060 17-12-2008 20:00:02 0.5 C 4.76 g/m*3 0.5 C 0 km/h
1061 17-12-2008 20:12:01 0.6 C 4.8 g/m*3 0.6 C 0 km/h
1062 17-12-2008 20:24:01 0.6 C 4.8 g/m*3 0.6 C 0 km/h
1063 17-12-2008 20:36:01 0.6 C 4.8 g/m*3 0.6 C 0 km/h
1064 17-12-2008 20:48:02 0.6 C 4.8 g/m*3 0.6 C 0 km/h
1065 17-12-2008 21:00:02 0.7 C 4.83 g/m*3 0.7 C 0 km/h
1066 17-12-2008 21:12:01 0.7 C 4.83 g/m*3 0.7 C 0 km/h
1067 17-12-2008 21:24:00 0.7 C 4.83 g/m*3 0.7 C 0 km/h
1068 17-12-2008 21:36:01 0.7 C 4.83 g/m*3 0.7 C 0 km/h
1069 17-12-2008 21:49:03 0.8 C 4.86 g/m*3 0.8 C 0 km/h
1070 17-12-2008 22:01:03 0.8 C 4.86 g/m*3 0.8 C 0 km/h
1071 17-12-2008 22:13:03 0.8 C 4.86 g/m*3 0.8 C 0 km/h
1072 17-12-2008 22:25:03 0.8 C 4.86 g/m*3 0.8 C 0 km/h
1073 17-12-2008 22:37:03 0.9 C 4.9 g/m*3 0.9 C 0 km/h
1074 17-12-2008 22:49:03 0.9 C 4.9 g/m*3 0.9 C 0 km/h
1075 17-12-2008 23:01:03 1 C 4.93 g/m*3 1 C 0 km/h
Sensor: Nr:Datum:Temp:Abs-Feuchte:Windchill:Wind:
Aussen-T/F 1076 17-12-2008 23:13:03 1 C 4.93 g/m*3 1 C 0 km/h
1077 17-12-2008 23:25:03 1 C 4.93 g/m*3 1 C 0 km/h
1078 17-12-2008 23:37:03 1 C 4.93 g/m*3 1 C 0 km/h
1079 17-12-2008 23:49:03 1 C 4.93 g/m*3 1 C 0 km/h
1080 18-12-2008 00:01:03 1 C 4.93 g/m*3 1 C 0 km/h
1081 18-12-2008 00:13:03 1 C 4.93 g/m*3 1 C 0 km/h
1082 18-12-2008 00:25:03 1.1 C 4.96 g/m*3 1.1 C 0 km/h
1083 18-12-2008 00:37:03 1.1 C 4.96 g/m*3 1.1 C 0 km/h
1084 18-12-2008 00:49:03 1.1 C 4.96 g/m*3 1.1 C 0 km/h
1085 18-12-2008 01:01:03 1.2 C 5 g/m*3 1.2 C 0 km/h
1086 18-12-2008 01:13:03 1.2 C 5 g/m*3 1.2 C 0 km/h
1087 18-12-2008 01:25:03 1.2 C 5 g/m*3 1.2 C 0 km/h
1088 18-12-2008 01:37:04 1.2 C 5 g/m*3 1.2 C 0 km/h
1089 18-12-2008 01:49:04 1.2 C 5 g/m*3 1.2 C 0 km/h
1090 18-12-2008 02:01:04 1.2 C 5 g/m*3 1.2 C 0 km/h
1091 18-12-2008 02:13:04 1.3 C 5.03 g/m*3 1.3 C 0 km/h
1092 18-12-2008 02:25:04 1.3 C 5.03 g/m*3 1.3 C 0 km/h
1093 18-12-2008 02:37:04 1.3 C 5.03 g/m*3 1.3 C 0 km/h
1094 18-12-2008 02:49:04 1.3 C 5.03 g/m*3 1.3 C 0 km/h
1095 18-12-2008 03:01:04 1.3 C 5.03 g/m*3 1.3 C 0 km/h
1096 18-12-2008 03:13:04 1.4 C 5.07 g/m*3 1.4 C 0 km/h
1097 18-12-2008 03:25:04 1.4 C 5.07 g/m*3 1.4 C 0 km/h
1098 18-12-2008 03:37:04 1.4 C 5.07 g/m*3 1.4 C 0 km/h
1099 18-12-2008 03:49:04 1.4 C 5.07 g/m*3 1.4 C 0 km/h
1100 18-12-2008 04:01:04 1.5 C 5.1 g/m*3 1.5 C 0 km/h
Sensor: Nr:Datum:Temp:Abs-Feuchte:Windchill:Wind:
Aussen-T/F 1101 18-12-2008 04:13:04 1.5 C 5.1 g/m*3 1.5 C 0 km/h
1102 18-12-2008 04:25:04 1.5 C 5.1 g/m*3 1.5 C 0 km/h
1103 18-12-2008 04:37:04 1.5 C 5.1 g/m*3 1.5 C 0 km/h
1104 18-12-2008 04:49:04 1.5 C 5.1 g/m*3 1.5 C 0 km/h
1105 18-12-2008 05:01:04 1.5 C 5.1 g/m*3 1.5 C 0 km/h
1106 18-12-2008 05:13:04 1.5 C 5.1 g/m*3 1.5 C 0 km/h
1107 18-12-2008 05:25:05 1.6 C 5.14 g/m*3 1.6 C 0 km/h
1108 18-12-2008 05:37:05 1.6 C 5.14 g/m*3 1.6 C 0 km/h
1109 18-12-2008 05:49:05 1.6 C 5.14 g/m*3 1.6 C 0 km/h
1110 18-12-2008 06:01:02 1.6 C 5.14 g/m*3 1.6 C 0 km/h
1111 18-12-2008 06:13:02 1.6 C 5.14 g/m*3 1.6 C 0 km/h
1112 18-12-2008 06:25:03 1.6 C 5.14 g/m*3 1.6 C 0 km/h
1113 18-12-2008 06:37:02 1.6 C 5.14 g/m*3 1.6 C 0 km/h
1114 18-12-2008 06:49:02 1.6 C 5.14 g/m*3 1.6 C 0 km/h
1115 18-12-2008 07:01:02 1.6 C 5.14 g/m*3 1.6 C 0 km/h
1116 18-12-2008 07:13:02 1.6 C 5.14 g/m*3 1.6 C 0 km/h
1117 18-12-2008 07:25:02 1.6 C 5.14 g/m*3 1.6 C 0 km/h
1118 18-12-2008 07:37:02 1.6 C 5.14 g/m*3 1.6 C 0 km/h
1119 18-12-2008 07:49:02 1.7 C 5.17 g/m*3 1.7 C 0 km/h
1120 18-12-2008 08:01:02 1.7 C 5.17 g/m*3 1.7 C 0 km/h
1121 18-12-2008 08:13:02 1.7 C 5.17 g/m*3 1.7 C 0 km/h
1122 18-12-2008 08:25:01 1.7 C 5.17 g/m*3 1.7 C 0 km/h
1123 18-12-2008 08:37:02 1.7 C 5.17 g/m*3 1.7 C 0 km/h
1124 18-12-2008 08:49:01 1.7 C 5.17 g/m*3 1.7 C 0 km/h
1125 18-12-2008 09:01:01 1.8 C 5.21 g/m*3 1.8 C 0 km/h
Sensor: Nr:Datum:Temp:Abs-Feuchte:Windchill:Wind:
Aussen-T/F 1126 18-12-2008 09:13:01 1.8 C 5.21 g/m*3 1.8 C 0 km/h
1127 18-12-2008 09:25:01 1.9 C 5.24 g/m*3 1.9 C 0 km/h
1128 18-12-2008 09:37:01 1.9 C 5.24 g/m*3 1.9 C 0 km/h
1129 18-12-2008 09:49:00 2 C 5.22 g/m*3 2 C 0 km/h
1130 18-12-2008 10:01:01 2.1 C 5.26 g/m*3 2.1 C 0 km/h
1131 18-12-2008 10:13:01 2 C 5.17 g/m*3 2 C 0 km/h
1132 18-12-2008 10:25:00 2.2 C 5.24 g/m*3 2.2 C 0 km/h
1133 18-12-2008 10:37:00 2.4 C 5.31 g/m*3 2.4 C 0 km/h
1134 18-12-2008 10:49:00 2.5 C 5.29 g/m*3 2.5 C 0 km/h
1135 18-12-2008 11:01:00 2.5 C 5.23 g/m*3 2.5 C 0 km/h
1136 18-12-2008 11:13:00 2.6 C 5.21 g/m*3 2.6 C 0 km/h
1137 18-12-2008 11:25:00 2.7 C 5.13 g/m*3 2.7 C 0 km/h
1138 18-12-2008 11:36:59 2.7 C 5.07 g/m*3 2.7 C 0 km/h
1139 18-12-2008 11:49:00 2.7 C 5.01 g/m*3 2.7 C 0 km/h
1140 18-12-2008 12:01:59 2.6 C 4.92 g/m*3 2.6 C 0 km/h
1141 18-12-2008 12:13:59 2.5 C 4.89 g/m*3 2.5 C 0 km/h
1142 18-12-2008 12:25:00 2.6 C 4.92 g/m*3 2.6 C 0 km/h
1143 18-12-2008 12:37:59 2.6 C 4.86 g/m*3 2.6 C 0 km/h
1144 18-12-2008 12:49:59 2.7 C 4.84 g/m*3 2.7 C 0 km/h
1145 18-12-2008 13:01:59 2.7 C 4.72 g/m*3 2.7 C 0 km/h
1146 18-12-2008 13:13:59 2.5 C 4.6 g/m*3 2.5 C 0 km/h
1147 18-12-2008 13:25:59 2.5 C 4.66 g/m*3 2.5 C 0 km/h
1148 18-12-2008 13:37:58 2.6 C 4.63 g/m*3 2.6 C 0 km/h
1149 18-12-2008 13:49:59 2.8 C 4.63 g/m*3 2.8 C 0 km/h
1150 18-12-2008 14:01:58 3 C 4.58 g/m*3 3 C 0 km/h
Sensor: Nr:Datum:Temp:Abs-Feuchte:Windchill:Wind:
Aussen-T/F 1151 18-12-2008 14:13:58 3.1 C 4.55 g/m*3 3.1 C 0 km/h
1152 18-12-2008 14:25:58 3.1 C 4.55 g/m*3 3.1 C 0 km/h
1153 18-12-2008 14:37:58 3.1 C 4.61 g/m*3 3.1 C 0 km/h
1154 18-12-2008 14:49:58 3.1 C 4.61 g/m*3 3.1 C 0 km/h
1155 18-12-2008 15:01:58 3 C 4.52 g/m*3 3 C 0 km/h
1156 18-12-2008 15:13:58 2.9 C 4.55 g/m*3 2.9 C 0 km/h
1157 18-12-2008 15:25:57 2.9 C 4.61 g/m*3 2.9 C 0 km/h
1158 18-12-2008 15:37:58 3 C 4.64 g/m*3 3 C 0 km/h
1159 18-12-2008 15:49:57 3 C 4.64 g/m*3 3 C 0 km/h
1160 18-12-2008 16:01:57 2.9 C 4.72 g/m*3 2.9 C 0 km/h
1161 18-12-2008 16:13:57 2.9 C 4.72 g/m*3 2.9 C 0 km/h
1162 18-12-2008 16:25:57 2.8 C 4.69 g/m*3 2.8 C 0 km/h
1163 18-12-2008 16:37:57 2.7 C 4.72 g/m*3 2.7 C 0 km/h
1164 18-12-2008 16:49:57 2.7 C 4.78 g/m*3 2.7 C 0 km/h
1165 18-12-2008 17:01:56 2.6 C 4.75 g/m*3 2.6 C 0 km/h
1166 18-12-2008 17:13:56 2.5 C 4.77 g/m*3 2.5 C 0 km/h
1167 18-12-2008 17:25:57 2.4 C 4.85 g/m*3 2.4 C 0 km/h
1168 18-12-2008 17:37:56 2.3 C 4.88 g/m*3 2.3 C 0 km/h
1169 18-12-2008 17:49:57 2.3 C 4.93 g/m*3 2.3 C 0 km/h
1170 18-12-2008 18:01:56 2.3 C 4.93 g/m*3 2.3 C 0 km/h
1171 18-12-2008 18:13:56 2.3 C 4.99 g/m*3 2.3 C 0 km/h
1172 18-12-2008 18:25:56 2.3 C 4.99 g/m*3 2.3 C 0 km/h
1173 18-12-2008 18:37:55 2.3 C 4.99 g/m*3 2.3 C 0 km/h
1174 18-12-2008 18:49:56 2.4 C 5.02 g/m*3 2.4 C 0 km/h
1175 18-12-2008 19:01:55 2.5 C 5.06 g/m*3 2.5 C 0 km/h
Sensor: Nr:Datum:Temp:Abs-Feuchte:Windchill:Wind:
Aussen-T/F 1176 18-12-2008 19:13:55 2.5 C 5.06 g/m*3 2.5 C 0 km/h
1177 18-12-2008 19:25:55 2.5 C 5.06 g/m*3 2.5 C 0 km/h
1178 18-12-2008 19:37:56 2.6 C 5.09 g/m*3 2.6 C 0 km/h
1179 18-12-2008 19:49:55 2.7 C 5.13 g/m*3 2.7 C 0 km/h
1180 18-12-2008 20:01:55 2.6 C 5.09 g/m*3 2.6 C 0 km/h
1181 18-12-2008 20:13:55 2.6 C 5.09 g/m*3 2.6 C 0 km/h
1182 18-12-2008 20:25:55 2.5 C 5.12 g/m*3 2.5 C 0 km/h
1183 18-12-2008 20:37:55 2.5 C 5.12 g/m*3 2.5 C 0 km/h
1184 18-12-2008 20:49:54 2.5 C 5.12 g/m*3 2.5 C 0 km/h
1185 18-12-2008 21:01:54 2.6 C 5.15 g/m*3 2.6 C 0 km/h
1186 18-12-2008 21:13:54 2.6 C 5.15 g/m*3 2.6 C 0 km/h
1187 18-12-2008 21:25:55 2.6 C 5.15 g/m*3 2.6 C 0 km/h
1188 18-12-2008 21:37:54 2.7 C 5.13 g/m*3 2.7 C 0 km/h
1189 18-12-2008 21:49:54 2.8 C 5.1 g/m*3 2.8 C 0 km/h
1190 18-12-2008 22:01:54 2.8 C 5.04 g/m*3 2.8 C 0 km/h
1191 18-12-2008 22:13:54 2.9 C 5.02 g/m*3 2.9 C 0 km/h
1192 18-12-2008 22:26:55 2.8 C 4.99 g/m*3 2.8 C 0 km/h
1193 18-12-2008 22:38:55 2.8 C 4.99 g/m*3 2.8 C 0 km/h
1194 18-12-2008 22:50:55 2.7 C 5.01 g/m*3 2.7 C 0 km/h
1195 18-12-2008 23:02:55 2.7 C 5.07 g/m*3 2.7 C 0 km/h
1196 18-12-2008 23:14:55 2.5 C 5.12 g/m*3 2.5 C 0 km/h
1197 18-12-2008 23:26:55 2.6 C 5.21 g/m*3 2.6 C 0 km/h
1198 18-12-2008 23:38:55 2.6 C 5.21 g/m*3 2.6 C 0 km/h
1199 18-12-2008 23:50:55 2.6 C 5.21 g/m*3 2.6 C 0 km/h
1200 19-12-2008 00:02:55 2.7 C 5.24 g/m*3 2.7 C 0 km/h
Sensor: Nr:Datum:Temp:Abs-Feuchte:Windchill:Wind:
Aussen-T/F 1201 19-12-2008 00:14:55 2.8 C 5.28 g/m*3 2.8 C 0 km/h
1202 19-12-2008 00:26:55 2.9 C 5.26 g/m*3 2.9 C 0 km/h
1203 19-12-2008 00:38:55 2.9 C 5.26 g/m*3 2.9 C 0 km/h
1204 19-12-2008 00:50:55 2.8 C 5.22 g/m*3 2.8 C 0 km/h
1205 19-12-2008 01:02:55 2.8 C 5.22 g/m*3 2.8 C 0 km/h
1206 19-12-2008 01:14:55 2.9 C 5.26 g/m*3 2.9 C 0 km/h
1207 19-12-2008 01:26:55 3 C 5.23 g/m*3 3 C 0 km/h
1208 19-12-2008 01:38:55 3.1 C 5.27 g/m*3 3.1 C 0 km/h
1209 19-12-2008 01:50:56 3.2 C 5.3 g/m*3 3.2 C 0 km/h
1210 19-12-2008 02:02:56 3.3 C 5.34 g/m*3 3.3 C 0 km/h
1211 19-12-2008 02:14:56 3.3 C 5.28 g/m*3 3.3 C 0 km/h
1212 19-12-2008 02:26:56 3.5 C 5.35 g/m*3 3.5 C 0 km/h
1213 19-12-2008 02:38:56 3.5 C 5.35 g/m*3 3.5 C 0 km/h
1214 19-12-2008 02:50:56 3.6 C 5.39 g/m*3 3.6 C 0 km/h
1215 19-12-2008 03:02:56 3.5 C 5.35 g/m*3 3.5 C 0 km/h
1216 19-12-2008 03:14:56 3.6 C 5.32 g/m*3 3.6 C 0 km/h
1217 19-12-2008 03:26:56 3.6 C 5.32 g/m*3 3.6 C 0 km/h
1218 19-12-2008 03:38:56 3.5 C 5.29 g/m*3 3.5 C 0 km/h
1219 19-12-2008 03:50:56 3.4 C 5.25 g/m*3 3.4 C 0 km/h
1220 19-12-2008 04:02:56 3.4 C 5.31 g/m*3 3.4 C 0 km/h
1221 19-12-2008 04:14:56 3.4 C 5.31 g/m*3 3.4 C 0 km/h
1222 19-12-2008 04:26:56 3.5 C 5.35 g/m*3 3.5 C 0 km/h
1223 19-12-2008 04:38:56 3.4 C 5.37 g/m*3 3.4 C 0 km/h
1224 19-12-2008 04:50:56 3.2 C 5.36 g/m*3 3.2 C 0 km/h
1225 19-12-2008 05:02:56 3.2 C 5.42 g/m*3 3.2 C 0 km/h
Sensor: Nr:Datum:Temp:Abs-Feuchte:Windchill:Wind:
Aussen-T/F 1226 19-12-2008 05:14:56 3.3 C 5.52 g/m*3 3.3 C 0 km/h
1227 19-12-2008 05:26:56 3.3 C 5.58 g/m*3 3.3 C 0 km/h
1228 19-12-2008 05:38:57 3.3 C 5.64 g/m*3 3.3 C 0 km/h
1229 19-12-2008 05:50:57 3.4 C 5.68 g/m*3 3.4 C 0 km/h
1230 19-12-2008 06:02:57 3.4 C 5.68 g/m*3 3.4 C 0 km/h
1231 19-12-2008 06:14:57 3.4 C 5.68 g/m*3 3.4 C 0 km/h
1232 19-12-2008 06:26:57 3.4 C 5.68 g/m*3 3.4 C 0 km/h
1233 19-12-2008 06:38:57 3.5 C 5.78 g/m*3 3.5 C 0 km/h
1234 19-12-2008 06:50:55 3.5 C 5.78 g/m*3 3.5 C 0 km/h
1235 19-12-2008 07:02:55 3.6 C 5.82 g/m*3 3.6 C 0 km/h
1236 19-12-2008 07:14:54 3.6 C 5.88 g/m*3 3.6 C 0 km/h
1237 19-12-2008 07:26:54 3.7 C 5.92 g/m*3 3.7 C 0 km/h
1238 19-12-2008 07:38:54 3.8 C 5.96 g/m*3 3.8 C 0 km/h
1239 19-12-2008 07:50:54 3.9 C 6 g/m*3 3.9 C 0 km/h
1240 19-12-2008 08:02:53 3.8 C 5.96 g/m*3 3.8 C 0 km/h
1241 19-12-2008 08:14:54 4 C 6.04 g/m*3 4 C 0 km/h
1242 19-12-2008 08:26:54 4.2 C 6.06 g/m*3 4.2 C 0 km/h
1243 19-12-2008 08:38:54 4.3 C 6.1 g/m*3 4.3 C 0 km/h
1244 19-12-2008 08:50:53 4.3 C 6.1 g/m*3 4.3 C 0 km/h
1245 19-12-2008 09:02:54 4.3 C 6.1 g/m*3 4.3 C 0 km/h
1246 19-12-2008 09:14:53 4.4 C 6.14 g/m*3 4.4 C 0 km/h
1247 19-12-2008 09:26:53 4.5 C 6.18 g/m*3 4.5 C 0 km/h
1248 19-12-2008 09:38:53 4.6 C 6.22 g/m*3 4.6 C 0 km/h
1249 19-12-2008 09:50:53 4.7 C 6.19 g/m*3 4.7 C 0 km/h
1250 19-12-2008 10:02:53 4.8 C 6.24 g/m*3 4.8 C 0 km/h
Sensor: Nr:Datum:Temp:Abs-Feuchte:Windchill:Wind:
Aussen-T/F 1251 19-12-2008 10:14:52 5 C 6.25 g/m*3 5 C 0 km/h
1252 19-12-2008 10:26:52 5 C 6.18 g/m*3 5 C 0 km/h
1253 19-12-2008 10:38:52 5.2 C 6.27 g/m*3 5.2 C 0 km/h
1254 19-12-2008 10:50:52 5.4 C 6.28 g/m*3 5.4 C 0 km/h
1255 19-12-2008 11:02:52 5.3 C 6.17 g/m*3 5.3 C 0 km/h
1256 19-12-2008 11:14:53 5.4 C 6.21 g/m*3 5.4 C 0 km/h
1257 19-12-2008 11:26:53 5.6 C 6.29 g/m*3 5.6 C 0 km/h
1258 19-12-2008 11:38:52 5.8 C 6.02 g/m*3 5.8 C 0 km/h
1259 19-12-2008 11:50:52 5.9 C 5.91 g/m*3 5.9 C 0 km/h
1260 19-12-2008 12:02:52 6.1 C 5.7 g/m*3 6.1 C 0 km/h
1261 19-12-2008 12:14:52 6.5 C 5.77 g/m*3 6.5 C 0 km/h
1262 19-12-2008 12:26:52 6.7 C 5.24 g/m*3 6.7 C 0 km/h
1263 19-12-2008 12:38:51 6.8 C 5.05 g/m*3 6.8 C 0 km/h
1264 19-12-2008 12:50:51 6.8 C 5.2 g/m*3 6.8 C 0 km/h
1265 19-12-2008 13:02:51 6.5 C 5.1 g/m*3 6.5 C 0 km/h
1266 19-12-2008 13:14:51 6.6 C 5.21 g/m*3 6.6 C 0 km/h
1267 19-12-2008 13:26:51 6.9 C 5.16 g/m*3 6.9 C 0 km/h
1268 19-12-2008 13:38:51 7 C 5.11 g/m*3 7 C 0 km/h
1269 19-12-2008 13:50:51 6.5 C 5.02 g/m*3 6.5 C 0 km/h
1270 19-12-2008 14:02:51 6.1 C 4.89 g/m*3 6.1 C 0 km/h
1271 19-12-2008 14:14:50 5.8 C 4.87 g/m*3 5.8 C 0 km/h
1272 19-12-2008 14:26:50 6.3 C 4.96 g/m*3 6.3 C 0 km/h
1273 19-12-2008 14:38:51 6.1 C 4.82 g/m*3 6.1 C 0 km/h
1274 19-12-2008 14:50:50 6.2 C 4.78 g/m*3 6.2 C 0 km/h
1275 19-12-2008 15:02:50 6.6 C 4.76 g/m*3 6.6 C 0 km/h
Sensor: Nr:Datum:Temp:Abs-Feuchte:Windchill:Wind:
Aussen-T/F 1276 19-12-2008 15:14:50 6.6 C 4.6 g/m*3 6.6 C 0 km/h
1277 19-12-2008 15:26:50 6.5 C 4.72 g/m*3 6.5 C 0 km/h
1278 19-12-2008 15:38:50 6.4 C 4.77 g/m*3 6.4 C 0 km/h
1279 19-12-2008 15:50:49 6.5 C 4.8 g/m*3 6.5 C 0 km/h
1280 19-12-2008 16:02:49 6.4 C 4.62 g/m*3 6.4 C 0 km/h
1281 19-12-2008 16:14:50 6.2 C 4.41 g/m*3 6.2 C 0 km/h
1282 19-12-2008 16:26:50 6 C 4.43 g/m*3 6 C 0 km/h
1283 19-12-2008 16:38:49 6 C 4.35 g/m*3 6 C 0 km/h
1284 19-12-2008 16:50:49 5.8 C 4.37 g/m*3 5.8 C 0 km/h
1285 19-12-2008 17:02:49 5.6 C 4.45 g/m*3 5.6 C 0 km/h
1286 19-12-2008 17:14:49 5.5 C 4.49 g/m*3 5.5 C 0 km/h
1287 19-12-2008 17:26:49 5.2 C 4.54 g/m*3 5.2 C 0 km/h
1288 19-12-2008 17:38:48 5.1 C 4.45 g/m*3 5.1 C 0 km/h
1289 19-12-2008 17:50:49 4.9 C 4.52 g/m*3 4.9 C 0 km/h
1290 19-12-2008 18:02:48 4.5 C 4.47 g/m*3 4.5 C 0 km/h
1291 19-12-2008 18:14:48 4.1 C 4.42 g/m*3 4.1 C 0 km/h
1292 19-12-2008 18:26:48 3.8 C 4.52 g/m*3 3.8 C 0 km/h
1293 19-12-2008 18:38:49 3.5 C 4.49 g/m*3 3.5 C 0 km/h
1294 19-12-2008 18:50:48 3.4 C 4.52 g/m*3 3.4 C 0 km/h
1295 19-12-2008 19:02:48 3.4 C 4.58 g/m*3 3.4 C 0 km/h
1296 19-12-2008 19:14:48 3.1 C 4.49 g/m*3 3.1 C 0 km/h
1297 19-12-2008 19:26:48 3.1 C 4.55 g/m*3 3.1 C 0 km/h
1298 19-12-2008 19:38:48 2.8 C 4.52 g/m*3 2.8 C 0 km/h
1299 19-12-2008 19:50:47 2.7 C 4.54 g/m*3 2.7 C 0 km/h
1300 19-12-2008 20:02:48 2.7 C 4.6 g/m*3 2.7 C 0 km/h
Sensor: Nr:Datum:Temp:Abs-Feuchte:Windchill:Wind:
Aussen-T/F 1301 19-12-2008 20:14:47 2.6 C 4.57 g/m*3 2.6 C 0 km/h
1302 19-12-2008 20:26:47 2.4 C 4.51 g/m*3 2.4 C 0 km/h
1303 19-12-2008 20:38:47 2.4 C 4.51 g/m*3 2.4 C 0 km/h
1304 19-12-2008 20:50:47 2.3 C 4.48 g/m*3 2.3 C 0 km/h
1305 19-12-2008 21:02:47 2.1 C 4.48 g/m*3 2.1 C 0 km/h
1306 19-12-2008 21:14:47 2.2 C 4.56 g/m*3 2.2 C 0 km/h
1307 19-12-2008 21:26:47 2.3 C 4.59 g/m*3 2.3 C 0 km/h
1308 19-12-2008 21:38:47 2.5 C 4.66 g/m*3 2.5 C 0 km/h
1309 19-12-2008 21:50:46 2.8 C 4.75 g/m*3 2.8 C 0 km/h
1310 19-12-2008 22:02:47 2.8 C 4.69 g/m*3 2.8 C 0 km/h
1311 19-12-2008 22:14:46 3.2 C 4.76 g/m*3 3.2 C 0 km/h
1312 19-12-2008 22:26:46 3.1 C 4.67 g/m*3 3.1 C 0 km/h
1313 19-12-2008 22:38:46 3 C 4.7 g/m*3 3 C 0 km/h
1314 19-12-2008 22:51:46 3.1 C 4.73 g/m*3 3.1 C 0 km/h
1315 19-12-2008 23:03:46 3.2 C 4.76 g/m*3 3.2 C 0 km/h
1316 19-12-2008 23:15:46 3.2 C 4.76 g/m*3 3.2 C 0 km/h
1317 19-12-2008 23:27:46 3.3 C 4.79 g/m*3 3.3 C 0 km/h
1318 19-12-2008 23:39:46 3.7 C 4.86 g/m*3 3.7 C 0 km/h
1319 19-12-2008 23:51:46 3.7 C 4.8 g/m*3 3.7 C 0 km/h
1320 20-12-2008 00:03:46 3.7 C 4.8 g/m*3 3.7 C 0 km/h
1321 20-12-2008 00:15:46 3.8 C 4.77 g/m*3 3.8 C 0 km/h
1322 20-12-2008 00:27:46 3.7 C 4.86 g/m*3 3.7 C 0 km/h
1323 20-12-2008 00:39:46 3.4 C 4.95 g/m*3 3.4 C 0 km/h
1324 20-12-2008 00:51:47 3.2 C 5.12 g/m*3 3.2 C 0 km/h
1325 20-12-2008 01:03:47 3.1 C 5.21 g/m*3 3.1 C 0 km/h
Sensor: Nr:Datum:Temp:Abs-Feuchte:Windchill:Wind:
Aussen-T/F 1326 20-12-2008 01:15:47 3.1 C 5.27 g/m*3 3.1 C 0 km/h
1327 20-12-2008 01:27:47 3 C 5.29 g/m*3 3 C 0 km/h
1328 20-12-2008 01:39:47 3 C 5.29 g/m*3 3 C 0 km/h
1329 20-12-2008 01:51:47 3 C 5.35 g/m*3 3 C 0 km/h
1330 20-12-2008 02:03:47 3.1 C 5.45 g/m*3 3.1 C 0 km/h
1331 20-12-2008 02:15:47 3.4 C 5.62 g/m*3 3.4 C 0 km/h
1332 20-12-2008 02:27:47 3.7 C 5.73 g/m*3 3.7 C 0 km/h
1333 20-12-2008 02:39:47 3.8 C 5.71 g/m*3 3.8 C 0 km/h
1334 20-12-2008 02:51:47 3.8 C 5.65 g/m*3 3.8 C 0 km/h
1335 20-12-2008 03:03:47 3.9 C 5.68 g/m*3 3.9 C 0 km/h
1336 20-12-2008 03:15:47 3.9 C 5.68 g/m*3 3.9 C 0 km/h
1337 20-12-2008 03:27:47 4.1 C 5.7 g/m*3 4.1 C 0 km/h
1338 20-12-2008 03:39:47 4.2 C 5.73 g/m*3 4.2 C 0 km/h
1339 20-12-2008 03:51:47 4.3 C 5.77 g/m*3 4.3 C 0 km/h
1340 20-12-2008 04:03:47 4.3 C 5.77 g/m*3 4.3 C 0 km/h
1341 20-12-2008 04:15:47 4.4 C 5.81 g/m*3 4.4 C 0 km/h
1342 20-12-2008 04:27:47 4.4 C 5.81 g/m*3 4.4 C 0 km/h
1343 20-12-2008 04:39:48 4.4 C 5.88 g/m*3 4.4 C 0 km/h
1344 20-12-2008 04:51:48 4.4 C 5.88 g/m*3 4.4 C 0 km/h
1345 20-12-2008 05:03:48 4.5 C 5.98 g/m*3 4.5 C 0 km/h
1346 20-12-2008 05:15:48 4.5 C 5.98 g/m*3 4.5 C 0 km/h
1347 20-12-2008 05:27:48 4.5 C 5.98 g/m*3 4.5 C 0 km/h
1348 20-12-2008 05:39:48 4.6 C 6.02 g/m*3 4.6 C 0 km/h
1349 20-12-2008 05:51:48 4.7 C 6.06 g/m*3 4.7 C 0 km/h
1350 20-12-2008 06:03:48 4.8 C 6.1 g/m*3 4.8 C 0 km/h
Sensor: Nr:Datum:Temp:Abs-Feuchte:Windchill:Wind:
Aussen-T/F 1351 20-12-2008 06:15:48 4.9 C 6.14 g/m*3 4.9 C 0 km/h
1352 20-12-2008 06:27:48 5 C 6.12 g/m*3 5 C 0 km/h
1353 20-12-2008 06:39:48 5.2 C 6.13 g/m*3 5.2 C 0 km/h
1354 20-12-2008 06:51:48 5.3 C 6.1 g/m*3 5.3 C 0 km/h
1355 20-12-2008 07:03:48 5.3 C 6.1 g/m*3 5.3 C 0 km/h
1356 20-12-2008 07:15:48 5.4 C 6.14 g/m*3 5.4 C 0 km/h
1357 20-12-2008 07:27:48 5.4 C 6.07 g/m*3 5.4 C 0 km/h
1358 20-12-2008 07:39:48 5.6 C 6.15 g/m*3 5.6 C 0 km/h
1359 20-12-2008 07:51:48 5.6 C 6.15 g/m*3 5.6 C 0 km/h
1360 20-12-2008 08:03:48 5.9 C 6.2 g/m*3 5.9 C 0 km/h
1361 20-12-2008 08:15:48 6 C 6.1 g/m*3 6 C 0 km/h
1362 20-12-2008 08:27:49 6 C 6.1 g/m*3 6 C 0 km/h
1363 20-12-2008 08:39:49 6 C 6.1 g/m*3 6 C 0 km/h
1364 20-12-2008 08:51:49 6 C 6.17 g/m*3 6 C 0 km/h
1365 20-12-2008 09:03:47 6 C 6.17 g/m*3 6 C 0 km/h
1366 20-12-2008 09:15:46 5.9 C 6.27 g/m*3 5.9 C 0 km/h
1367 20-12-2008 09:27:46 6 C 6.24 g/m*3 6 C 0 km/h
1368 20-12-2008 09:39:46 6 C 6.31 g/m*3 6 C 0 km/h
1369 20-12-2008 09:51:46 6.2 C 6.4 g/m*3 6.2 C 0 km/h
1370 20-12-2008 10:03:46 6.3 C 6.44 g/m*3 6.3 C 0 km/h
1371 20-12-2008 10:15:45 6.5 C 6.52 g/m*3 6.5 C 0 km/h
1372 20-12-2008 10:27:45 6.7 C 6.53 g/m*3 6.7 C 0 km/h
1373 20-12-2008 10:39:46 6.8 C 6.5 g/m*3 6.8 C 0 km/h
1374 20-12-2008 10:51:45 6.9 C 6.54 g/m*3 6.9 C 0 km/h
1375 20-12-2008 11:03:45 7 C 6.43 g/m*3 7 C 0 km/h
Sensor: Nr:Datum:Temp:Abs-Feuchte:Windchill:Wind:
Aussen-T/F 1376 20-12-2008 11:15:46 7 C 6.51 g/m*3 7 C 0 km/h
1377 20-12-2008 11:27:46 7.2 C 6.59 g/m*3 7.2 C 0 km/h
1378 20-12-2008 11:39:45 7.4 C 6.68 g/m*3 7.4 C 0 km/h
1379 20-12-2008 11:51:45 7.5 C 6.72 g/m*3 7.5 C 0 km/h
1380 20-12-2008 12:03:45 7.7 C 6.81 g/m*3 7.7 C 0 km/h
1381 20-12-2008 12:15:45 7.8 C 6.69 g/m*3 7.8 C 0 km/h
1382 20-12-2008 12:27:45 8.1 C 6.66 g/m*3 8.1 C 0 km/h
1383 20-12-2008 12:39:44 8.5 C 6.66 g/m*3 8.5 C 0 km/h
1384 20-12-2008 12:51:45 8.7 C 6.66 g/m*3 8.7 C 0 km/h
1385 20-12-2008 13:03:44 8.8 C 6.7 g/m*3 8.8 C 0 km/h
1386 20-12-2008 13:15:44 8.9 C 6.75 g/m*3 8.9 C 0 km/h
1387 20-12-2008 13:27:44 9.1 C 6.65 g/m*3 9.1 C 0 km/h
1388 20-12-2008 13:39:44 9 C 6.7 g/m*3 9 C 0 km/h
1389 20-12-2008 13:51:44 9 C 6.7 g/m*3 9 C 0 km/h
1390 20-12-2008 14:03:44 8.9 C 6.83 g/m*3 8.9 C 0 km/h
1391 20-12-2008 14:15:43 8.8 C 6.88 g/m*3 8.8 C 0 km/h
1392 20-12-2008 14:27:43 8.7 C 7.01 g/m*3 8.7 C 0 km/h
1393 20-12-2008 14:39:44 8.4 C 7.13 g/m*3 8.4 C 0 km/h
1394 20-12-2008 14:51:43 8.3 C 7.25 g/m*3 8.3 C 0 km/h
1395 20-12-2008 15:03:43 8.4 C 7.3 g/m*3 8.4 C 0 km/h
1396 20-12-2008 15:15:43 8.5 C 7.17 g/m*3 8.5 C 0 km/h
1397 20-12-2008 15:27:43 8.7 C 7.18 g/m*3 8.7 C 0 km/h
1398 20-12-2008 15:39:43 9 C 7.14 g/m*3 9 C 0 km/h
1399 20-12-2008 15:51:42 8.9 C 7.1 g/m*3 8.9 C 0 km/h
1400 20-12-2008 16:03:43 8.9 C 7.1 g/m*3 8.9 C 0 km/h
Sensor: Nr:Datum:Temp:Abs-Feuchte:Windchill:Wind:
Aussen-T/F 1401 20-12-2008 16:15:43 8.8 C 6.96 g/m*3 8.8 C 0 km/h
1402 20-12-2008 16:27:43 8.8 C 6.96 g/m*3 8.8 C 0 km/h
1403 20-12-2008 16:39:42 8.8 C 6.96 g/m*3 8.8 C 0 km/h
1404 20-12-2008 16:51:42 8.8 C 6.96 g/m*3 8.8 C 0 km/h
1405 20-12-2008 17:03:43 8.8 C 6.96 g/m*3 8.8 C 0 km/h
1406 20-12-2008 17:15:42 8.8 C 7.05 g/m*3 8.8 C 0 km/h
1407 20-12-2008 17:27:42 8.9 C 7.1 g/m*3 8.9 C 0 km/h
1408 20-12-2008 17:39:42 8.9 C 7.1 g/m*3 8.9 C 0 km/h
1409 20-12-2008 17:51:42 8.8 C 7.14 g/m*3 8.8 C 0 km/h
1410 20-12-2008 18:03:41 8.7 C 7.18 g/m*3 8.7 C 0 km/h
1411 20-12-2008 18:15:42 8.5 C 7.34 g/m*3 8.5 C 0 km/h
1412 20-12-2008 18:27:42 8.5 C 7.43 g/m*3 8.5 C 0 km/h
1413 20-12-2008 18:39:41 8.4 C 7.47 g/m*3 8.4 C 0 km/h
1414 20-12-2008 18:51:41 8.4 C 7.55 g/m*3 8.4 C 0 km/h
1415 20-12-2008 19:03:42 8.3 C 7.59 g/m*3 8.3 C 0 km/h
1416 20-12-2008 19:15:41 8.5 C 7.85 g/m*3 8.5 C 0 km/h
1417 20-12-2008 19:27:41 8.4 C 7.8 g/m*3 8.4 C 0 km/h
1418 20-12-2008 19:39:41 8.4 C 7.8 g/m*3 8.4 C 0 km/h
1419 20-12-2008 19:51:41 8.3 C 7.75 g/m*3 8.3 C 0 km/h
1420 20-12-2008 20:03:41 8 C 7.61 g/m*3 8 C 0 km/h
1421 20-12-2008 20:15:40 7.8 C 7.59 g/m*3 7.8 C 0 km/h
1422 20-12-2008 20:27:40 7.8 C 7.59 g/m*3 7.8 C 0 km/h
1423 20-12-2008 20:39:40 7.5 C 7.44 g/m*3 7.5 C 0 km/h
1424 20-12-2008 20:51:40 7.2 C 7.3 g/m*3 7.2 C 0 km/h
1425 20-12-2008 21:03:40 7 C 7.21 g/m*3 7 C 0 km/h
Sensor: Nr:Datum:Temp:Abs-Feuchte:Windchill:Wind:
Aussen-T/F 1426 20-12-2008 21:15:40 7 C 7.21 g/m*3 7 C 0 km/h
1427 20-12-2008 21:27:40 6.7 C 7.07 g/m*3 6.7 C 0 km/h
1428 20-12-2008 21:39:40 6.5 C 6.97 g/m*3 6.5 C 0 km/h
1429 20-12-2008 21:51:40 6.4 C 6.93 g/m*3 6.4 C 0 km/h
1430 20-12-2008 22:03:40 6.2 C 6.84 g/m*3 6.2 C 0 km/h
1431 20-12-2008 22:15:39 6 C 6.75 g/m*3 6 C 0 km/h
1432 20-12-2008 22:27:39 6 C 6.75 g/m*3 6 C 0 km/h
1433 20-12-2008 22:39:39 6.1 C 6.79 g/m*3 6.1 C 0 km/h
1434 20-12-2008 22:51:39 6.1 C 6.79 g/m*3 6.1 C 0 km/h
1435 20-12-2008 23:03:39 6.1 C 6.79 g/m*3 6.1 C 0 km/h
1436 20-12-2008 23:15:38 6 C 6.75 g/m*3 6 C 0 km/h
1437 20-12-2008 23:27:38 6 C 6.82 g/m*3 6 C 0 km/h
1438 20-12-2008 23:39:39 5.9 C 6.78 g/m*3 5.9 C 0 km/h
1439 20-12-2008 23:51:38 5.9 C 6.78 g/m*3 5.9 C 0 km/h
1440 21-12-2008 00:03:38 5.9 C 6.78 g/m*3 5.9 C 0 km/h
1441 21-12-2008 00:15:38 5.9 C 6.71 g/m*3 5.9 C 0 km/h
1442 21-12-2008 00:27:38 5.9 C 6.71 g/m*3 5.9 C 0 km/h
1443 21-12-2008 00:39:38 5.9 C 6.71 g/m*3 5.9 C 0 km/h
1444 21-12-2008 00:51:38 5.9 C 6.71 g/m*3 5.9 C 0 km/h
1445 21-12-2008 01:03:38 5.9 C 6.71 g/m*3 5.9 C 0 km/h
1446 21-12-2008 01:15:37 5.9 C 6.71 g/m*3 5.9 C 0 km/h
1447 21-12-2008 01:27:37 5.9 C 6.63 g/m*3 5.9 C 0 km/h
1448 21-12-2008 01:39:38 5.9 C 6.63 g/m*3 5.9 C 0 km/h
1449 21-12-2008 01:51:37 5.9 C 6.63 g/m*3 5.9 C 0 km/h
1450 21-12-2008 02:03:37 5.9 C 6.63 g/m*3 5.9 C 0 km/h
Sensor: Nr:Datum:Temp:Abs-Feuchte:Windchill:Wind:
Aussen-T/F 1451 21-12-2008 02:15:37 6 C 6.6 g/m*3 6 C 0 km/h
1452 21-12-2008 02:27:37 6.1 C 6.65 g/m*3 6.1 C 0 km/h
1453 21-12-2008 02:39:37 6.1 C 6.65 g/m*3 6.1 C 0 km/h
1454 21-12-2008 02:52:01 6.1 C 6.65 g/m*3 6.1 C 0 km/h
1455 21-12-2008 03:04:01 6.1 C 6.65 g/m*3 6.1 C 0 km/h
1456 21-12-2008 03:16:01 6.2 C 6.69 g/m*3 6.2 C 0 km/h
1457 21-12-2008 03:28:01 6.2 C 6.69 g/m*3 6.2 C 0 km/h
1458 21-12-2008 03:40:01 6.2 C 6.69 g/m*3 6.2 C 0 km/h
1459 21-12-2008 03:52:02 6.1 C 6.65 g/m*3 6.1 C 0 km/h
1460 21-12-2008 04:04:01 6.1 C 6.65 g/m*3 6.1 C 0 km/h
1461 21-12-2008 04:16:01 6.1 C 6.65 g/m*3 6.1 C 0 km/h
1462 21-12-2008 04:28:01 6.1 C 6.65 g/m*3 6.1 C 0 km/h
1463 21-12-2008 04:40:02 6.1 C 6.65 g/m*3 6.1 C 0 km/h
1464 21-12-2008 04:52:01 6.1 C 6.65 g/m*3 6.1 C 0 km/h
1465 21-12-2008 05:04:01 6.1 C 6.65 g/m*3 6.1 C 0 km/h
1466 21-12-2008 05:16:02 6.1 C 6.72 g/m*3 6.1 C 0 km/h
1467 21-12-2008 05:28:02 6.1 C 6.72 g/m*3 6.1 C 0 km/h
1468 21-12-2008 05:40:01 6.1 C 6.72 g/m*3 6.1 C 0 km/h
1469 21-12-2008 05:52:01 6.1 C 6.72 g/m*3 6.1 C 0 km/h
1470 21-12-2008 06:04:01 6.2 C 6.77 g/m*3 6.2 C 0 km/h
1471 21-12-2008 06:16:01 6.2 C 6.77 g/m*3 6.2 C 0 km/h
1472 21-12-2008 06:28:01 6.2 C 6.77 g/m*3 6.2 C 0 km/h
1473 21-12-2008 06:40:01 6.2 C 6.84 g/m*3 6.2 C 0 km/h
1474 21-12-2008 06:52:01 6.4 C 6.93 g/m*3 6.4 C 0 km/h
1475 21-12-2008 07:04:01 6.9 C 7.24 g/m*3 6.9 C 0 km/h
Sensor: Nr:Datum:Temp:Abs-Feuchte:Windchill:Wind:
Aussen-T/F 1476 21-12-2008 07:16:02 7.3 C 7.51 g/m*3 7.3 C 0 km/h
1477 21-12-2008 07:28:02 7.5 C 7.6 g/m*3 7.5 C 0 km/h
1478 21-12-2008 07:40:01 7.1 C 7.41 g/m*3 7.1 C 0 km/h
1479 21-12-2008 07:52:02 6.7 C 7.22 g/m*3 6.7 C 0 km/h
1480 21-12-2008 08:04:01 6.6 C 7.17 g/m*3 6.6 C 0 km/h
1481 21-12-2008 08:16:02 6.6 C 7.17 g/m*3 6.6 C 0 km/h
1482 21-12-2008 08:28:02 7.1 C 7.41 g/m*3 7.1 C 0 km/h
1483 21-12-2008 08:40:01 7.7 C 7.7 g/m*3 7.7 C 0 km/h
1484 21-12-2008 08:52:02 7.8 C 7.75 g/m*3 7.8 C 0 km/h
1485 21-12-2008 09:04:01 7.9 C 7.8 g/m*3 7.9 C 0 km/h
1486 21-12-2008 09:16:01 7.8 C 7.75 g/m*3 7.8 C 0 km/h
1487 21-12-2008 09:28:01 7.7 C 7.7 g/m*3 7.7 C 0 km/h
1488 21-12-2008 09:40:02 7.4 C 7.55 g/m*3 7.4 C 0 km/h
1489 21-12-2008 09:52:01 7.1 C 7.41 g/m*3 7.1 C 0 km/h
1490 21-12-2008 10:04:02 7.2 C 7.46 g/m*3 7.2 C 0 km/h
1491 21-12-2008 10:16:01 7.3 C 7.51 g/m*3 7.3 C 0 km/h
1492 21-12-2008 10:28:01 7.4 C 7.55 g/m*3 7.4 C 0 km/h
1493 21-12-2008 10:40:02 7.5 C 7.6 g/m*3 7.5 C 0 km/h
1494 21-12-2008 10:52:01 7.5 C 7.6 g/m*3 7.5 C 0 km/h
1495 21-12-2008 11:04:02 7.6 C 7.65 g/m*3 7.6 C 0 km/h
1496 21-12-2008 11:16:01 7.9 C 7.8 g/m*3 7.9 C 0 km/h
1497 21-12-2008 11:28:01 7.9 C 7.8 g/m*3 7.9 C 0 km/h
1498 21-12-2008 11:40:01 8.1 C 7.9 g/m*3 8.1 C 0 km/h
1499 21-12-2008 11:52:01 8.7 C 8.22 g/m*3 8.7 C 0 km/h
1500 21-12-2008 12:04:01 9.1 C 8.43 g/m*3 9.1 C 0 km/h
Sensor: Nr:Datum:Temp:Abs-Feuchte:Windchill:Wind:
Aussen-T/F 1501 21-12-2008 12:16:01 9.4 C 8.41 g/m*3 9.4 C 0 km/h
1502 21-12-2008 12:28:01 9.7 C 8.11 g/m*3 9.7 C 0 km/h
1503 21-12-2008 12:40:01 9.8 C 7.61 g/m*3 9.8 C 0 km/h
1504 21-12-2008 12:52:01 9.8 C 7.42 g/m*3 9.8 C 0 km/h
1505 21-12-2008 13:04:01 10 C 7.14 g/m*3 10 C 0 km/h
1506 21-12-2008 13:16:02 10.2 C 7.23 g/m*3 10.2 C 0 km/h
1507 21-12-2008 13:28:02 10.7 C 7.07 g/m*3 10.7 C 0 km/h
1508 21-12-2008 13:40:01 10.7 C 6.97 g/m*3 10.7 C 0 km/h
1509 21-12-2008 13:52:02 10.7 C 6.68 g/m*3 10.7 C 0 km/h
1510 21-12-2008 14:04:01 10.5 C 6.6 g/m*3 10.5 C 0 km/h
1511 21-12-2008 14:16:01 10.4 C 6.65 g/m*3 10.4 C 0 km/h
1512 21-12-2008 14:28:02 10.2 C 6.66 g/m*3 10.2 C 0 km/h
1513 21-12-2008 14:40:01 10.1 C 6.71 g/m*3 10.1 C 0 km/h
1514 21-12-2008 14:52:01 10.1 C 6.52 g/m*3 10.1 C 0 km/h
1515 21-12-2008 15:04:01 10 C 6.48 g/m*3 10 C 0 km/h
1516 21-12-2008 15:16:01 9.9 C 6.54 g/m*3 9.9 C 0 km/h
1517 21-12-2008 15:28:01 9.8 C 6.59 g/m*3 9.8 C 0 km/h
1518 21-12-2008 15:40:02 9.7 C 6.64 g/m*3 9.7 C 0 km/h
1519 21-12-2008 15:52:01 9.6 C 6.6 g/m*3 9.6 C 0 km/h
1520 21-12-2008 16:04:02 9.6 C 6.5 g/m*3 9.6 C 0 km/h
1521 21-12-2008 16:16:01 9.5 C 6.28 g/m*3 9.5 C 0 km/h
1522 21-12-2008 16:28:01 9.5 C 6.28 g/m*3 9.5 C 0 km/h
1523 21-12-2008 16:40:02 9.4 C 6.24 g/m*3 9.4 C 0 km/h
1524 21-12-2008 16:52:01 9.2 C 6.25 g/m*3 9.2 C 0 km/h
1525 21-12-2008 17:04:02 9.2 C 6.16 g/m*3 9.2 C 0 km/h
Sensor: Nr:Datum:Temp:Abs-Feuchte:Windchill:Wind:
Aussen-T/F 1526 21-12-2008 17:16:01 9.1 C 6.12 g/m*3 9.1 C 0 km/h
1527 21-12-2008 17:28:01 9.1 C 6.12 g/m*3 9.1 C 0 km/h
1528 21-12-2008 17:40:01 9 C 6.08 g/m*3 9 C 0 km/h
1529 21-12-2008 17:52:01 9 C 6.08 g/m*3 9 C 0 km/h
1530 21-12-2008 18:04:01 9 C 6.08 g/m*3 9 C 0 km/h
1531 21-12-2008 18:16:02 9.1 C 6.03 g/m*3 9.1 C 0 km/h
1532 21-12-2008 18:28:02 9.1 C 6.03 g/m*3 9.1 C 0 km/h
1533 21-12-2008 18:40:01 9 C 5.99 g/m*3 9 C 0 km/h
1534 21-12-2008 18:52:02 8.9 C 6.04 g/m*3 8.9 C 0 km/h
1535 21-12-2008 19:04:01 8.9 C 6.04 g/m*3 8.9 C 0 km/h
1536 21-12-2008 19:16:02 8.8 C 6.09 g/m*3 8.8 C 0 km/h
1537 21-12-2008 19:28:02 8.7 C 6.14 g/m*3 8.7 C 0 km/h
1538 21-12-2008 19:40:01 8.7 C 6.31 g/m*3 8.7 C 0 km/h
1539 21-12-2008 19:52:02 8.7 C 6.31 g/m*3 8.7 C 0 km/h
1540 21-12-2008 20:04:01 8.7 C 6.31 g/m*3 8.7 C 0 km/h
1541 21-12-2008 20:16:01 8.7 C 6.23 g/m*3 8.7 C 0 km/h
1542 21-12-2008 20:28:01 8.7 C 6.23 g/m*3 8.7 C 0 km/h
1543 21-12-2008 20:40:02 8.8 C 6.18 g/m*3 8.8 C 0 km/h
1544 21-12-2008 20:52:01 8.9 C 6.13 g/m*3 8.9 C 0 km/h
1545 21-12-2008 21:04:01 8.9 C 6.13 g/m*3 8.9 C 0 km/h
1546 21-12-2008 21:16:01 8.9 C 6.04 g/m*3 8.9 C 0 km/h
1547 21-12-2008 21:28:01 8.9 C 6.13 g/m*3 8.9 C 0 km/h
1548 21-12-2008 21:40:02 8.8 C 6.18 g/m*3 8.8 C 0 km/h
1549 21-12-2008 21:52:01 8.7 C 6.14 g/m*3 8.7 C 0 km/h
1550 21-12-2008 22:04:02 8.7 C 6.23 g/m*3 8.7 C 0 km/h
Sensor: Nr:Datum:Temp:Abs-Feuchte:Windchill:Wind:
Aussen-T/F 1551 21-12-2008 22:16:01 8.6 C 6.19 g/m*3 8.6 C 0 km/h
1552 21-12-2008 22:28:01 8.6 C 6.19 g/m*3 8.6 C 0 km/h
1553 21-12-2008 22:40:02 8.6 C 6.19 g/m*3 8.6 C 0 km/h
1554 21-12-2008 22:52:01 8.5 C 6.23 g/m*3 8.5 C 0 km/h
1555 21-12-2008 23:04:01 8.5 C 6.23 g/m*3 8.5 C 0 km/h
1556 21-12-2008 23:16:01 8.5 C 6.23 g/m*3 8.5 C 0 km/h
1557 21-12-2008 23:28:01 8.5 C 6.23 g/m*3 8.5 C 0 km/h
1558 21-12-2008 23:40:01 8.5 C 6.32 g/m*3 8.5 C 0 km/h
1559 21-12-2008 23:52:01 8.5 C 6.32 g/m*3 8.5 C 0 km/h
1560 22-12-2008 00:04:01 8.6 C 6.36 g/m*3 8.6 C 0 km/h
1561 22-12-2008 00:16:02 8.6 C 6.36 g/m*3 8.6 C 0 km/h
1562 22-12-2008 00:28:02 8.6 C 6.36 g/m*3 8.6 C 0 km/h
1563 22-12-2008 00:40:01 8.6 C 6.44 g/m*3 8.6 C 0 km/h
1564 22-12-2008 00:52:02 8.6 C 6.44 g/m*3 8.6 C 0 km/h
1565 22-12-2008 01:04:01 8.8 C 6.44 g/m*3 8.8 C 0 km/h
1566 22-12-2008 01:16:02 8.8 C 6.44 g/m*3 8.8 C 0 km/h
1567 22-12-2008 01:28:02 8.8 C 6.44 g/m*3 8.8 C 0 km/h
1568 22-12-2008 01:40:01 8.9 C 6.39 g/m*3 8.9 C 0 km/h
1569 22-12-2008 01:52:02 8.9 C 6.39 g/m*3 8.9 C 0 km/h
1570 22-12-2008 02:04:01 8.9 C 6.48 g/m*3 8.9 C 0 km/h
1571 22-12-2008 02:16:01 8.7 C 6.49 g/m*3 8.7 C 0 km/h
1572 22-12-2008 02:28:01 8.7 C 6.57 g/m*3 8.7 C 0 km/h
1573 22-12-2008 02:40:01 8.8 C 6.61 g/m*3 8.8 C 0 km/h
1574 22-12-2008 02:52:27 8.9 C 6.57 g/m*3 8.9 C 0 km/h
1575 22-12-2008 03:04:27 8.9 C 6.57 g/m*3 8.9 C 0 km/h
Sensor: Nr:Datum:Temp:Abs-Feuchte:Windchill:Wind:
Aussen-T/F 1576 22-12-2008 03:16:27 8.9 C 6.57 g/m*3 8.9 C 0 km/h
1577 22-12-2008 03:28:27 8.7 C 6.57 g/m*3 8.7 C 0 km/h
1578 22-12-2008 03:40:27 8.6 C 6.7 g/m*3 8.6 C 0 km/h
1579 22-12-2008 03:52:27 8.2 C 6.95 g/m*3 8.2 C 0 km/h
1580 22-12-2008 04:04:26 8.1 C 7.16 g/m*3 8.1 C 0 km/h
1581 22-12-2008 04:16:27 8.1 C 7.24 g/m*3 8.1 C 0 km/h
1582 22-12-2008 04:28:27 8.1 C 7.32 g/m*3 8.1 C 0 km/h
1583 22-12-2008 04:40:26 8.1 C 7.32 g/m*3 8.1 C 0 km/h
1584 22-12-2008 04:52:26 8.3 C 7.25 g/m*3 8.3 C 0 km/h
1585 22-12-2008 05:04:26 8.3 C 7.16 g/m*3 8.3 C 0 km/h
1586 22-12-2008 05:16:26 8.3 C 7.16 g/m*3 8.3 C 0 km/h
1587 22-12-2008 05:28:26 8.2 C 7.2 g/m*3 8.2 C 0 km/h
1588 22-12-2008 05:40:26 8.1 C 7.16 g/m*3 8.1 C 0 km/h
1589 22-12-2008 05:52:25 8.1 C 7.24 g/m*3 8.1 C 0 km/h
1590 22-12-2008 06:04:26 8.1 C 7.24 g/m*3 8.1 C 0 km/h
1591 22-12-2008 06:16:26 8.1 C 7.24 g/m*3 8.1 C 0 km/h
1592 22-12-2008 06:28:26 8.1 C 7.16 g/m*3 8.1 C 0 km/h
1593 22-12-2008 06:40:25 8.3 C 7.16 g/m*3 8.3 C 0 km/h
1594 22-12-2008 06:52:26 8.6 C 7.05 g/m*3 8.6 C 0 km/h
1595 22-12-2008 07:04:25 8.6 C 6.96 g/m*3 8.6 C 0 km/h
1596 22-12-2008 07:16:25 8.8 C 6.88 g/m*3 8.8 C 0 km/h
1597 22-12-2008 07:28:25 8.9 C 6.83 g/m*3 8.9 C 0 km/h
1598 22-12-2008 07:40:24 8.9 C 6.83 g/m*3 8.9 C 0 km/h
1599 22-12-2008 07:52:25 8.9 C 6.83 g/m*3 8.9 C 0 km/h
1600 22-12-2008 08:04:24 8.9 C 6.83 g/m*3 8.9 C 0 km/h
Sensor: Nr:Datum:Temp:Abs-Feuchte:Windchill:Wind:
Aussen-T/F 1601 22-12-2008 08:16:24 9 C 6.7 g/m*3 9 C 0 km/h
1602 22-12-2008 08:28:24 9 C 6.61 g/m*3 9 C 0 km/h
1603 22-12-2008 08:40:25 9.1 C 6.65 g/m*3 9.1 C 0 km/h
1604 22-12-2008 08:52:24 9 C 6.61 g/m*3 9 C 0 km/h
1605 22-12-2008 09:04:24 9.1 C 6.65 g/m*3 9.1 C 0 km/h
1606 22-12-2008 09:16:24 9 C 6.61 g/m*3 9 C 0 km/h
1607 22-12-2008 09:28:24 9.1 C 6.65 g/m*3 9.1 C 0 km/h
1608 22-12-2008 09:40:24 9 C 6.7 g/m*3 9 C 0 km/h
1609 22-12-2008 09:52:23 9.1 C 6.74 g/m*3 9.1 C 0 km/h
1610 22-12-2008 10:04:24 9.2 C 6.79 g/m*3 9.2 C 0 km/h
1611 22-12-2008 10:16:23 9.3 C 6.74 g/m*3 9.3 C 0 km/h
1612 22-12-2008 10:28:23 9.2 C 6.79 g/m*3 9.2 C 0 km/h
1613 22-12-2008 10:40:23 9.2 C 6.97 g/m*3 9.2 C 0 km/h
1614 22-12-2008 10:52:23 9.3 C 7.01 g/m*3 9.3 C 0 km/h
1615 22-12-2008 11:04:23 9.3 C 7.1 g/m*3 9.3 C 0 km/h
1616 22-12-2008 11:16:23 9.4 C 7.24 g/m*3 9.4 C 0 km/h
1617 22-12-2008 11:28:23 9.5 C 7.19 g/m*3 9.5 C 0 km/h
1618 22-12-2008 11:40:23 9.6 C 7.24 g/m*3 9.6 C 0 km/h
1619 22-12-2008 11:52:23 9.6 C 7.24 g/m*3 9.6 C 0 km/h
1620 22-12-2008 12:04:22 9.9 C 7.28 g/m*3 9.9 C 0 km/h
1621 22-12-2008 12:16:22 10 C 7.14 g/m*3 10 C 0 km/h
1622 22-12-2008 12:28:22 10 C 7.14 g/m*3 10 C 0 km/h
1623 22-12-2008 12:40:22 9.9 C 7.38 g/m*3 9.9 C 0 km/h
1624 22-12-2008 12:52:22 9.9 C 7.66 g/m*3 9.9 C 0 km/h
1625 22-12-2008 13:04:22 9.9 C 7.56 g/m*3 9.9 C 0 km/h
Sensor: Nr:Datum:Temp:Abs-Feuchte:Windchill:Wind:
Aussen-T/F 1626 22-12-2008 13:16:22 10 C 7.42 g/m*3 10 C 0 km/h
1627 22-12-2008 13:28:22 10 C 7.42 g/m*3 10 C 0 km/h
1628 22-12-2008 13:40:22 9.9 C 7.47 g/m*3 9.9 C 0 km/h
1629 22-12-2008 13:52:21 10 C 7.33 g/m*3 10 C 0 km/h
1630 22-12-2008 14:04:21 10.1 C 7.19 g/m*3 10.1 C 0 km/h
1631 22-12-2008 14:16:21 10.3 C 6.99 g/m*3 10.3 C 0 km/h
1632 22-12-2008 14:28:21 10.3 C 6.9 g/m*3 10.3 C 0 km/h
1633 22-12-2008 14:40:22 9.7 C 7.01 g/m*3 9.7 C 0 km/h
1634 22-12-2008 14:52:21 9.6 C 7.05 g/m*3 9.6 C 0 km/h
1635 22-12-2008 15:04:21 9.6 C 7.05 g/m*3 9.6 C 0 km/h
1636 22-12-2008 15:16:21 9.7 C 6.91 g/m*3 9.7 C 0 km/h
1637 22-12-2008 15:28:21 9.7 C 6.82 g/m*3 9.7 C 0 km/h
1638 22-12-2008 15:40:21 9.7 C 6.45 g/m*3 9.7 C 0 km/h
1639 22-12-2008 15:52:20 9.6 C 6.32 g/m*3 9.6 C 0 km/h
1640 22-12-2008 16:04:21 9.6 C 6.23 g/m*3 9.6 C 0 km/h
1641 22-12-2008 16:16:20 9.5 C 6.19 g/m*3 9.5 C 0 km/h
1642 22-12-2008 16:28:20 9.6 C 6.05 g/m*3 9.6 C 0 km/h
1643 22-12-2008 16:40:20 9.5 C 6.01 g/m*3 9.5 C 0 km/h
1644 22-12-2008 16:52:02 9.5 C 5.92 g/m*3 9.5 C 0 km/h
1645 22-12-2008 17:04:02 9.5 C 6.01 g/m*3 9.5 C 0 km/h
1646 22-12-2008 17:16:02 9.3 C 5.93 g/m*3 9.3 C 0 km/h
1647 22-12-2008 17:28:02 9.1 C 6.03 g/m*3 9.1 C 0 km/h
1648 22-12-2008 17:40:02 8.8 C 6.18 g/m*3 8.8 C 0 km/h
1649 22-12-2008 17:52:02 8.5 C 6.15 g/m*3 8.5 C 0 km/h
1650 22-12-2008 18:04:01 8 C 6.12 g/m*3 8 C 0 km/h
Sensor: Nr:Datum:Temp:Abs-Feuchte:Windchill:Wind:
Aussen-T/F 1651 22-12-2008 18:16:02 7.6 C 6.28 g/m*3 7.6 C 0 km/h
1652 22-12-2008 18:28:02 7.3 C 6.32 g/m*3 7.3 C 0 km/h
1653 22-12-2008 18:40:02 7.1 C 6.32 g/m*3 7.1 C 0 km/h
1654 22-12-2008 18:52:02 6.9 C 6.39 g/m*3 6.9 C 0 km/h
1655 22-12-2008 19:04:02 6.9 C 6.47 g/m*3 6.9 C 0 km/h
1656 22-12-2008 19:16:02 6.7 C 6.38 g/m*3 6.7 C 0 km/h
1657 22-12-2008 19:28:02 6.3 C 6.22 g/m*3 6.3 C 0 km/h
1658 22-12-2008 19:40:01 6.2 C 6.25 g/m*3 6.2 C 0 km/h
1659 22-12-2008 19:52:02 5.9 C 6.2 g/m*3 5.9 C 0 km/h
1660 22-12-2008 20:04:01 5.8 C 6.16 g/m*3 5.8 C 0 km/h
1661 22-12-2008 20:16:01 6.1 C 6.28 g/m*3 6.1 C 0 km/h
1662 22-12-2008 20:28:01 6.1 C 6.28 g/m*3 6.1 C 0 km/h
1663 22-12-2008 20:40:00 6.2 C 6.25 g/m*3 6.2 C 0 km/h
1664 22-12-2008 20:52:01 6.3 C 6.29 g/m*3 6.3 C 0 km/h
1665 22-12-2008 21:04:01 6.3 C 6.22 g/m*3 6.3 C 0 km/h
1666 22-12-2008 21:16:00 6.5 C 6.3 g/m*3 6.5 C 0 km/h
1667 22-12-2008 21:28:00 6.4 C 6.18 g/m*3 6.4 C 0 km/h
1668 22-12-2008 21:40:00 6.4 C 6.18 g/m*3 6.4 C 0 km/h
1669 22-12-2008 21:52:00 6.5 C 6.3 g/m*3 6.5 C 0 km/h
1670 22-12-2008 22:05:02 6.5 C 6.22 g/m*3 6.5 C 0 km/h
1671 22-12-2008 22:17:02 6.5 C 6.3 g/m*3 6.5 C 0 km/h
1672 22-12-2008 22:29:02 7 C 6.51 g/m*3 7 C 0 km/h
1673 22-12-2008 22:41:03 7.2 C 6.52 g/m*3 7.2 C 0 km/h
1674 22-12-2008 22:53:03 7.1 C 6.47 g/m*3 7.1 C 0 km/h
1675 22-12-2008 23:05:03 7.1 C 6.47 g/m*3 7.1 C 0 km/h
Sensor: Nr:Datum:Temp:Abs-Feuchte:Windchill:Wind:
Aussen-T/F 1676 22-12-2008 23:17:03 7 C 6.43 g/m*3 7 C 0 km/h
1677 22-12-2008 23:29:03 6.8 C 6.42 g/m*3 6.8 C 0 km/h
1678 22-12-2008 23:41:03 6.9 C 6.54 g/m*3 6.9 C 0 km/h
1679 22-12-2008 23:53:03 6.9 C 6.54 g/m*3 6.9 C 0 km/h
1680 23-12-2008 00:05:03 6.8 C 6.5 g/m*3 6.8 C 0 km/h
1681 23-12-2008 00:17:03 6.4 C 6.26 g/m*3 6.4 C 0 km/h
1682 23-12-2008 00:29:03 6.8 C 6.5 g/m*3 6.8 C 0 km/h
1683 23-12-2008 00:41:03 7.1 C 6.4 g/m*3 7.1 C 0 km/h
1684 23-12-2008 00:53:03 7.2 C 6.36 g/m*3 7.2 C 0 km/h
1685 23-12-2008 01:05:03 7.2 C 6.28 g/m*3 7.2 C 0 km/h
1686 23-12-2008 01:17:03 7.2 C 6.2 g/m*3 7.2 C 0 km/h
1687 23-12-2008 01:29:03 7.2 C 6.2 g/m*3 7.2 C 0 km/h
1688 23-12-2008 01:41:03 7.1 C 6.16 g/m*3 7.1 C 0 km/h
1689 23-12-2008 01:53:03 6.9 C 6.24 g/m*3 6.9 C 0 km/h
1690 23-12-2008 02:05:03 6.9 C 6.24 g/m*3 6.9 C 0 km/h
1691 23-12-2008 02:17:03 6.7 C 6.23 g/m*3 6.7 C 0 km/h
1692 23-12-2008 02:29:03 6.7 C 6.31 g/m*3 6.7 C 0 km/h
1693 23-12-2008 02:41:04 6.7 C 6.31 g/m*3 6.7 C 0 km/h
1694 23-12-2008 02:53:04 6.4 C 6.18 g/m*3 6.4 C 0 km/h
1695 23-12-2008 03:05:04 6.3 C 6.22 g/m*3 6.3 C 0 km/h
1696 23-12-2008 03:17:04 6.3 C 6.29 g/m*3 6.3 C 0 km/h
1697 23-12-2008 03:29:04 6.2 C 6.25 g/m*3 6.2 C 0 km/h
1698 23-12-2008 03:41:04 6.1 C 6.21 g/m*3 6.1 C 0 km/h
1699 23-12-2008 03:53:04 6.1 C 6.21 g/m*3 6.1 C 0 km/h
1700 23-12-2008 04:05:04 6 C 6.17 g/m*3 6 C 0 km/h
Sensor: Nr:Datum:Temp:Abs-Feuchte:Windchill:Wind:
Aussen-T/F 1701 23-12-2008 04:17:04 5.7 C 6.12 g/m*3 5.7 C 0 km/h
1702 23-12-2008 04:29:04 5.6 C 6.15 g/m*3 5.6 C 0 km/h
1703 23-12-2008 04:41:04 5.6 C 6.15 g/m*3 5.6 C 0 km/h
1704 23-12-2008 04:53:04 5.4 C 6.14 g/m*3 5.4 C 0 km/h
1705 23-12-2008 05:05:04 5.3 C 6.1 g/m*3 5.3 C 0 km/h
1706 23-12-2008 05:17:04 5.2 C 6.06 g/m*3 5.2 C 0 km/h
1707 23-12-2008 05:29:04 5.1 C 6.02 g/m*3 5.1 C 0 km/h
1708 23-12-2008 05:41:04 4.7 C 5.86 g/m*3 4.7 C 0 km/h
1709 23-12-2008 05:53:04 4.4 C 5.81 g/m*3 4.4 C 0 km/h
1710 23-12-2008 06:05:04 4.2 C 5.73 g/m*3 4.2 C 0 km/h
1711 23-12-2008 06:17:04 4.6 C 5.96 g/m*3 4.6 C 0 km/h
1712 23-12-2008 06:29:04 4.9 C 6.14 g/m*3 4.9 C 0 km/h
1713 23-12-2008 06:41:04 4.8 C 6.04 g/m*3 4.8 C 0 km/h
1714 23-12-2008 06:53:05 4.7 C 6 g/m*3 4.7 C 0 km/h
1715 23-12-2008 07:05:05 5 C 6.12 g/m*3 5 C 0 km/h
1716 23-12-2008 07:17:02 5 C 6.12 g/m*3 5 C 0 km/h
1717 23-12-2008 07:29:02 4.9 C 6.08 g/m*3 4.9 C 0 km/h
1718 23-12-2008 07:41:01 5.4 C 6.28 g/m*3 5.4 C 0 km/h
1719 23-12-2008 07:53:01 5.3 C 6.17 g/m*3 5.3 C 0 km/h
1720 23-12-2008 08:05:01 5.3 C 6.1 g/m*3 5.3 C 0 km/h
1721 23-12-2008 08:17:01 5.1 C 5.95 g/m*3 5.1 C 0 km/h
1722 23-12-2008 08:29:01 4.9 C 5.94 g/m*3 4.9 C 0 km/h
1723 23-12-2008 08:41:01 5 C 5.91 g/m*3 5 C 0 km/h
1724 23-12-2008 08:53:01 5 C 5.91 g/m*3 5 C 0 km/h
1725 23-12-2008 09:05:01 5 C 5.91 g/m*3 5 C 0 km/h
Sensor: Nr:Datum:Temp:Abs-Feuchte:Windchill:Wind:
Aussen-T/F 1726 23-12-2008 09:17:00 4.9 C 5.94 g/m*3 4.9 C 0 km/h
1727 23-12-2008 09:29:00 4.9 C 5.94 g/m*3 4.9 C 0 km/h
1728 23-12-2008 09:41:01 4.9 C 5.94 g/m*3 4.9 C 0 km/h
1729 23-12-2008 09:53:00 4.7 C 5.8 g/m*3 4.7 C 0 km/h
1730 23-12-2008 10:05:00 4.9 C 5.94 g/m*3 4.9 C 0 km/h
1731 23-12-2008 10:16:59 4.9 C 5.94 g/m*3 4.9 C 0 km/h
1732 23-12-2008 10:28:59 5 C 5.84 g/m*3 5 C 0 km/h
1733 23-12-2008 10:41:00 5.2 C 5.92 g/m*3 5.2 C 0 km/h
1734 23-12-2008 10:53:59 5.5 C 5.97 g/m*3 5.5 C 0 km/h
1735 23-12-2008 11:05:59 5.6 C 5.94 g/m*3 5.6 C 0 km/h
1736 23-12-2008 11:17:00 5.7 C 5.91 g/m*3 5.7 C 0 km/h
1737 23-12-2008 11:29:00 5.9 C 5.98 g/m*3 5.9 C 0 km/h
1738 23-12-2008 11:41:59 6.1 C 5.92 g/m*3 6.1 C 0 km/h
1739 23-12-2008 11:53:59 6.2 C 5.88 g/m*3 6.2 C 0 km/h
1740 23-12-2008 12:05:59 6.3 C 5.85 g/m*3 6.3 C 0 km/h
1741 23-12-2008 12:17:59 6.5 C 5.85 g/m*3 6.5 C 0 km/h
1742 23-12-2008 12:29:59 6.7 C 5.85 g/m*3 6.7 C 0 km/h
1743 23-12-2008 12:41:59 6.9 C 5.85 g/m*3 6.9 C 0 km/h
1744 23-12-2008 12:53:59 7.1 C 5.85 g/m*3 7.1 C 0 km/h
1745 23-12-2008 13:05:59 7.4 C 5.88 g/m*3 7.4 C 0 km/h
1746 23-12-2008 13:17:58 7.4 C 5.88 g/m*3 7.4 C 0 km/h
1747 23-12-2008 13:29:58 7.4 C 5.81 g/m*3 7.4 C 0 km/h
1748 23-12-2008 13:41:58 7.5 C 5.84 g/m*3 7.5 C 0 km/h
1749 23-12-2008 13:53:58 7.6 C 5.88 g/m*3 7.6 C 0 km/h
1750 23-12-2008 14:05:58 7.7 C 5.84 g/m*3 7.7 C 0 km/h
Sensor: Nr:Datum:Temp:Abs-Feuchte:Windchill:Wind:
Aussen-T/F 1751 23-12-2008 14:17:57 7.6 C 5.72 g/m*3 7.6 C 0 km/h
1752 23-12-2008 14:29:57 7.6 C 5.64 g/m*3 7.6 C 0 km/h
1753 23-12-2008 14:41:58 7.4 C 5.49 g/m*3 7.4 C 0 km/h
1754 23-12-2008 14:53:57 7.3 C 5.45 g/m*3 7.3 C 0 km/h
1755 23-12-2008 15:05:57 7.4 C 5.49 g/m*3 7.4 C 0 km/h
1756 23-12-2008 15:17:58 7.5 C 5.44 g/m*3 7.5 C 0 km/h
1757 23-12-2008 15:29:58 7.5 C 5.44 g/m*3 7.5 C 0 km/h
1758 23-12-2008 15:41:57 7.5 C 5.28 g/m*3 7.5 C 0 km/h
1759 23-12-2008 15:53:57 7.3 C 5.21 g/m*3 7.3 C 0 km/h
1760 23-12-2008 16:05:57 7.1 C 5.3 g/m*3 7.1 C 0 km/h
1761 23-12-2008 16:17:57 7.1 C 5.38 g/m*3 7.1 C 0 km/h
1762 23-12-2008 16:29:57 7 C 5.42 g/m*3 7 C 0 km/h
1763 23-12-2008 16:41:57 6.9 C 5.47 g/m*3 6.9 C 0 km/h
1764 23-12-2008 16:53:56 6.9 C 5.39 g/m*3 6.9 C 0 km/h
1765 23-12-2008 17:05:56 6.8 C 5.43 g/m*3 6.8 C 0 km/h
1766 23-12-2008 17:17:56 6.8 C 5.43 g/m*3 6.8 C 0 km/h
1767 23-12-2008 17:29:56 6.7 C 5.47 g/m*3 6.7 C 0 km/h
1768 23-12-2008 17:41:56 6.6 C 5.44 g/m*3 6.6 C 0 km/h
1769 23-12-2008 17:53:55 6.5 C 5.47 g/m*3 6.5 C 0 km/h
1770 23-12-2008 18:05:56 6.5 C 5.47 g/m*3 6.5 C 0 km/h
1771 23-12-2008 18:17:56 6.6 C 5.51 g/m*3 6.6 C 0 km/h
1772 23-12-2008 18:29:56 6.6 C 5.59 g/m*3 6.6 C 0 km/h
1773 23-12-2008 18:41:55 6.5 C 5.55 g/m*3 6.5 C 0 km/h
1774 23-12-2008 18:53:56 6.6 C 5.59 g/m*3 6.6 C 0 km/h
1775 23-12-2008 19:05:55 6.5 C 5.55 g/m*3 6.5 C 0 km/h
Sensor: Nr:Datum:Temp:Abs-Feuchte:Windchill:Wind:
Aussen-T/F 1776 23-12-2008 19:17:55 6.5 C 5.55 g/m*3 6.5 C 0 km/h
1777 23-12-2008 19:29:55 6.5 C 5.62 g/m*3 6.5 C 0 km/h
1778 23-12-2008 19:41:54 6.5 C 5.62 g/m*3 6.5 C 0 km/h
1779 23-12-2008 19:53:55 6.5 C 5.62 g/m*3 6.5 C 0 km/h
1780 23-12-2008 20:05:55 6.5 C 5.7 g/m*3 6.5 C 0 km/h
1781 23-12-2008 20:17:54 6.5 C 5.7 g/m*3 6.5 C 0 km/h
1782 23-12-2008 20:29:54 6.5 C 5.7 g/m*3 6.5 C 0 km/h
1783 23-12-2008 20:41:55 6.4 C 5.74 g/m*3 6.4 C 0 km/h
1784 23-12-2008 20:53:54 6.5 C 5.77 g/m*3 6.5 C 0 km/h
1785 23-12-2008 21:05:54 6.4 C 5.74 g/m*3 6.4 C 0 km/h
1786 23-12-2008 21:17:54 6.4 C 5.74 g/m*3 6.4 C 0 km/h
1787 23-12-2008 21:29:54 6.3 C 5.77 g/m*3 6.3 C 0 km/h
1788 23-12-2008 21:41:54 6.3 C 5.77 g/m*3 6.3 C 0 km/h
1789 23-12-2008 21:53:53 6.1 C 5.7 g/m*3 6.1 C 0 km/h
1790 23-12-2008 22:05:54 6.1 C 5.7 g/m*3 6.1 C 0 km/h
1791 23-12-2008 22:17:54 6.2 C 5.66 g/m*3 6.2 C 0 km/h
1792 23-12-2008 22:29:54 6.2 C 5.59 g/m*3 6.2 C 0 km/h
1793 23-12-2008 22:41:53 6.2 C 5.59 g/m*3 6.2 C 0 km/h
1794 23-12-2008 22:53:53 6.2 C 5.59 g/m*3 6.2 C 0 km/h
1795 23-12-2008 23:05:53 6.1 C 5.55 g/m*3 6.1 C 0 km/h
1796 23-12-2008 23:17:53 6.2 C 5.44 g/m*3 6.2 C 0 km/h
1797 23-12-2008 23:29:53 6.2 C 5.44 g/m*3 6.2 C 0 km/h
1798 23-12-2008 23:41:52 6.2 C 5.44 g/m*3 6.2 C 0 km/h
1799 23-12-2008 23:53:53 6.1 C 5.41 g/m*3 6.1 C 0 km/h
1800 24-12-2008 00:05:53 6.1 C 5.41 g/m*3 6.1 C 0 km/h
Sensor: Nr:Datum:Temp:Abs-Feuchte:Windchill:Wind:
Aussen-T/F 1801 24-12-2008 00:17:53 6 C 5.37 g/m*3 6 C 0 km/h
1802 24-12-2008 00:29:53 6.1 C 5.41 g/m*3 6.1 C 0 km/h
1803 24-12-2008 00:41:52 6.1 C 5.33 g/m*3 6.1 C 0 km/h
1804 24-12-2008 00:53:53 6 C 5.37 g/m*3 6 C 0 km/h
1805 24-12-2008 01:05:52 6 C 5.37 g/m*3 6 C 0 km/h
1806 24-12-2008 01:17:52 5.8 C 5.37 g/m*3 5.8 C 0 km/h
1807 24-12-2008 01:29:53 5.5 C 5.34 g/m*3 5.5 C 0 km/h
1808 24-12-2008 01:41:51 5.3 C 5.34 g/m*3 5.3 C 0 km/h
1809 24-12-2008 01:53:52 5.2 C 5.3 g/m*3 5.2 C 0 km/h
1810 24-12-2008 02:05:51 5.3 C 5.41 g/m*3 5.3 C 0 km/h
1811 24-12-2008 02:17:51 5.2 C 5.44 g/m*3 5.2 C 0 km/h
1812 24-12-2008 02:29:51 5.3 C 5.48 g/m*3 5.3 C 0 km/h
1813 24-12-2008 02:41:52 5.1 C 5.4 g/m*3 5.1 C 0 km/h
1814 24-12-2008 02:54:52 4.9 C 5.47 g/m*3 4.9 C 0 km/h
1815 24-12-2008 03:06:52 4.7 C 5.4 g/m*3 4.7 C 0 km/h
1816 24-12-2008 03:18:53 4.5 C 5.39 g/m*3 4.5 C 0 km/h
1817 24-12-2008 03:30:52 4.1 C 5.18 g/m*3 4.1 C 0 km/h
1818 24-12-2008 03:42:52 3.7 C 5.17 g/m*3 3.7 C 0 km/h
1819 24-12-2008 03:54:52 3.5 C 5.1 g/m*3 3.5 C 0 km/h
1820 24-12-2008 04:06:52 3.3 C 5.1 g/m*3 3.3 C 0 km/h
1821 24-12-2008 04:18:52 3 C 4.99 g/m*3 3 C 0 km/h
1822 24-12-2008 04:30:52 2.9 C 5.08 g/m*3 2.9 C 0 km/h
1823 24-12-2008 04:42:52 2.7 C 5.01 g/m*3 2.7 C 0 km/h
1824 24-12-2008 04:54:52 2.5 C 4.94 g/m*3 2.5 C 0 km/h
1825 24-12-2008 05:06:51 2.3 C 4.93 g/m*3 2.3 C 0 km/h
Sensor: Nr:Datum:Temp:Abs-Feuchte:Windchill:Wind:
Aussen-T/F 1826 24-12-2008 05:18:51 2.3 C 4.93 g/m*3 2.3 C 0 km/h
1827 24-12-2008 05:30:51 2.1 C 4.92 g/m*3 2.1 C 0 km/h
1828 24-12-2008 05:42:51 2 C 4.89 g/m*3 2 C 0 km/h
1829 24-12-2008 05:54:50 2.3 C 5.05 g/m*3 2.3 C 0 km/h
1830 24-12-2008 06:06:51 2.8 C 5.34 g/m*3 2.8 C 0 km/h
1831 24-12-2008 06:18:51 2.9 C 5.37 g/m*3 2.9 C 0 km/h
1832 24-12-2008 06:30:50 2.8 C 5.28 g/m*3 2.8 C 0 km/h
1833 24-12-2008 06:42:50 2.7 C 5.24 g/m*3 2.7 C 0 km/h
1834 24-12-2008 06:54:51 2.8 C 5.22 g/m*3 2.8 C 0 km/h
1835 24-12-2008 07:06:50 2.9 C 5.26 g/m*3 2.9 C 0 km/h
1836 24-12-2008 07:18:50 3 C 5.29 g/m*3 3 C 0 km/h
1837 24-12-2008 07:30:50 3.3 C 5.4 g/m*3 3.3 C 0 km/h
1838 24-12-2008 07:42:50 3.3 C 5.4 g/m*3 3.3 C 0 km/h
1839 24-12-2008 07:54:50 3.2 C 5.36 g/m*3 3.2 C 0 km/h
1840 24-12-2008 08:06:50 3.2 C 5.36 g/m*3 3.2 C 0 km/h
1841 24-12-2008 08:18:49 3.3 C 5.4 g/m*3 3.3 C 0 km/h
1842 24-12-2008 08:30:50 3.5 C 5.47 g/m*3 3.5 C 0 km/h
1843 24-12-2008 08:42:50 3.6 C 5.51 g/m*3 3.6 C 0 km/h
1844 24-12-2008 08:54:49 3.5 C 5.47 g/m*3 3.5 C 0 km/h
1845 24-12-2008 09:06:49 3.5 C 5.47 g/m*3 3.5 C 0 km/h
1846 24-12-2008 09:18:49 3.4 C 5.44 g/m*3 3.4 C 0 km/h
1847 24-12-2008 09:30:49 3.4 C 5.44 g/m*3 3.4 C 0 km/h
1848 24-12-2008 09:42:49 3.5 C 5.53 g/m*3 3.5 C 0 km/h
1849 24-12-2008 09:54:48 3.6 C 5.51 g/m*3 3.6 C 0 km/h
1850 24-12-2008 10:06:49 3.6 C 5.51 g/m*3 3.6 C 0 km/h
Sensor: Nr:Datum:Temp:Abs-Feuchte:Windchill:Wind:
Aussen-T/F 1851 24-12-2008 10:18:49 3.7 C 5.55 g/m*3 3.7 C 0 km/h
1852 24-12-2008 10:30:48 3.9 C 5.68 g/m*3 3.9 C 0 km/h
1853 24-12-2008 10:42:48 4 C 5.66 g/m*3 4 C 0 km/h
1854 24-12-2008 10:54:49 4 C 5.66 g/m*3 4 C 0 km/h
1855 24-12-2008 11:06:48 4.1 C 5.76 g/m*3 4.1 C 0 km/h
1856 24-12-2008 11:18:48 4.1 C 5.76 g/m*3 4.1 C 0 km/h
1857 24-12-2008 11:30:47 4.2 C 5.8 g/m*3 4.2 C 0 km/h
1858 24-12-2008 11:42:47 4.3 C 5.77 g/m*3 4.3 C 0 km/h
1859 24-12-2008 11:54:48 4.3 C 5.77 g/m*3 4.3 C 0 km/h
1860 24-12-2008 12:06:47 4.4 C 5.75 g/m*3 4.4 C 0 km/h
1861 24-12-2008 12:18:47 4.5 C 5.72 g/m*3 4.5 C 0 km/h
1862 24-12-2008 12:30:48 4.8 C 5.77 g/m*3 4.8 C 0 km/h
1863 24-12-2008 12:42:48 5 C 5.71 g/m*3 5 C 0 km/h
1864 24-12-2008 12:54:47 5.3 C 5.68 g/m*3 5.3 C 0 km/h
1865 24-12-2008 13:06:47 5.6 C 5.66 g/m*3 5.6 C 0 km/h
1866 24-12-2008 13:18:47 5.5 C 5.55 g/m*3 5.5 C 0 km/h
1867 24-12-2008 13:30:47 5.3 C 5.48 g/m*3 5.3 C 0 km/h
1868 24-12-2008 13:42:47 5.3 C 5.48 g/m*3 5.3 C 0 km/h
1869 24-12-2008 13:54:46 5.2 C 5.44 g/m*3 5.2 C 0 km/h
1870 24-12-2008 14:06:47 5.2 C 5.44 g/m*3 5.2 C 0 km/h
1871 24-12-2008 14:18:47 5.2 C 5.44 g/m*3 5.2 C 0 km/h
1872 24-12-2008 14:30:46 5.3 C 5.48 g/m*3 5.3 C 0 km/h
1873 24-12-2008 14:42:46 5.3 C 5.48 g/m*3 5.3 C 0 km/h
1874 24-12-2008 14:54:46 5.2 C 5.44 g/m*3 5.2 C 0 km/h
1875 24-12-2008 15:06:46 5.2 C 5.44 g/m*3 5.2 C 0 km/h
Sensor: Nr:Datum:Temp:Abs-Feuchte:Windchill:Wind:
Aussen-T/F 1876 24-12-2008 15:18:46 5.1 C 5.47 g/m*3 5.1 C 0 km/h
1877 24-12-2008 15:30:45 4.9 C 5.6 g/m*3 4.9 C 0 km/h
1878 24-12-2008 15:42:45 4.9 C 5.74 g/m*3 4.9 C 0 km/h
1879 24-12-2008 15:54:46 5.1 C 5.88 g/m*3 5.1 C 0 km/h
1880 24-12-2008 16:06:45 5.3 C 6.1 g/m*3 5.3 C 0 km/h
1881 24-12-2008 16:18:45 5.3 C 6.17 g/m*3 5.3 C 0 km/h
1882 24-12-2008 16:30:45 5.4 C 6.21 g/m*3 5.4 C 0 km/h
1883 24-12-2008 16:42:45 5.4 C 6.21 g/m*3 5.4 C 0 km/h
1884 24-12-2008 16:54:45 5.3 C 6.17 g/m*3 5.3 C 0 km/h
1885 24-12-2008 17:06:45 5.2 C 6.13 g/m*3 5.2 C 0 km/h
1886 24-12-2008 17:18:44 5.2 C 6.13 g/m*3 5.2 C 0 km/h
1887 24-12-2008 17:30:45 5.1 C 6.02 g/m*3 5.1 C 0 km/h
1888 24-12-2008 17:42:45 5.2 C 5.99 g/m*3 5.2 C 0 km/h
1889 24-12-2008 17:54:44 5.2 C 5.85 g/m*3 5.2 C 0 km/h
1890 24-12-2008 18:06:44 5.3 C 5.82 g/m*3 5.3 C 0 km/h
1891 24-12-2008 18:18:45 5.3 C 5.82 g/m*3 5.3 C 0 km/h
1892 24-12-2008 18:30:44 5.3 C 5.82 g/m*3 5.3 C 0 km/h
1893 24-12-2008 18:42:44 5.3 C 5.82 g/m*3 5.3 C 0 km/h
1894 24-12-2008 18:54:44 5.3 C 5.82 g/m*3 5.3 C 0 km/h
1895 24-12-2008 19:06:44 5.2 C 5.85 g/m*3 5.2 C 0 km/h
1896 24-12-2008 19:18:44 5.2 C 5.92 g/m*3 5.2 C 0 km/h
1897 24-12-2008 19:30:43 5.2 C 5.92 g/m*3 5.2 C 0 km/h
1898 24-12-2008 19:42:43 5.2 C 5.92 g/m*3 5.2 C 0 km/h
1899 24-12-2008 19:54:44 5.2 C 5.92 g/m*3 5.2 C 0 km/h
1900 24-12-2008 20:06:43 5.3 C 5.96 g/m*3 5.3 C 0 km/h
Sensor: Nr:Datum:Temp:Abs-Feuchte:Windchill:Wind:
Aussen-T/F 1901 24-12-2008 20:18:43 5.2 C 5.92 g/m*3 5.2 C 0 km/h
1902 24-12-2008 20:30:43 5.2 C 5.99 g/m*3 5.2 C 0 km/h
1903 24-12-2008 20:42:43 5.2 C 6.06 g/m*3 5.2 C 0 km/h
1904 24-12-2008 20:54:43 5.2 C 6.06 g/m*3 5.2 C 0 km/h
1905 24-12-2008 21:06:43 5.2 C 6.13 g/m*3 5.2 C 0 km/h
1906 24-12-2008 21:18:42 5.2 C 6.13 g/m*3 5.2 C 0 km/h
1907 24-12-2008 21:30:42 5.2 C 6.13 g/m*3 5.2 C 0 km/h
1908 24-12-2008 21:42:42 5.2 C 6.13 g/m*3 5.2 C 0 km/h
1909 24-12-2008 21:54:43 5.3 C 6.17 g/m*3 5.3 C 0 km/h
1910 24-12-2008 22:06:42 5.3 C 6.17 g/m*3 5.3 C 0 km/h
1911 24-12-2008 22:18:42 5.3 C 6.17 g/m*3 5.3 C 0 km/h
1912 24-12-2008 22:30:42 5.3 C 6.17 g/m*3 5.3 C 0 km/h
1913 24-12-2008 22:42:42 5.3 C 6.17 g/m*3 5.3 C 0 km/h
1914 24-12-2008 22:54:42 5.3 C 6.17 g/m*3 5.3 C 0 km/h
1915 24-12-2008 23:06:41 5.3 C 6.1 g/m*3 5.3 C 0 km/h
1916 24-12-2008 23:18:42 5.3 C 6.1 g/m*3 5.3 C 0 km/h
1917 24-12-2008 23:30:42 5.3 C 6.1 g/m*3 5.3 C 0 km/h
1918 24-12-2008 23:42:42 5.4 C 6.07 g/m*3 5.4 C 0 km/h
1919 24-12-2008 23:54:41 5.4 C 6 g/m*3 5.4 C 0 km/h
1920 25-12-2008 00:06:42 5.4 C 5.86 g/m*3 5.4 C 0 km/h
1921 25-12-2008 00:18:41 5.3 C 5.82 g/m*3 5.3 C 0 km/h
1922 25-12-2008 00:30:41 5.2 C 5.78 g/m*3 5.2 C 0 km/h
1923 25-12-2008 00:42:41 5.2 C 5.78 g/m*3 5.2 C 0 km/h
1924 25-12-2008 00:54:41 5.2 C 5.78 g/m*3 5.2 C 0 km/h
1925 25-12-2008 01:06:40 5.1 C 5.75 g/m*3 5.1 C 0 km/h
Sensor: Nr:Datum:Temp:Abs-Feuchte:Windchill:Wind:
Aussen-T/F 1926 25-12-2008 01:18:41 5 C 5.71 g/m*3 5 C 0 km/h
1927 25-12-2008 01:30:40 5 C 5.64 g/m*3 5 C 0 km/h
1928 25-12-2008 01:42:40 5.1 C 5.47 g/m*3 5.1 C 0 km/h
1929 25-12-2008 01:54:40 5.2 C 5.37 g/m*3 5.2 C 0 km/h
1930 25-12-2008 02:06:40 5.3 C 5.41 g/m*3 5.3 C 0 km/h
1931 25-12-2008 02:18:40 4.7 C 5.26 g/m*3 4.7 C 0 km/h
1932 25-12-2008 02:30:40 4.8 C 5.43 g/m*3 4.8 C 0 km/h
1933 25-12-2008 02:42:40 4.9 C 5.54 g/m*3 4.9 C 0 km/h
1934 25-12-2008 02:55:41 5 C 5.5 g/m*3 5 C 0 km/h
1935 25-12-2008 03:07:41 5 C 5.57 g/m*3 5 C 0 km/h
1936 25-12-2008 03:19:41 4.8 C 5.5 g/m*3 4.8 C 0 km/h
1937 25-12-2008 03:31:41 4.5 C 5.46 g/m*3 4.5 C 0 km/h
1938 25-12-2008 03:43:41 4.3 C 5.38 g/m*3 4.3 C 0 km/h
1939 25-12-2008 03:55:41 4.2 C 5.41 g/m*3 4.2 C 0 km/h
1940 25-12-2008 04:07:40 4.4 C 5.55 g/m*3 4.4 C 0 km/h
1941 25-12-2008 04:19:40 4.5 C 5.59 g/m*3 4.5 C 0 km/h
1942 25-12-2008 04:31:41 4.6 C 5.62 g/m*3 4.6 C 0 km/h
1943 25-12-2008 04:43:41 4.6 C 5.62 g/m*3 4.6 C 0 km/h
1944 25-12-2008 04:55:40 4.6 C 5.56 g/m*3 4.6 C 0 km/h
1945 25-12-2008 05:07:40 4.6 C 5.56 g/m*3 4.6 C 0 km/h
1946 25-12-2008 05:19:40 4.6 C 5.56 g/m*3 4.6 C 0 km/h
1947 25-12-2008 05:31:40 4.6 C 5.56 g/m*3 4.6 C 0 km/h
1948 25-12-2008 05:43:40 4.7 C 5.6 g/m*3 4.7 C 0 km/h
1949 25-12-2008 05:55:40 4.7 C 5.53 g/m*3 4.7 C 0 km/h
1950 25-12-2008 06:07:40 4.7 C 5.53 g/m*3 4.7 C 0 km/h
Sensor: Nr:Datum:Temp:Abs-Feuchte:Windchill:Wind:
Aussen-T/F 1951 25-12-2008 06:19:39 4.7 C 5.53 g/m*3 4.7 C 0 km/h
1952 25-12-2008 06:31:39 4.7 C 5.53 g/m*3 4.7 C 0 km/h
1953 25-12-2008 06:43:39 4.7 C 5.46 g/m*3 4.7 C 0 km/h
1954 25-12-2008 06:55:39 4.7 C 5.46 g/m*3 4.7 C 0 km/h
1955 25-12-2008 07:07:39 4.8 C 5.5 g/m*3 4.8 C 0 km/h
1956 25-12-2008 07:19:38 4.8 C 5.43 g/m*3 4.8 C 0 km/h
1957 25-12-2008 07:31:39 4.8 C 5.43 g/m*3 4.8 C 0 km/h
1958 25-12-2008 07:43:39 4.8 C 5.43 g/m*3 4.8 C 0 km/h
1959 25-12-2008 07:55:38 4.8 C 5.43 g/m*3 4.8 C 0 km/h
1960 25-12-2008 08:07:38 4.7 C 5.4 g/m*3 4.7 C 0 km/h
1961 25-12-2008 08:19:39 4.7 C 5.4 g/m*3 4.7 C 0 km/h
1962 25-12-2008 08:31:38 4.7 C 5.4 g/m*3 4.7 C 0 km/h
1963 25-12-2008 08:43:38 4.8 C 5.43 g/m*3 4.8 C 0 km/h
1964 25-12-2008 08:55:38 4.8 C 5.43 g/m*3 4.8 C 0 km/h
1965 25-12-2008 09:07:38 4.8 C 5.43 g/m*3 4.8 C 0 km/h
1966 25-12-2008 09:24:38 5 C 5.44 g/m*3 5 C 0 km/h
1967 25-12-2008 09:36:37 5.1 C 5.47 g/m*3 5.1 C 0 km/h
1968 25-12-2008 09:48:38 5.3 C 5.48 g/m*3 5.3 C 0 km/h
1969 25-12-2008 10:00:37 5.4 C 5.58 g/m*3 5.4 C 0 km/h
1970 25-12-2008 10:12:37 5.7 C 5.62 g/m*3 5.7 C 0 km/h
1971 25-12-2008 10:24:37 5.8 C 5.59 g/m*3 5.8 C 0 km/h
1972 25-12-2008 10:36:37 6 C 5.52 g/m*3 6 C 0 km/h
1973 25-12-2008 10:48:37 6.2 C 5.44 g/m*3 6.2 C 0 km/h
1974 25-12-2008 11:00:36 6.3 C 5.4 g/m*3 6.3 C 0 km/h
1975 25-12-2008 11:12:36 6.3 C 5.33 g/m*3 6.3 C 0 km/h
Sensor: Nr:Datum:Temp:Abs-Feuchte:Windchill:Wind:
Aussen-T/F 1976 25-12-2008 11:25:37 6.3 C 5.26 g/m*3 6.3 C 0 km/h
1977 25-12-2008 11:37:36 6.4 C 5.07 g/m*3 6.4 C 0 km/h
1978 25-12-2008 11:49:37 6.9 C 4.93 g/m*3 6.9 C 0 km/h
1979 25-12-2008 12:01:36 7 C 4.8 g/m*3 7 C 0 km/h
1980 25-12-2008 12:13:36 7 C 4.8 g/m*3 7 C 0 km/h
1981 25-12-2008 12:25:36 6.9 C 4.85 g/m*3 6.9 C 0 km/h
1982 25-12-2008 12:37:36 7.1 C 4.76 g/m*3 7.1 C 0 km/h
1983 25-12-2008 12:49:36 7.1 C 4.6 g/m*3 7.1 C 0 km/h
1984 25-12-2008 13:01:35 7 C 4.65 g/m*3 7 C 0 km/h
1985 25-12-2008 13:13:35 7 C 4.65 g/m*3 7 C 0 km/h
1986 25-12-2008 13:25:36 6.9 C 4.7 g/m*3 6.9 C 0 km/h
1987 25-12-2008 13:37:35 7 C 4.57 g/m*3 7 C 0 km/h
1988 25-12-2008 13:49:35 7 C 4.49 g/m*3 7 C 0 km/h
1989 25-12-2008 14:01:35 7.1 C 4.37 g/m*3 7.1 C 0 km/h
1990 25-12-2008 14:13:35 7.1 C 4.52 g/m*3 7.1 C 0 km/h
1991 25-12-2008 14:25:35 7.1 C 4.37 g/m*3 7.1 C 0 km/h
1992 25-12-2008 14:37:35 7 C 4.26 g/m*3 7 C 0 km/h
1993 25-12-2008 14:49:35 7.1 C 4.21 g/m*3 7.1 C 0 km/h
1994 25-12-2008 15:01:35 7.2 C 4.24 g/m*3 7.2 C 0 km/h
1995 25-12-2008 15:13:35 7.1 C 4.29 g/m*3 7.1 C 0 km/h
1996 25-12-2008 15:25:35 7 C 4.26 g/m*3 7 C 0 km/h
1997 25-12-2008 15:37:34 6.9 C 4.39 g/m*3 6.9 C 0 km/h
1998 25-12-2008 15:49:34 6.6 C 4.45 g/m*3 6.6 C 0 km/h
1999 25-12-2008 16:01:34 6.1 C 4.24 g/m*3 6.1 C 0 km/h
2000 25-12-2008 16:13:34 5.9 C 4.33 g/m*3 5.9 C 0 km/h
Sensor: Nr:Datum:Temp:Abs-Feuchte:Windchill:Wind:
Aussen-T/F 2001 25-12-2008 16:25:34 5.6 C 4.31 g/m*3 5.6 C 0 km/h
2002 25-12-2008 16:37:34 5.1 C 4.24 g/m*3 5.1 C 0 km/h
2003 25-12-2008 16:49:33 4.8 C 4.29 g/m*3 4.8 C 0 km/h
2004 25-12-2008 17:01:34 4.7 C 4.26 g/m*3 4.7 C 0 km/h
2005 25-12-2008 17:13:34 4.5 C 4.14 g/m*3 4.5 C 0 km/h
2006 25-12-2008 17:25:33 4.2 C 4.12 g/m*3 4.2 C 0 km/h
2007 25-12-2008 17:37:34 4 C 4.07 g/m*3 4 C 0 km/h
2008 25-12-2008 17:49:34 3.7 C 3.99 g/m*3 3.7 C 0 km/h
2009 25-12-2008 18:01:33 3.5 C 3.87 g/m*3 3.5 C 0 km/h
2010 25-12-2008 18:13:34 3.3 C 3.76 g/m*3 3.3 C 0 km/h
2011 25-12-2008 18:25:33 3.1 C 3.47 g/m*3 3.1 C 0 km/h
2012 25-12-2008 18:37:33 3 C 3.33 g/m*3 3 C 0 km/h
2013 25-12-2008 18:49:33 2.7 C 3.38 g/m*3 2.7 C 0 km/h
2014 25-12-2008 19:01:32 2.4 C 3.31 g/m*3 2.4 C 0 km/h
2015 25-12-2008 19:13:32 2.2 C 3.27 g/m*3 2.2 C 0 km/h
2016 25-12-2008 19:25:33 1.8 C 3.18 g/m*3 1.8 C 0 km/h
2017 25-12-2008 19:37:32 1.5 C 3.12 g/m*3 1.5 C 0 km/h
2018 25-12-2008 19:49:32 1.3 C 3.07 g/m*3 1.3 C 0 km/h
2019 25-12-2008 20:01:32 1.1 C 3.08 g/m*3 1.1 C 0 km/h
2020 25-12-2008 20:13:32 1 C 3.11 g/m*3 1 C 0 km/h
2021 25-12-2008 20:25:31 1 C 3.06 g/m*3 1 C 0 km/h
2022 25-12-2008 20:37:32 1 C 3.06 g/m*3 1 C 0 km/h
2023 25-12-2008 20:49:32 1.1 C 3.08 g/m*3 1.1 C 0 km/h
2024 25-12-2008 21:01:32 1 C 3.01 g/m*3 1 C 0 km/h
2025 25-12-2008 21:13:32 1 C 3.01 g/m*3 1 C 0 km/h
Sensor: Nr:Datum:Temp:Abs-Feuchte:Windchill:Wind:
Aussen-T/F 2026 25-12-2008 21:25:31 0.9 C 2.99 g/m*3 0.9 C 0 km/h
2027 25-12-2008 21:37:31 0.8 C 2.97 g/m*3 0.8 C 0 km/h
2028 25-12-2008 21:49:31 0.7 C 2.9 g/m*3 0.7 C 0 km/h
2029 25-12-2008 22:01:31 0.6 C 2.88 g/m*3 0.6 C 0 km/h
2030 25-12-2008 22:13:31 0.6 C 2.88 g/m*3 0.6 C 0 km/h
2031 25-12-2008 22:25:31 0.5 C 2.86 g/m*3 0.5 C 0 km/h
2032 25-12-2008 22:37:31 0.6 C 2.93 g/m*3 0.6 C 0 km/h
2033 25-12-2008 22:49:30 0.7 C 2.9 g/m*3 0.7 C 0 km/h
2034 25-12-2008 23:01:30 0.5 C 2.86 g/m*3 0.5 C 0 km/h
2035 25-12-2008 23:13:30 0.3 C 2.82 g/m*3 0.3 C 0 km/h
2036 25-12-2008 23:25:30 0 C 2.81 g/m*3 0 C 0 km/h
2037 25-12-2008 23:37:30 -0.4 C 2.83 g/m*3 -0.4 C 0 km/h
2038 25-12-2008 23:49:29 -0.5 C 2.81 g/m*3 -0.5 C 0 km/h
2039 26-12-2008 00:01:30 -0.6 C 2.79 g/m*3 -0.6 C 0 km/h
2040 26-12-2008 00:13:30 -0.6 C 2.79 g/m*3 -0.6 C 0 km/h
2041 26-12-2008 00:25:30 -0.7 C 2.82 g/m*3 -0.7 C 0 km/h
2042 26-12-2008 00:37:29 -0.7 C 2.82 g/m*3 -0.7 C 0 km/h
2043 26-12-2008 00:49:30 -0.5 C 2.86 g/m*3 -0.5 C 0 km/h
2044 26-12-2008 01:01:29 -0.2 C 2.91 g/m*3 -0.2 C 0 km/h
2045 26-12-2008 01:13:29 0.2 C 2.95 g/m*3 0.2 C 0 km/h
2046 26-12-2008 01:25:29 0.4 C 2.94 g/m*3 0.4 C 0 km/h
2047 26-12-2008 01:37:29 0.5 C 2.91 g/m*3 0.5 C 0 km/h
2048 26-12-2008 01:49:29 0.5 C 2.86 g/m*3 0.5 C 0 km/h
2049 26-12-2008 02:01:28 0.5 C 2.81 g/m*3 0.5 C 0 km/h
2050 26-12-2008 02:13:28 0.4 C 2.84 g/m*3 0.4 C 0 km/h
Sensor: Nr:Datum:Temp:Abs-Feuchte:Windchill:Wind:
Aussen-T/F 2051 26-12-2008 02:25:29 0.2 C 2.8 g/m*3 0.2 C 0 km/h
2052 26-12-2008 02:37:29 0.2 C 2.75 g/m*3 0.2 C 0 km/h
2053 26-12-2008 02:50:01 0.2 C 2.7 g/m*3 0.2 C 0 km/h
2054 26-12-2008 03:02:01 0.1 C 2.68 g/m*3 0.1 C 0 km/h
2055 26-12-2008 03:14:01 -0.2 C 2.58 g/m*3 -0.2 C 0 km/h
2056 26-12-2008 03:26:01 -0.5 C 2.48 g/m*3 -0.5 C 0 km/h
2057 26-12-2008 03:38:02 -0.6 C 2.46 g/m*3 -0.6 C 0 km/h
2058 26-12-2008 03:50:02 -0.8 C 2.48 g/m*3 -0.8 C 0 km/h
2059 26-12-2008 04:02:01 -0.8 C 2.52 g/m*3 -0.8 C 0 km/h
2060 26-12-2008 04:14:01 -0.9 C 2.5 g/m*3 -0.9 C 0 km/h
2061 26-12-2008 04:26:01 -1 C 2.49 g/m*3 -1 C 0 km/h
2062 26-12-2008 04:38:02 -1 C 2.49 g/m*3 -1 C 0 km/h
2063 26-12-2008 04:50:01 -1.1 C 2.47 g/m*3 -1.1 C 0 km/h
2064 26-12-2008 05:02:01 -1.1 C 2.47 g/m*3 -1.1 C 0 km/h
2065 26-12-2008 05:14:01 -1.2 C 2.5 g/m*3 -1.2 C 0 km/h
2066 26-12-2008 05:26:01 -1.3 C 2.48 g/m*3 -1.3 C 0 km/h
2067 26-12-2008 05:38:01 -1.3 C 2.48 g/m*3 -1.3 C 0 km/h
2068 26-12-2008 05:50:01 -1.4 C 2.51 g/m*3 -1.4 C 0 km/h
2069 26-12-2008 06:02:01 -1.4 C 2.51 g/m*3 -1.4 C 0 km/h
2070 26-12-2008 06:14:01 -1.6 C 2.47 g/m*3 -1.6 C 0 km/h
2071 26-12-2008 06:26:01 -1.6 C 2.47 g/m*3 -1.6 C 0 km/h
2072 26-12-2008 06:38:01 -1.6 C 2.47 g/m*3 -1.6 C 0 km/h
2073 26-12-2008 06:50:01 -1.7 C 2.45 g/m*3 -1.7 C 0 km/h
2074 26-12-2008 07:02:01 -1.7 C 2.45 g/m*3 -1.7 C 0 km/h
2075 26-12-2008 07:14:01 -1.7 C 2.5 g/m*3 -1.7 C 0 km/h
Sensor: Nr:Datum:Temp:Abs-Feuchte:Windchill:Wind:
Aussen-T/F 2076 26-12-2008 07:26:02 -1.8 C 2.48 g/m*3 -1.8 C 0 km/h
2077 26-12-2008 07:38:01 -1.7 C 2.5 g/m*3 -1.7 C 0 km/h
2078 26-12-2008 07:50:02 -1.8 C 2.44 g/m*3 -1.8 C 0 km/h
2079 26-12-2008 08:02:01 -1.9 C 2.46 g/m*3 -1.9 C 0 km/h
2080 26-12-2008 08:14:01 -1.9 C 2.46 g/m*3 -1.9 C 0 km/h
2081 26-12-2008 08:26:01 -2 C 2.49 g/m*3 -2 C 0 km/h
2082 26-12-2008 08:38:01 -2 C 2.49 g/m*3 -2 C 0 km/h
2083 26-12-2008 08:50:01 -2 C 2.53 g/m*3 -2 C 0 km/h
2084 26-12-2008 09:02:02 -2 C 2.53 g/m*3 -2 C 0 km/h
2085 26-12-2008 09:14:02 -1.9 C 2.55 g/m*3 -1.9 C 0 km/h
2086 26-12-2008 09:26:01 -1.9 C 2.55 g/m*3 -1.9 C 0 km/h
2087 26-12-2008 09:38:02 -1.8 C 2.56 g/m*3 -1.8 C 0 km/h
2088 26-12-2008 09:50:01 -1.7 C 2.58 g/m*3 -1.7 C 0 km/h
2089 26-12-2008 10:02:02 -1.6 C 2.6 g/m*3 -1.6 C 0 km/h
2090 26-12-2008 10:14:02 -1.5 C 2.58 g/m*3 -1.5 C 0 km/h
2091 26-12-2008 10:26:01 -1.5 C 2.58 g/m*3 -1.5 C 0 km/h
2092 26-12-2008 10:38:02 -1.4 C 2.55 g/m*3 -1.4 C 0 km/h
2093 26-12-2008 10:50:01 -1.3 C 2.57 g/m*3 -1.3 C 0 km/h
2094 26-12-2008 11:02:02 -1.2 C 2.54 g/m*3 -1.2 C 0 km/h
2095 26-12-2008 11:14:02 -1 C 2.58 g/m*3 -1 C 0 km/h
2096 26-12-2008 11:26:01 -0.8 C 2.52 g/m*3 -0.8 C 0 km/h
2097 26-12-2008 11:38:01 -0.9 C 2.5 g/m*3 -0.9 C 0 km/h
2098 26-12-2008 11:50:01 -0.8 C 2.52 g/m*3 -0.8 C 0 km/h
2099 26-12-2008 12:02:01 -0.6 C 2.51 g/m*3 -0.6 C 0 km/h
2100 26-12-2008 12:14:01 -0.6 C 2.51 g/m*3 -0.6 C 0 km/h
Sensor: Nr:Datum:Temp:Abs-Feuchte:Windchill:Wind:
Aussen-T/F 2101 26-12-2008 12:26:01 -0.5 C 2.53 g/m*3 -0.5 C 0 km/h
2102 26-12-2008 12:38:01 -0.3 C 2.56 g/m*3 -0.3 C 0 km/h
2103 26-12-2008 12:50:01 -0.2 C 2.48 g/m*3 -0.2 C 0 km/h
2104 26-12-2008 13:02:01 0 C 2.52 g/m*3 0 C 0 km/h
2105 26-12-2008 13:14:01 0.1 C 2.54 g/m*3 0.1 C 0 km/h
2106 26-12-2008 13:26:02 0.2 C 2.55 g/m*3 0.2 C 0 km/h
2107 26-12-2008 13:38:01 0.4 C 2.54 g/m*3 0.4 C 0 km/h
2108 26-12-2008 13:50:02 0.3 C 2.57 g/m*3 0.3 C 0 km/h
2109 26-12-2008 14:02:01 0.4 C 2.54 g/m*3 0.4 C 0 km/h
2110 26-12-2008 14:14:01 0.4 C 2.54 g/m*3 0.4 C 0 km/h
2111 26-12-2008 14:26:02 0.5 C 2.56 g/m*3 0.5 C 0 km/h
2112 26-12-2008 14:38:01 0.5 C 2.56 g/m*3 0.5 C 0 km/h
2113 26-12-2008 14:50:01 0.5 C 2.56 g/m*3 0.5 C 0 km/h
2114 26-12-2008 15:02:01 0.6 C 2.52 g/m*3 0.6 C 0 km/h
2115 26-12-2008 15:14:01 0.6 C 2.52 g/m*3 0.6 C 0 km/h
2116 26-12-2008 15:26:01 0.5 C 2.56 g/m*3 0.5 C 0 km/h
2117 26-12-2008 15:38:02 0.6 C 2.58 g/m*3 0.6 C 0 km/h
2118 26-12-2008 15:50:01 0.3 C 2.57 g/m*3 0.3 C 0 km/h
2119 26-12-2008 16:02:02 0.2 C 2.6 g/m*3 0.2 C 0 km/h
2120 26-12-2008 16:14:02 -0.3 C 2.66 g/m*3 -0.3 C 0 km/h
2121 26-12-2008 16:26:01 -0.5 C 2.67 g/m*3 -0.5 C 0 km/h
2122 26-12-2008 16:38:01 -0.5 C 2.67 g/m*3 -0.5 C 0 km/h
2123 26-12-2008 16:50:01 -0.5 C 2.62 g/m*3 -0.5 C 0 km/h
2124 26-12-2008 17:02:01 -0.7 C 2.58 g/m*3 -0.7 C 0 km/h
2125 26-12-2008 17:14:01 -1 C 2.62 g/m*3 -1 C 0 km/h
Sensor: Nr:Datum:Temp:Abs-Feuchte:Windchill:Wind:
Aussen-T/F 2126 26-12-2008 17:26:01 -1.3 C 2.61 g/m*3 -1.3 C 0 km/h
2127 26-12-2008 17:38:01 -1.3 C 2.66 g/m*3 -1.3 C 0 km/h
2128 26-12-2008 17:50:01 -1.3 C 2.61 g/m*3 -1.3 C 0 km/h
2129 26-12-2008 18:02:01 -1.4 C 2.59 g/m*3 -1.4 C 0 km/h
2130 26-12-2008 18:14:01 -1.6 C 2.64 g/m*3 -1.6 C 0 km/h
2131 26-12-2008 18:26:02 -1.9 C 2.63 g/m*3 -1.9 C 0 km/h
2132 26-12-2008 18:38:01 -2 C 2.66 g/m*3 -2 C 0 km/h
2133 26-12-2008 18:50:02 -2.1 C 2.64 g/m*3 -2.1 C 0 km/h
2134 26-12-2008 19:02:01 -2.1 C 2.68 g/m*3 -2.1 C 0 km/h
2135 26-12-2008 19:14:01 -2 C 2.7 g/m*3 -2 C 0 km/h
2136 26-12-2008 19:26:01 -1.9 C 2.63 g/m*3 -1.9 C 0 km/h
2137 26-12-2008 19:38:01 -2.3 C 2.64 g/m*3 -2.3 C 0 km/h
2138 26-12-2008 19:50:01 -2.4 C 2.66 g/m*3 -2.4 C 0 km/h
2139 26-12-2008 20:02:02 -2.5 C 2.69 g/m*3 -2.5 C 0 km/h
2140 26-12-2008 20:14:02 -2.4 C 2.66 g/m*3 -2.4 C 0 km/h
2141 26-12-2008 20:26:01 -2.3 C 2.64 g/m*3 -2.3 C 0 km/h
2142 26-12-2008 20:38:02 -2.5 C 2.6 g/m*3 -2.5 C 0 km/h
2143 26-12-2008 20:50:01 -2.5 C 2.6 g/m*3 -2.5 C 0 km/h
2144 26-12-2008 21:02:02 -2.6 C 2.59 g/m*3 -2.6 C 0 km/h
2145 26-12-2008 21:14:02 -2.6 C 2.59 g/m*3 -2.6 C 0 km/h
2146 26-12-2008 21:26:01 -2.7 C 2.57 g/m*3 -2.7 C 0 km/h
2147 26-12-2008 21:38:02 -2.8 C 2.59 g/m*3 -2.8 C 0 km/h
2148 26-12-2008 21:50:01 -3 C 2.55 g/m*3 -3 C 0 km/h
2149 26-12-2008 22:02:02 -3 C 2.59 g/m*3 -3 C 0 km/h
2150 26-12-2008 22:14:02 -3.1 C 2.57 g/m*3 -3.1 C 0 km/h
Sensor: Nr:Datum:Temp:Abs-Feuchte:Windchill:Wind:
Aussen-T/F 2151 26-12-2008 22:26:01 -3.1 C 2.61 g/m*3 -3.1 C 0 km/h
2152 26-12-2008 22:38:01 -3.1 C 2.57 g/m*3 -3.1 C 0 km/h
2153 26-12-2008 22:50:01 -3.1 C 2.57 g/m*3 -3.1 C 0 km/h
2154 26-12-2008 23:02:01 -3.2 C 2.59 g/m*3 -3.2 C 0 km/h
2155 26-12-2008 23:14:01 -3.3 C 2.58 g/m*3 -3.3 C 0 km/h
2156 26-12-2008 23:26:02 -3.6 C 2.56 g/m*3 -3.6 C 0 km/h
2157 26-12-2008 23:38:01 -3.5 C 2.65 g/m*3 -3.5 C 0 km/h
2158 26-12-2008 23:50:02 -3.4 C 2.67 g/m*3 -3.4 C 0 km/h
2159 27-12-2008 00:02:01 -3.4 C 2.63 g/m*3 -3.4 C 0 km/h
2160 27-12-2008 00:14:01 -3.3 C 2.65 g/m*3 -3.3 C 0 km/h
2161 27-12-2008 00:26:02 -3.2 C 2.71 g/m*3 -3.2 C 0 km/h
2162 27-12-2008 00:38:01 -3.1 C 2.69 g/m*3 -3.1 C 0 km/h
2163 27-12-2008 00:50:02 -3.1 C 2.69 g/m*3 -3.1 C 0 km/h
2164 27-12-2008 01:02:01 -3.1 C 2.69 g/m*3 -3.1 C 0 km/h
2165 27-12-2008 01:14:01 -3 C 2.67 g/m*3 -3 C 0 km/h
2166 27-12-2008 01:26:02 -3.1 C 2.65 g/m*3 -3.1 C 0 km/h
2167 27-12-2008 01:38:01 -3 C 2.71 g/m*3 -3 C 0 km/h
2168 27-12-2008 01:50:02 -2.9 C 2.73 g/m*3 -2.9 C 0 km/h
2169 27-12-2008 02:02:01 -2.8 C 2.71 g/m*3 -2.8 C 0 km/h
2170 27-12-2008 02:14:01 -2.8 C 2.67 g/m*3 -2.8 C 0 km/h
2171 27-12-2008 02:26:01 -2.8 C 2.67 g/m*3 -2.8 C 0 km/h
2172 27-12-2008 02:38:02 -2.9 C 2.65 g/m*3 -2.9 C 0 km/h
2173 27-12-2008 02:50:19 -2.7 C 2.69 g/m*3 -2.7 C 0 km/h
2174 27-12-2008 03:02:19 -2.7 C 2.69 g/m*3 -2.7 C 0 km/h
2175 27-12-2008 03:14:18 -2.7 C 2.69 g/m*3 -2.7 C 0 km/h
Sensor: Nr:Datum:Temp:Abs-Feuchte:Windchill:Wind:
Aussen-T/F 2176 27-12-2008 03:26:18 -2.7 C 2.65 g/m*3 -2.7 C 0 km/h
2177 27-12-2008 03:38:18 -2.7 C 2.65 g/m*3 -2.7 C 0 km/h
2178 27-12-2008 03:50:19 -2.8 C 2.67 g/m*3 -2.8 C 0 km/h
2179 27-12-2008 04:02:18 -2.7 C 2.65 g/m*3 -2.7 C 0 km/h
2180 27-12-2008 04:14:18 -2.5 C 2.69 g/m*3 -2.5 C 0 km/h
2181 27-12-2008 04:26:18 -2.5 C 2.65 g/m*3 -2.5 C 0 km/h
2182 27-12-2008 04:38:18 -2.5 C 2.65 g/m*3 -2.5 C 0 km/h
2183 27-12-2008 04:50:18 -2.5 C 2.65 g/m*3 -2.5 C 0 km/h
2184 27-12-2008 05:02:18 -2.5 C 2.65 g/m*3 -2.5 C 0 km/h
2185 27-12-2008 05:14:17 -2.4 C 2.62 g/m*3 -2.4 C 0 km/h
2186 27-12-2008 05:26:17 -2.3 C 2.64 g/m*3 -2.3 C 0 km/h
2187 27-12-2008 05:38:18 -2.3 C 2.6 g/m*3 -2.3 C 0 km/h
2188 27-12-2008 05:50:17 -2.3 C 2.56 g/m*3 -2.3 C 0 km/h
2189 27-12-2008 06:02:18 -2.3 C 2.6 g/m*3 -2.3 C 0 km/h
2190 27-12-2008 06:14:17 -2.3 C 2.6 g/m*3 -2.3 C 0 km/h
2191 27-12-2008 06:26:17 -2.3 C 2.6 g/m*3 -2.3 C 0 km/h
2192 27-12-2008 06:38:17 -2.3 C 2.56 g/m*3 -2.3 C 0 km/h
2193 27-12-2008 06:50:16 -2.3 C 2.56 g/m*3 -2.3 C 0 km/h
2194 27-12-2008 07:02:17 -2.4 C 2.54 g/m*3 -2.4 C 0 km/h
2195 27-12-2008 07:14:16 -2.3 C 2.52 g/m*3 -2.3 C 0 km/h
2196 27-12-2008 07:26:16 -2.3 C 2.52 g/m*3 -2.3 C 0 km/h
2197 27-12-2008 07:38:16 -2.1 C 2.6 g/m*3 -2.1 C 0 km/h
2198 27-12-2008 07:50:16 -2.3 C 2.56 g/m*3 -2.3 C 0 km/h
2199 27-12-2008 08:02:16 -2.4 C 2.54 g/m*3 -2.4 C 0 km/h
2200 27-12-2008 08:14:16 -2.4 C 2.54 g/m*3 -2.4 C 0 km/h
Sensor: Nr:Datum:Temp:Abs-Feuchte:Windchill:Wind:
Aussen-T/F 2201 27-12-2008 08:26:16 -2.4 C 2.54 g/m*3 -2.4 C 0 km/h
2202 27-12-2008 08:38:16 -2.3 C 2.56 g/m*3 -2.3 C 0 km/h
2203 27-12-2008 08:50:16 -2.1 C 2.55 g/m*3 -2.1 C 0 km/h
2204 27-12-2008 09:02:15 -2.1 C 2.55 g/m*3 -2.1 C 0 km/h
2205 27-12-2008 09:14:15 -2 C 2.53 g/m*3 -2 C 0 km/h
2206 27-12-2008 09:26:16 -2 C 2.49 g/m*3 -2 C 0 km/h
2207 27-12-2008 09:38:15 -1.9 C 2.46 g/m*3 -1.9 C 0 km/h
2208 27-12-2008 09:50:16 -1.7 C 2.5 g/m*3 -1.7 C 0 km/h
2209 27-12-2008 10:02:16 -1.7 C 2.45 g/m*3 -1.7 C 0 km/h
2210 27-12-2008 10:14:14 -1.6 C 2.47 g/m*3 -1.6 C 0 km/h
2211 27-12-2008 10:26:14 -1.4 C 2.46 g/m*3 -1.4 C 0 km/h
2212 27-12-2008 10:38:15 -1.3 C 2.43 g/m*3 -1.3 C 0 km/h
2213 27-12-2008 10:50:14 -1.2 C 2.45 g/m*3 -1.2 C 0 km/h
2214 27-12-2008 11:02:15 -1 C 2.49 g/m*3 -1 C 0 km/h
2215 27-12-2008 11:14:14 -1 C 2.49 g/m*3 -1 C 0 km/h
2216 27-12-2008 11:26:14 -0.8 C 2.48 g/m*3 -0.8 C 0 km/h
2217 27-12-2008 11:38:15 -0.6 C 2.51 g/m*3 -0.6 C 0 km/h
2218 27-12-2008 11:50:14 -0.6 C 2.46 g/m*3 -0.6 C 0 km/h
2219 27-12-2008 12:02:14 -0.6 C 2.42 g/m*3 -0.6 C 0 km/h
2220 27-12-2008 12:14:14 -0.4 C 2.45 g/m*3 -0.4 C 0 km/h
2221 27-12-2008 12:26:14 -0.2 C 2.48 g/m*3 -0.2 C 0 km/h
2222 27-12-2008 12:38:13 0 C 2.47 g/m*3 0 C 0 km/h
2223 27-12-2008 12:50:14 0 C 2.47 g/m*3 0 C 0 km/h
2224 27-12-2008 13:02:13 -0.1 C 2.41 g/m*3 -0.1 C 0 km/h
2225 27-12-2008 13:14:13 -0.2 C 2.44 g/m*3 -0.2 C 0 km/h
Sensor: Nr:Datum:Temp:Abs-Feuchte:Windchill:Wind:
Aussen-T/F 2226 27-12-2008 13:26:13 -0.3 C 2.42 g/m*3 -0.3 C 0 km/h
2227 27-12-2008 13:38:13 -0.4 C 2.4 g/m*3 -0.4 C 0 km/h
2228 27-12-2008 13:50:13 -0.5 C 2.39 g/m*3 -0.5 C 0 km/h
2229 27-12-2008 14:02:13 -0.6 C 2.37 g/m*3 -0.6 C 0 km/h
2230 27-12-2008 14:14:12 -0.7 C 2.35 g/m*3 -0.7 C 0 km/h
2231 27-12-2008 14:26:12 -0.7 C 2.4 g/m*3 -0.7 C 0 km/h
2232 27-12-2008 14:38:13 -0.7 C 2.4 g/m*3 -0.7 C 0 km/h
2233 27-12-2008 14:50:12 -0.8 C 2.38 g/m*3 -0.8 C 0 km/h
2234 27-12-2008 15:02:12 -0.7 C 2.45 g/m*3 -0.7 C 0 km/h
2235 27-12-2008 15:14:12 -0.6 C 2.46 g/m*3 -0.6 C 0 km/h
2236 27-12-2008 15:26:12 -0.6 C 2.46 g/m*3 -0.6 C 0 km/h
2237 27-12-2008 15:38:12 -0.8 C 2.43 g/m*3 -0.8 C 0 km/h
2238 27-12-2008 15:50:11 -0.9 C 2.46 g/m*3 -0.9 C 0 km/h
2239 27-12-2008 16:02:12 -1 C 2.49 g/m*3 -1 C 0 km/h
2240 27-12-2008 16:14:12 -1.1 C 2.47 g/m*3 -1.1 C 0 km/h
2241 27-12-2008 16:26:12 -1.1 C 2.47 g/m*3 -1.1 C 0 km/h
2242 27-12-2008 16:38:11 -1.2 C 2.45 g/m*3 -1.2 C 0 km/h
2243 27-12-2008 16:50:12 -1.3 C 2.43 g/m*3 -1.3 C 0 km/h
2244 27-12-2008 17:02:11 -1.3 C 2.48 g/m*3 -1.3 C 0 km/h
2245 27-12-2008 17:14:11 -1.2 C 2.5 g/m*3 -1.2 C 0 km/h
2246 27-12-2008 17:26:11 -1.2 C 2.5 g/m*3 -1.2 C 0 km/h
2247 27-12-2008 17:38:11 -1.3 C 2.48 g/m*3 -1.3 C 0 km/h
2248 27-12-2008 17:50:37 -1.4 C 2.51 g/m*3 -1.4 C 0 km/h
2249 27-12-2008 18:02:37 -1.4 C 2.51 g/m*3 -1.4 C 0 km/h
2250 27-12-2008 18:14:38 -1.4 C 2.51 g/m*3 -1.4 C 0 km/h
Sensor: Nr:Datum:Temp:Abs-Feuchte:Windchill:Wind:
Aussen-T/F 2251 27-12-2008 18:26:38 -1.4 C 2.51 g/m*3 -1.4 C 0 km/h
2252 27-12-2008 18:38:38 -1.4 C 2.51 g/m*3 -1.4 C 0 km/h
2253 27-12-2008 18:50:38 -1.4 C 2.51 g/m*3 -1.4 C 0 km/h
2254 27-12-2008 19:02:38 -1.4 C 2.55 g/m*3 -1.4 C 0 km/h
2255 27-12-2008 19:14:38 -1.5 C 2.53 g/m*3 -1.5 C 0 km/h
2256 27-12-2008 19:26:02 -1.6 C 2.51 g/m*3 -1.6 C 0 km/h
2257 27-12-2008 19:38:01 -1.6 C 2.56 g/m*3 -1.6 C 0 km/h
2258 27-12-2008 19:50:01 -1.6 C 2.56 g/m*3 -1.6 C 0 km/h
2259 27-12-2008 20:02:01 -1.6 C 2.6 g/m*3 -1.6 C 0 km/h
2260 27-12-2008 20:14:01 -1.6 C 2.6 g/m*3 -1.6 C 0 km/h
2261 27-12-2008 20:26:00 -1.8 C 2.56 g/m*3 -1.8 C 0 km/h
2262 27-12-2008 20:38:00 -1.9 C 2.59 g/m*3 -1.9 C 0 km/h
2263 27-12-2008 20:50:00 -2 C 2.57 g/m*3 -2 C 0 km/h
2264 27-12-2008 21:02:00 -1.9 C 2.59 g/m*3 -1.9 C 0 km/h
2265 27-12-2008 21:14:00 -2 C 2.57 g/m*3 -2 C 0 km/h
2266 27-12-2008 21:26:00 -2.1 C 2.6 g/m*3 -2.1 C 0 km/h
2267 27-12-2008 21:38:00 -2.2 C 2.62 g/m*3 -2.2 C 0 km/h
2268 27-12-2008 21:50:00 -2.2 C 2.58 g/m*3 -2.2 C 0 km/h
2269 27-12-2008 22:02:59 -2.3 C 2.6 g/m*3 -2.3 C 0 km/h
2270 27-12-2008 22:14:00 -2.4 C 2.58 g/m*3 -2.4 C 0 km/h
2271 27-12-2008 22:26:00 -2.5 C 2.56 g/m*3 -2.5 C 0 km/h
2272 27-12-2008 22:38:59 -2.7 C 2.57 g/m*3 -2.7 C 0 km/h
2273 27-12-2008 22:50:59 -2.8 C 2.59 g/m*3 -2.8 C 0 km/h
2274 27-12-2008 23:02:00 -2.9 C 2.57 g/m*3 -2.9 C 0 km/h
2275 27-12-2008 23:14:00 -3 C 2.55 g/m*3 -3 C 0 km/h
Sensor: Nr:Datum:Temp:Abs-Feuchte:Windchill:Wind:
Aussen-T/F 2276 27-12-2008 23:26:59 -3.1 C 2.57 g/m*3 -3.1 C 0 km/h
2277 27-12-2008 23:38:59 -3.2 C 2.56 g/m*3 -3.2 C 0 km/h
2278 27-12-2008 23:50:59 -3.3 C 2.58 g/m*3 -3.3 C 0 km/h
2279 28-12-2008 00:02:59 -3.2 C 2.59 g/m*3 -3.2 C 0 km/h
2280 28-12-2008 00:14:59 -3.2 C 2.59 g/m*3 -3.2 C 0 km/h
2281 28-12-2008 00:26:59 -3.1 C 2.57 g/m*3 -3.1 C 0 km/h
2282 28-12-2008 00:38:58 -3.1 C 2.57 g/m*3 -3.1 C 0 km/h
2283 28-12-2008 00:50:59 -3 C 2.55 g/m*3 -3 C 0 km/h
2284 28-12-2008 01:02:58 -3 C 2.55 g/m*3 -3 C 0 km/h
2285 28-12-2008 01:14:58 -3.1 C 2.54 g/m*3 -3.1 C 0 km/h
2286 28-12-2008 01:26:58 -3.1 C 2.54 g/m*3 -3.1 C 0 km/h
2287 28-12-2008 01:38:57 -3.1 C 2.54 g/m*3 -3.1 C 0 km/h
2288 28-12-2008 01:50:58 -3.4 C 2.48 g/m*3 -3.4 C 0 km/h
2289 28-12-2008 02:02:57 -3.5 C 2.5 g/m*3 -3.5 C 0 km/h
2290 28-12-2008 02:14:57 -3.7 C 2.47 g/m*3 -3.7 C 0 km/h
2291 28-12-2008 02:26:57 -3.7 C 2.5 g/m*3 -3.7 C 0 km/h
2292 28-12-2008 02:38:57 -3.5 C 2.54 g/m*3 -3.5 C 0 km/h
2293 28-12-2008 02:51:58 -3.4 C 2.56 g/m*3 -3.4 C 0 km/h
2294 28-12-2008 03:03:58 -3.7 C 2.5 g/m*3 -3.7 C 0 km/h
2295 28-12-2008 03:15:58 -3.6 C 2.56 g/m*3 -3.6 C 0 km/h
2296 28-12-2008 03:27:58 -3.5 C 2.58 g/m*3 -3.5 C 0 km/h
2297 28-12-2008 03:39:58 -3.3 C 2.61 g/m*3 -3.3 C 0 km/h
2298 28-12-2008 03:51:58 -3.3 C 2.58 g/m*3 -3.3 C 0 km/h
2299 28-12-2008 04:03:58 -3.1 C 2.57 g/m*3 -3.1 C 0 km/h
2300 28-12-2008 04:15:58 -3.1 C 2.54 g/m*3 -3.1 C 0 km/h
Sensor: Nr:Datum:Temp:Abs-Feuchte:Windchill:Wind:
Aussen-T/F 2301 28-12-2008 04:27:58 -3 C 2.55 g/m*3 -3 C 0 km/h
2302 28-12-2008 04:39:58 -2.8 C 2.55 g/m*3 -2.8 C 0 km/h
2303 28-12-2008 04:51:58 -2.6 C 2.55 g/m*3 -2.6 C 0 km/h
2304 28-12-2008 05:03:57 -2.6 C 2.51 g/m*3 -2.6 C 0 km/h
2305 28-12-2008 05:15:57 -2.5 C 2.52 g/m*3 -2.5 C 0 km/h
2306 28-12-2008 05:27:57 -2.4 C 2.5 g/m*3 -2.4 C 0 km/h
2307 28-12-2008 05:39:57 -2.4 C 2.5 g/m*3 -2.4 C 0 km/h
2308 28-12-2008 05:51:56 -2.5 C 2.48 g/m*3 -2.5 C 0 km/h
2309 28-12-2008 06:03:57 -2.5 C 2.48 g/m*3 -2.5 C 0 km/h
2310 28-12-2008 06:15:57 -2.7 C 2.45 g/m*3 -2.7 C 0 km/h
2311 28-12-2008 06:27:57 -2.7 C 2.45 g/m*3 -2.7 C 0 km/h
2312 28-12-2008 06:39:56 -2.8 C 2.47 g/m*3 -2.8 C 0 km/h
2313 28-12-2008 06:51:57 -2.7 C 2.45 g/m*3 -2.7 C 0 km/h
2314 28-12-2008 07:03:56 -2.5 C 2.48 g/m*3 -2.5 C 0 km/h
2315 28-12-2008 07:15:56 -2.7 C 2.45 g/m*3 -2.7 C 0 km/h
2316 28-12-2008 07:27:56 -2.8 C 2.43 g/m*3 -2.8 C 0 km/h
2317 28-12-2008 07:39:56 -3.1 C 2.38 g/m*3 -3.1 C 0 km/h
2318 28-12-2008 07:51:56 -3.5 C 2.35 g/m*3 -3.5 C 0 km/h
2319 28-12-2008 08:03:55 -3.7 C 2.43 g/m*3 -3.7 C 0 km/h
2320 28-12-2008 08:15:55 -4 C 2.38 g/m*3 -4 C 0 km/h
2321 28-12-2008 08:27:55 -4.1 C 2.43 g/m*3 -4.1 C 0 km/h
2322 28-12-2008 08:39:55 -4.2 C 2.45 g/m*3 -4.2 C 0 km/h
2323 28-12-2008 08:51:55 -4.3 C 2.43 g/m*3 -4.3 C 0 km/h
2324 28-12-2008 09:03:55 -4.2 C 2.49 g/m*3 -4.2 C 0 km/h
2325 28-12-2008 09:15:55 -4.2 C 2.49 g/m*3 -4.2 C 0 km/h
Sensor: Nr:Datum:Temp:Abs-Feuchte:Windchill:Wind:
Aussen-T/F 2326 28-12-2008 09:27:55 -4.1 C 2.51 g/m*3 -4.1 C 0 km/h
2327 28-12-2008 09:39:55 -4.1 C 2.51 g/m*3 -4.1 C 0 km/h
2328 28-12-2008 09:51:54 -3.9 C 2.54 g/m*3 -3.9 C 0 km/h
2329 28-12-2008 10:03:55 -3.5 C 2.58 g/m*3 -3.5 C 0 km/h
2330 28-12-2008 10:15:54 -3.2 C 2.56 g/m*3 -3.2 C 0 km/h
2331 28-12-2008 10:27:54 -2.9 C 2.53 g/m*3 -2.9 C 0 km/h
2332 28-12-2008 10:39:54 -2.8 C 2.51 g/m*3 -2.8 C 0 km/h
2333 28-12-2008 10:51:54 -2.7 C 2.49 g/m*3 -2.7 C 0 km/h
2334 28-12-2008 11:03:54 -2.7 C 2.49 g/m*3 -2.7 C 0 km/h
2335 28-12-2008 11:15:54 -2.5 C 2.48 g/m*3 -2.5 C 0 km/h
2336 28-12-2008 11:27:54 -2.4 C 2.5 g/m*3 -2.4 C 0 km/h
2337 28-12-2008 11:39:53 -2.4 C 2.5 g/m*3 -2.4 C 0 km/h
2338 28-12-2008 11:51:54 -2 C 2.53 g/m*3 -2 C 0 km/h
2339 28-12-2008 12:03:53 -2 C 2.53 g/m*3 -2 C 0 km/h
2340 28-12-2008 12:15:53 -1.9 C 2.5 g/m*3 -1.9 C 0 km/h
2341 28-12-2008 12:27:53 -1.8 C 2.48 g/m*3 -1.8 C 0 km/h
2342 28-12-2008 12:39:53 -1.7 C 2.5 g/m*3 -1.7 C 0 km/h
2343 28-12-2008 12:51:53 -1.4 C 2.51 g/m*3 -1.4 C 0 km/h
2344 28-12-2008 13:03:52 -1.4 C 2.51 g/m*3 -1.4 C 0 km/h
2345 28-12-2008 13:15:53 -1.3 C 2.48 g/m*3 -1.3 C 0 km/h
2346 28-12-2008 13:27:53 -1.3 C 2.48 g/m*3 -1.3 C 0 km/h
2347 28-12-2008 13:39:53 -1.2 C 2.5 g/m*3 -1.2 C 0 km/h
2348 28-12-2008 13:51:52 -1.1 C 2.51 g/m*3 -1.1 C 0 km/h
2349 28-12-2008 14:03:53 -1.1 C 2.47 g/m*3 -1.1 C 0 km/h
2350 28-12-2008 14:15:52 -1.1 C 2.47 g/m*3 -1.1 C 0 km/h
Sensor: Nr:Datum:Temp:Abs-Feuchte:Windchill:Wind:
Aussen-T/F 2351 28-12-2008 14:27:52 -1.1 C 2.51 g/m*3 -1.1 C 0 km/h
2352 28-12-2008 14:39:52 -1.2 C 2.5 g/m*3 -1.2 C 0 km/h
2353 28-12-2008 14:51:52 -1.5 C 2.53 g/m*3 -1.5 C 0 km/h
2354 28-12-2008 15:03:52 -1.4 C 2.55 g/m*3 -1.4 C 0 km/h
2355 28-12-2008 15:15:51 -1.4 C 2.51 g/m*3 -1.4 C 0 km/h
2356 28-12-2008 15:27:51 -1.3 C 2.52 g/m*3 -1.3 C 0 km/h
2357 28-12-2008 15:39:51 -1.2 C 2.54 g/m*3 -1.2 C 0 km/h
2358 28-12-2008 15:51:51 -1.3 C 2.52 g/m*3 -1.3 C 0 km/h
2359 28-12-2008 16:03:51 -1.6 C 2.51 g/m*3 -1.6 C 0 km/h
2360 28-12-2008 16:15:51 -1.6 C 2.47 g/m*3 -1.6 C 0 km/h
2361 28-12-2008 16:27:51 -1.9 C 2.46 g/m*3 -1.9 C 0 km/h
2362 28-12-2008 16:39:51 -2.4 C 2.42 g/m*3 -2.4 C 0 km/h
2363 28-12-2008 16:51:51 -2.2 C 2.49 g/m*3 -2.2 C 0 km/h
2364 28-12-2008 17:03:50 -2.5 C 2.48 g/m*3 -2.5 C 0 km/h
2365 28-12-2008 17:15:51 -2.7 C 2.49 g/m*3 -2.7 C 0 km/h
2366 28-12-2008 17:27:51 -2.8 C 2.51 g/m*3 -2.8 C 0 km/h
2367 28-12-2008 17:39:50 -2.9 C 2.53 g/m*3 -2.9 C 0 km/h
2368 28-12-2008 17:51:50 -3.1 C 2.54 g/m*3 -3.1 C 0 km/h
2369 28-12-2008 18:03:50 -3.2 C 2.52 g/m*3 -3.2 C 0 km/h
2370 28-12-2008 18:15:50 -3.3 C 2.54 g/m*3 -3.3 C 0 km/h
2371 28-12-2008 18:27:50 -3.3 C 2.58 g/m*3 -3.3 C 0 km/h
2372 28-12-2008 18:39:50 -3.3 C 2.58 g/m*3 -3.3 C 0 km/h
2373 28-12-2008 18:51:49 -3.3 C 2.58 g/m*3 -3.3 C 0 km/h
2374 28-12-2008 19:03:50 -3.5 C 2.54 g/m*3 -3.5 C 0 km/h
2375 28-12-2008 19:15:50 -3.5 C 2.58 g/m*3 -3.5 C 0 km/h
Sensor: Nr:Datum:Temp:Abs-Feuchte:Windchill:Wind:
Aussen-T/F 2376 28-12-2008 19:27:50 -3.4 C 2.6 g/m*3 -3.4 C 0 km/h
2377 28-12-2008 19:39:49 -3.6 C 2.56 g/m*3 -3.6 C 0 km/h
2378 28-12-2008 19:51:49 -3.4 C 2.6 g/m*3 -3.4 C 0 km/h
2379 28-12-2008 20:03:49 -3.5 C 2.58 g/m*3 -3.5 C 0 km/h
2380 28-12-2008 20:15:49 -3.7 C 2.58 g/m*3 -3.7 C 0 km/h
2381 28-12-2008 20:27:49 -3.9 C 2.54 g/m*3 -3.9 C 0 km/h
2382 28-12-2008 20:39:48 -4 C 2.56 g/m*3 -4 C 0 km/h
2383 28-12-2008 20:51:49 -3.9 C 2.62 g/m*3 -3.9 C 0 km/h
2384 28-12-2008 21:03:48 -4 C 2.6 g/m*3 -4 C 0 km/h
2385 28-12-2008 21:15:48 -4.1 C 2.58 g/m*3 -4.1 C 0 km/h
2386 28-12-2008 21:27:48 -4.3 C 2.54 g/m*3 -4.3 C 0 km/h
2387 28-12-2008 21:39:48 -4.4 C 2.56 g/m*3 -4.4 C 0 km/h
2388 28-12-2008 21:51:48 -4.5 C 2.58 g/m*3 -4.5 C 0 km/h
2389 28-12-2008 22:03:47 -4.5 C 2.61 g/m*3 -4.5 C 0 km/h
2390 28-12-2008 22:15:47 -4.6 C 2.59 g/m*3 -4.6 C 0 km/h
2391 28-12-2008 22:27:47 -4.6 C 2.59 g/m*3 -4.6 C 0 km/h
2392 28-12-2008 22:39:48 -4.8 C 2.59 g/m*3 -4.8 C 0 km/h
2393 28-12-2008 22:51:47 -4.8 C 2.59 g/m*3 -4.8 C 0 km/h
2394 28-12-2008 23:03:47 -4.8 C 2.59 g/m*3 -4.8 C 0 km/h
2395 28-12-2008 23:15:47 -5.1 C 2.54 g/m*3 -5.1 C 0 km/h
2396 28-12-2008 23:27:47 -5.2 C 2.55 g/m*3 -5.2 C 0 km/h
2397 28-12-2008 23:39:47 -5 C 2.59 g/m*3 -5 C 0 km/h
2398 28-12-2008 23:51:46 -5.2 C 2.58 g/m*3 -5.2 C 0 km/h
2399 29-12-2008 00:03:47 -5.2 C 2.58 g/m*3 -5.2 C 0 km/h
2400 29-12-2008 00:15:46 -5.3 C 2.57 g/m*3 -5.3 C 0 km/h
Sensor: Nr:Datum:Temp:Abs-Feuchte:Windchill:Wind:
Aussen-T/F 2401 29-12-2008 00:27:46 -5.2 C 2.58 g/m*3 -5.2 C 0 km/h
2402 29-12-2008 00:39:46 -5.3 C 2.57 g/m*3 -5.3 C 0 km/h
2403 29-12-2008 00:51:46 -5.3 C 2.57 g/m*3 -5.3 C 0 km/h
2404 29-12-2008 01:03:46 -5.5 C 2.53 g/m*3 -5.5 C 0 km/h
2405 29-12-2008 01:15:45 -5.5 C 2.53 g/m*3 -5.5 C 0 km/h
2406 29-12-2008 01:27:45 -5.6 C 2.54 g/m*3 -5.6 C 0 km/h
2407 29-12-2008 01:39:46 -5.7 C 2.52 g/m*3 -5.7 C 0 km/h
2408 29-12-2008 01:51:45 -5.8 C 2.51 g/m*3 -5.8 C 0 km/h
2409 29-12-2008 02:03:45 -5.7 C 2.56 g/m*3 -5.7 C 0 km/h
2410 29-12-2008 02:15:46 -5.7 C 2.56 g/m*3 -5.7 C 0 km/h
2411 29-12-2008 02:27:46 -6 C 2.5 g/m*3 -6 C 0 km/h
2412 29-12-2008 02:39:45 -6.1 C 2.48 g/m*3 -6.1 C 0 km/h
2413 29-12-2008 02:52:47 -6.2 C 2.47 g/m*3 -6.2 C 0 km/h
2414 29-12-2008 03:04:47 -6.2 C 2.5 g/m*3 -6.2 C 0 km/h
2415 29-12-2008 03:16:47 -6.2 C 2.5 g/m*3 -6.2 C 0 km/h
2416 29-12-2008 03:28:47 -6.1 C 2.55 g/m*3 -6.1 C 0 km/h
2417 29-12-2008 03:40:46 -6.2 C 2.53 g/m*3 -6.2 C 0 km/h
2418 29-12-2008 03:52:46 -6.2 C 2.53 g/m*3 -6.2 C 0 km/h
2419 29-12-2008 04:04:46 -6.2 C 2.53 g/m*3 -6.2 C 0 km/h
2420 29-12-2008 04:16:47 -6.4 C 2.49 g/m*3 -6.4 C 0 km/h
2421 29-12-2008 04:28:47 -6.4 C 2.49 g/m*3 -6.4 C 0 km/h
2422 29-12-2008 04:40:46 -6.4 C 2.52 g/m*3 -6.4 C 0 km/h
2423 29-12-2008 04:52:46 -6.5 C 2.5 g/m*3 -6.5 C 0 km/h
2424 29-12-2008 05:04:46 -6.5 C 2.5 g/m*3 -6.5 C 0 km/h
2425 29-12-2008 05:16:45 -6.7 C 2.47 g/m*3 -6.7 C 0 km/h
Sensor: Nr:Datum:Temp:Abs-Feuchte:Windchill:Wind:
Aussen-T/F 2426 29-12-2008 05:28:45 -6.8 C 2.45 g/m*3 -6.8 C 0 km/h
2427 29-12-2008 05:40:46 -6.9 C 2.43 g/m*3 -6.9 C 0 km/h
2428 29-12-2008 05:52:46 -6.9 C 2.43 g/m*3 -6.9 C 0 km/h
2429 29-12-2008 06:04:45 -7.1 C 2.4 g/m*3 -7.1 C 0 km/h
2430 29-12-2008 06:16:45 -7.1 C 2.4 g/m*3 -7.1 C 0 km/h
2431 29-12-2008 06:28:46 -6.9 C 2.46 g/m*3 -6.9 C 0 km/h
2432 29-12-2008 06:40:44 -7 C 2.44 g/m*3 -7 C 0 km/h
2433 29-12-2008 06:52:45 -7.1 C 2.43 g/m*3 -7.1 C 0 km/h
2434 29-12-2008 07:04:44 -7.2 C 2.41 g/m*3 -7.2 C 0 km/h
2435 29-12-2008 07:16:44 -7.3 C 2.39 g/m*3 -7.3 C 0 km/h
2436 29-12-2008 07:28:44 -7.4 C 2.37 g/m*3 -7.4 C 0 km/h
2437 29-12-2008 07:40:45 -7.7 C 2.32 g/m*3 -7.7 C 0 km/h
2438 29-12-2008 07:52:44 -7.8 C 2.3 g/m*3 -7.8 C 0 km/h
2439 29-12-2008 08:04:44 -7.7 C 2.32 g/m*3 -7.7 C 0 km/h
2440 29-12-2008 08:16:44 -7.6 C 2.37 g/m*3 -7.6 C 0 km/h
2441 29-12-2008 08:28:44 -7.7 C 2.35 g/m*3 -7.7 C 0 km/h
2442 29-12-2008 08:40:44 -7.7 C 2.35 g/m*3 -7.7 C 0 km/h
2443 29-12-2008 08:52:44 -7.8 C 2.33 g/m*3 -7.8 C 0 km/h
2444 29-12-2008 09:04:43 -7.9 C 2.31 g/m*3 -7.9 C 0 km/h
2445 29-12-2008 09:16:44 -7.7 C 2.35 g/m*3 -7.7 C 0 km/h
2446 29-12-2008 09:28:44 -7.6 C 2.39 g/m*3 -7.6 C 0 km/h
2447 29-12-2008 09:40:43 -7.5 C 2.41 g/m*3 -7.5 C 0 km/h
2448 29-12-2008 09:52:43 -7.4 C 2.43 g/m*3 -7.4 C 0 km/h
2449 29-12-2008 10:04:43 -7.2 C 2.47 g/m*3 -7.2 C 0 km/h
2450 29-12-2008 10:16:43 -7 C 2.5 g/m*3 -7 C 0 km/h
Sensor: Nr:Datum:Temp:Abs-Feuchte:Windchill:Wind:
Aussen-T/F 2451 29-12-2008 10:28:43 -6.9 C 2.52 g/m*3 -6.9 C 0 km/h
2452 29-12-2008 10:40:42 -6.6 C 2.61 g/m*3 -6.6 C 0 km/h
2453 29-12-2008 10:52:42 -6.3 C 2.66 g/m*3 -6.3 C 0 km/h
2454 29-12-2008 11:04:43 -6.2 C 2.68 g/m*3 -6.2 C 0 km/h
2455 29-12-2008 11:16:42 -6.1 C 2.7 g/m*3 -6.1 C 0 km/h
2456 29-12-2008 11:28:42 -5.7 C 2.78 g/m*3 -5.7 C 0 km/h
2457 29-12-2008 11:40:42 -5.5 C 2.82 g/m*3 -5.5 C 0 km/h
2458 29-12-2008 11:52:42 -5.3 C 2.87 g/m*3 -5.3 C 0 km/h
2459 29-12-2008 12:04:41 -5.1 C 2.87 g/m*3 -5.1 C 0 km/h
2460 29-12-2008 12:16:42 -4.9 C 2.92 g/m*3 -4.9 C 0 km/h
2461 29-12-2008 12:28:42 -4.7 C 2.92 g/m*3 -4.7 C 0 km/h
2462 29-12-2008 12:40:42 -4.5 C 2.93 g/m*3 -4.5 C 0 km/h
2463 29-12-2008 12:52:41 -4.3 C 2.9 g/m*3 -4.3 C 0 km/h
2464 29-12-2008 13:04:42 -4 C 2.89 g/m*3 -4 C 0 km/h
2465 29-12-2008 13:16:41 -3.8 C 2.89 g/m*3 -3.8 C 0 km/h
2466 29-12-2008 13:28:41 -3.6 C 2.86 g/m*3 -3.6 C 0 km/h
2467 29-12-2008 13:40:41 -3.4 C 2.83 g/m*3 -3.4 C 0 km/h
2468 29-12-2008 13:52:41 -3.1 C 2.85 g/m*3 -3.1 C 0 km/h
2469 29-12-2008 14:04:41 -3 C 2.79 g/m*3 -3 C 0 km/h
2470 29-12-2008 14:16:40 -2.9 C 2.81 g/m*3 -2.9 C 0 km/h
2471 29-12-2008 14:28:40 -2.7 C 2.81 g/m*3 -2.7 C 0 km/h
2472 29-12-2008 14:40:41 -2.7 C 2.77 g/m*3 -2.7 C 0 km/h
2473 29-12-2008 14:52:41 -2.8 C 2.75 g/m*3 -2.8 C 0 km/h
2474 29-12-2008 15:04:40 -2.7 C 2.77 g/m*3 -2.7 C 0 km/h
2475 29-12-2008 15:16:40 -2.6 C 2.79 g/m*3 -2.6 C 0 km/h
Sensor: Nr:Datum:Temp:Abs-Feuchte:Windchill:Wind:
Aussen-T/F 2476 29-12-2008 15:28:40 -2.8 C 2.75 g/m*3 -2.8 C 0 km/h
2477 29-12-2008 15:40:40 -2.8 C 2.79 g/m*3 -2.8 C 0 km/h
2478 29-12-2008 15:52:40 -3 C 2.75 g/m*3 -3 C 0 km/h
2479 29-12-2008 16:04:40 -3 C 2.79 g/m*3 -3 C 0 km/h
2480 29-12-2008 16:16:39 -3.1 C 2.81 g/m*3 -3.1 C 0 km/h
2481 29-12-2008 16:28:39 -3.3 C 2.77 g/m*3 -3.3 C 0 km/h
2482 29-12-2008 16:40:38 -3.4 C 2.79 g/m*3 -3.4 C 0 km/h
2483 29-12-2008 16:52:38 -3.5 C 2.77 g/m*3 -3.5 C 0 km/h
2484 29-12-2008 17:04:38 -3.5 C 2.77 g/m*3 -3.5 C 0 km/h
2485 29-12-2008 17:16:38 -3.7 C 2.73 g/m*3 -3.7 C 0 km/h
2486 29-12-2008 17:28:38 -3.9 C 2.69 g/m*3 -3.9 C 0 km/h
2487 29-12-2008 17:40:38 -4 C 2.71 g/m*3 -4 C 0 km/h
2488 29-12-2008 17:52:38 -4 C 2.74 g/m*3 -4 C 0 km/h
2489 29-12-2008 18:04:38 -4.1 C 2.76 g/m*3 -4.1 C 0 km/h
2490 29-12-2008 18:16:38 -4.3 C 2.72 g/m*3 -4.3 C 0 km/h
2491 29-12-2008 18:28:38 -4.2 C 2.74 g/m*3 -4.2 C 0 km/h
2492 29-12-2008 18:40:37 -4.2 C 2.74 g/m*3 -4.2 C 0 km/h
2493 29-12-2008 18:52:37 -4.4 C 2.7 g/m*3 -4.4 C 0 km/h
2494 29-12-2008 19:04:37 -4.5 C 2.68 g/m*3 -4.5 C 0 km/h
2495 29-12-2008 19:16:37 -4.6 C 2.7 g/m*3 -4.6 C 0 km/h
2496 29-12-2008 19:28:37 -4.7 C 2.68 g/m*3 -4.7 C 0 km/h
2497 29-12-2008 19:40:37 -4.9 C 2.64 g/m*3 -4.9 C 0 km/h
2498 29-12-2008 19:52:37 -4.9 C 2.68 g/m*3 -4.9 C 0 km/h
2499 29-12-2008 20:04:37 -4.9 C 2.68 g/m*3 -4.9 C 0 km/h
2500 29-12-2008 20:16:36 -5.2 C 2.62 g/m*3 -5.2 C 0 km/h
Sensor: Nr:Datum:Temp:Abs-Feuchte:Windchill:Wind:
Aussen-T/F 2501 29-12-2008 20:28:36 -5.2 C 2.65 g/m*3 -5.2 C 0 km/h
2502 29-12-2008 20:40:37 -5.3 C 2.63 g/m*3 -5.3 C 0 km/h
2503 29-12-2008 20:52:36 -5.4 C 2.61 g/m*3 -5.4 C 0 km/h
2504 29-12-2008 21:04:36 -5.5 C 2.59 g/m*3 -5.5 C 0 km/h
2505 29-12-2008 21:16:36 -5.6 C 2.61 g/m*3 -5.6 C 0 km/h
2506 29-12-2008 21:28:36 -5.8 C 2.57 g/m*3 -5.8 C 0 km/h
2507 29-12-2008 21:40:36 -5.9 C 2.55 g/m*3 -5.9 C 0 km/h
2508 29-12-2008 21:53:37 -6 C 2.53 g/m*3 -6 C 0 km/h
2509 29-12-2008 22:05:37 -6 C 2.53 g/m*3 -6 C 0 km/h
2510 29-12-2008 22:17:37 -6 C 2.57 g/m*3 -6 C 0 km/h
2511 29-12-2008 22:29:37 -6.1 C 2.55 g/m*3 -6.1 C 0 km/h
2512 29-12-2008 22:41:37 -6 C 2.6 g/m*3 -6 C 0 km/h
2513 29-12-2008 22:53:37 -6.1 C 2.58 g/m*3 -6.1 C 0 km/h
2514 29-12-2008 23:05:38 -6.3 C 2.54 g/m*3 -6.3 C 0 km/h
2515 29-12-2008 23:17:38 -6.4 C 2.52 g/m*3 -6.4 C 0 km/h
2516 29-12-2008 23:29:38 -6.4 C 2.52 g/m*3 -6.4 C 0 km/h
2517 29-12-2008 23:41:38 -6.6 C 2.49 g/m*3 -6.6 C 0 km/h
2518 29-12-2008 23:53:38 -6.8 C 2.45 g/m*3 -6.8 C 0 km/h
2519 30-12-2008 00:05:38 -6.9 C 2.43 g/m*3 -6.9 C 0 km/h
2520 30-12-2008 00:17:38 -6.9 C 2.46 g/m*3 -6.9 C 0 km/h
2521 30-12-2008 00:29:38 -7 C 2.44 g/m*3 -7 C 0 km/h
2522 30-12-2008 00:41:38 -6.8 C 2.51 g/m*3 -6.8 C 0 km/h
2523 30-12-2008 00:53:38 -6.9 C 2.49 g/m*3 -6.9 C 0 km/h
2524 30-12-2008 01:05:38 -7 C 2.47 g/m*3 -7 C 0 km/h
2525 30-12-2008 01:17:38 -7.2 C 2.44 g/m*3 -7.2 C 0 km/h
Sensor: Nr:Datum:Temp:Abs-Feuchte:Windchill:Wind:
Aussen-T/F 2526 30-12-2008 01:29:38 -7.1 C 2.45 g/m*3 -7.1 C 0 km/h
2527 30-12-2008 01:41:38 -7.2 C 2.44 g/m*3 -7.2 C 0 km/h
2528 30-12-2008 01:53:38 -7.2 C 2.44 g/m*3 -7.2 C 0 km/h
2529 30-12-2008 02:05:38 -7.3 C 2.42 g/m*3 -7.3 C 0 km/h
2530 30-12-2008 02:17:38 -7.2 C 2.47 g/m*3 -7.2 C 0 km/h
2531 30-12-2008 02:29:38 -7.3 C 2.45 g/m*3 -7.3 C 0 km/h
2532 30-12-2008 02:41:38 -7.5 C 2.41 g/m*3 -7.5 C 0 km/h
2533 30-12-2008 02:53:39 -7.7 C 2.38 g/m*3 -7.7 C 0 km/h
2534 30-12-2008 03:05:39 -7.7 C 2.38 g/m*3 -7.7 C 0 km/h
2535 30-12-2008 03:17:39 -7.5 C 2.41 g/m*3 -7.5 C 0 km/h
2536 30-12-2008 03:29:39 -7.7 C 2.38 g/m*3 -7.7 C 0 km/h
2537 30-12-2008 03:41:39 -7.8 C 2.36 g/m*3 -7.8 C 0 km/h
2538 30-12-2008 03:53:39 -7.9 C 2.34 g/m*3 -7.9 C 0 km/h
2539 30-12-2008 04:05:39 -8 C 2.32 g/m*3 -8 C 0 km/h
2540 30-12-2008 04:17:39 -8 C 2.32 g/m*3 -8 C 0 km/h
2541 30-12-2008 04:29:39 -8.1 C 2.31 g/m*3 -8.1 C 0 km/h
2542 30-12-2008 04:41:39 -8.2 C 2.29 g/m*3 -8.2 C 0 km/h
2543 30-12-2008 04:53:39 -8.1 C 2.31 g/m*3 -8.1 C 0 km/h
2544 30-12-2008 05:05:39 -8.2 C 2.29 g/m*3 -8.2 C 0 km/h
2545 30-12-2008 05:17:39 -8.2 C 2.26 g/m*3 -8.2 C 0 km/h
2546 30-12-2008 05:29:39 -8.3 C 2.25 g/m*3 -8.3 C 0 km/h
2547 30-12-2008 05:41:39 -8.3 C 2.22 g/m*3 -8.3 C 0 km/h
2548 30-12-2008 05:53:39 -8.3 C 2.22 g/m*3 -8.3 C 0 km/h
2549 30-12-2008 06:05:39 -8.3 C 2.22 g/m*3 -8.3 C 0 km/h
2550 30-12-2008 06:17:39 -8.4 C 2.2 g/m*3 -8.4 C 0 km/h
Sensor: Nr:Datum:Temp:Abs-Feuchte:Windchill:Wind:
Aussen-T/F 2551 30-12-2008 06:29:39 -8.4 C 2.18 g/m*3 -8.4 C 0 km/h
2552 30-12-2008 06:41:39 -8.4 C 2.18 g/m*3 -8.4 C 0 km/h
2553 30-12-2008 06:53:40 -8.3 C 2.19 g/m*3 -8.3 C 0 km/h
2554 30-12-2008 07:05:40 -8.4 C 2.15 g/m*3 -8.4 C 0 km/h
2555 30-12-2008 07:17:40 -8.2 C 2.21 g/m*3 -8.2 C 0 km/h
2556 30-12-2008 07:29:40 -8.3 C 2.17 g/m*3 -8.3 C 0 km/h
2557 30-12-2008 07:41:40 -8.2 C 2.18 g/m*3 -8.2 C 0 km/h
2558 30-12-2008 07:53:40 -8.3 C 2.17 g/m*3 -8.3 C 0 km/h
2559 30-12-2008 08:05:40 -8.5 C 2.13 g/m*3 -8.5 C 0 km/h
2560 30-12-2008 08:17:37 -8.4 C 2.15 g/m*3 -8.4 C 0 km/h
2561 30-12-2008 08:29:37 -8.3 C 2.17 g/m*3 -8.3 C 0 km/h
2562 30-12-2008 08:41:37 -8.3 C 2.17 g/m*3 -8.3 C 0 km/h
2563 30-12-2008 08:53:37 -8.5 C 2.13 g/m*3 -8.5 C 0 km/h
2564 30-12-2008 09:05:37 -8.2 C 2.18 g/m*3 -8.2 C 0 km/h
2565 30-12-2008 09:17:36 -8.3 C 2.17 g/m*3 -8.3 C 0 km/h
2566 30-12-2008 09:29:36 -8.2 C 2.18 g/m*3 -8.2 C 0 km/h
2567 30-12-2008 09:41:37 -8.2 C 2.18 g/m*3 -8.2 C 0 km/h
2568 30-12-2008 09:53:02 -8 C 2.22 g/m*3 -8 C 0 km/h
2569 30-12-2008 10:05:01 -7.9 C 2.23 g/m*3 -7.9 C 0 km/h
2570 30-12-2008 10:17:01 -7.7 C 2.26 g/m*3 -7.7 C 0 km/h
2571 30-12-2008 10:29:01 -7.6 C 2.28 g/m*3 -7.6 C 0 km/h
2572 30-12-2008 10:41:02 -7.5 C 2.3 g/m*3 -7.5 C 0 km/h
2573 30-12-2008 10:53:01 -7.4 C 2.32 g/m*3 -7.4 C 0 km/h
2574 30-12-2008 11:05:01 -7.1 C 2.4 g/m*3 -7.1 C 0 km/h
2575 30-12-2008 11:17:01 -6.9 C 2.43 g/m*3 -6.9 C 0 km/h
Sensor: Nr:Datum:Temp:Abs-Feuchte:Windchill:Wind:
Aussen-T/F 2576 30-12-2008 11:29:01 -6.6 C 2.52 g/m*3 -6.6 C 0 km/h
2577 30-12-2008 11:41:00 -6.5 C 2.5 g/m*3 -6.5 C 0 km/h
2578 30-12-2008 11:53:01 -6.2 C 2.59 g/m*3 -6.2 C 0 km/h
2579 30-12-2008 12:05:00 -5.9 C 2.65 g/m*3 -5.9 C 0 km/h
2580 30-12-2008 12:17:00 -5.7 C 2.69 g/m*3 -5.7 C 0 km/h
2581 30-12-2008 12:29:01 -5.5 C 2.73 g/m*3 -5.5 C 0 km/h
2582 30-12-2008 12:41:00 -5.2 C 2.82 g/m*3 -5.2 C 0 km/h
2583 30-12-2008 12:53:00 -5.1 C 2.81 g/m*3 -5.1 C 0 km/h
2584 30-12-2008 13:05:59 -4.9 C 2.85 g/m*3 -4.9 C 0 km/h
2585 30-12-2008 13:17:00 -4.6 C 2.94 g/m*3 -4.6 C 0 km/h
2586 30-12-2008 13:29:00 -4.1 C 3.01 g/m*3 -4.1 C 0 km/h
2587 30-12-2008 13:41:00 -3.7 C 3.06 g/m*3 -3.7 C 0 km/h
2588 30-12-2008 13:53:59 -3.6 C 3.01 g/m*3 -3.6 C 0 km/h
2589 30-12-2008 14:04:59 -3.5 C 3.03 g/m*3 -3.5 C 0 km/h
2590 30-12-2008 14:17:59 -3.4 C 3.02 g/m*3 -3.4 C 0 km/h
2591 30-12-2008 14:29:59 -3.3 C 3 g/m*3 -3.3 C 0 km/h
2592 30-12-2008 14:41:59 -3.2 C 2.98 g/m*3 -3.2 C 0 km/h
2593 30-12-2008 14:53:58 -3.1 C 2.96 g/m*3 -3.1 C 0 km/h
2594 30-12-2008 15:05:59 -3.1 C 2.96 g/m*3 -3.1 C 0 km/h
2595 30-12-2008 15:17:58 -3.1 C 2.96 g/m*3 -3.1 C 0 km/h
2596 30-12-2008 15:29:58 -3.1 C 2.93 g/m*3 -3.1 C 0 km/h
2597 30-12-2008 15:41:58 -3.1 C 2.96 g/m*3 -3.1 C 0 km/h
2598 30-12-2008 15:53:58 -3.3 C 2.92 g/m*3 -3.3 C 0 km/h
2599 30-12-2008 16:05:58 -3.4 C 2.9 g/m*3 -3.4 C 0 km/h
2600 30-12-2008 16:17:58 -3.4 C 2.94 g/m*3 -3.4 C 0 km/h
Sensor: Nr:Datum:Temp:Abs-Feuchte:Windchill:Wind:
Aussen-T/F 2601 30-12-2008 16:29:58 -3.5 C 2.92 g/m*3 -3.5 C 0 km/h
2602 30-12-2008 16:41:57 -3.7 C 2.88 g/m*3 -3.7 C 0 km/h
2603 30-12-2008 16:53:58 -3.8 C 2.82 g/m*3 -3.8 C 0 km/h
2604 30-12-2008 17:05:57 -3.9 C 2.8 g/m*3 -3.9 C 0 km/h
2605 30-12-2008 17:17:58 -3.9 C 2.84 g/m*3 -3.9 C 0 km/h
2606 30-12-2008 17:29:58 -4.1 C 2.76 g/m*3 -4.1 C 0 km/h
2607 30-12-2008 17:41:57 -4.2 C 2.78 g/m*3 -4.2 C 0 km/h
2608 30-12-2008 17:53:57 -4.3 C 2.72 g/m*3 -4.3 C 0 km/h
2609 30-12-2008 18:05:57 -4.4 C 2.74 g/m*3 -4.4 C 0 km/h
2610 30-12-2008 18:17:57 -4.5 C 2.72 g/m*3 -4.5 C 0 km/h
2611 30-12-2008 18:29:58 -4.5 C 2.75 g/m*3 -4.5 C 0 km/h
2612 30-12-2008 18:41:56 -4.5 C 2.75 g/m*3 -4.5 C 0 km/h
2613 30-12-2008 18:53:57 -4.6 C 2.73 g/m*3 -4.6 C 0 km/h
2614 30-12-2008 19:05:56 -4.5 C 2.75 g/m*3 -4.5 C 0 km/h
2615 30-12-2008 19:17:56 -4.6 C 2.73 g/m*3 -4.6 C 0 km/h
2616 30-12-2008 19:29:56 -4.8 C 2.69 g/m*3 -4.8 C 0 km/h
2617 30-12-2008 19:41:56 -5 C 2.66 g/m*3 -5 C 0 km/h
2618 30-12-2008 19:53:56 -5 C 2.66 g/m*3 -5 C 0 km/h
2619 30-12-2008 20:05:56 -5 C 2.69 g/m*3 -5 C 0 km/h
2620 30-12-2008 20:17:55 -5.1 C 2.67 g/m*3 -5.1 C 0 km/h
2621 30-12-2008 20:29:55 -5.1 C 2.67 g/m*3 -5.1 C 0 km/h
2622 30-12-2008 20:41:56 -5.3 C 2.63 g/m*3 -5.3 C 0 km/h
2623 30-12-2008 20:53:55 -5.4 C 2.61 g/m*3 -5.4 C 0 km/h
2624 30-12-2008 21:05:55 -5.6 C 2.58 g/m*3 -5.6 C 0 km/h
2625 30-12-2008 21:17:55 -5.5 C 2.63 g/m*3 -5.5 C 0 km/h
Sensor: Nr:Datum:Temp:Abs-Feuchte:Windchill:Wind:
Aussen-T/F 2626 30-12-2008 21:29:55 -5.6 C 2.64 g/m*3 -5.6 C 0 km/h
2627 30-12-2008 21:42:56 -5.7 C 2.62 g/m*3 -5.7 C 0 km/h
2628 30-12-2008 21:54:56 -5.8 C 2.6 g/m*3 -5.8 C 0 km/h
2629 30-12-2008 22:06:56 -5.8 C 2.6 g/m*3 -5.8 C 0 km/h
2630 30-12-2008 22:18:56 -5.8 C 2.64 g/m*3 -5.8 C 0 km/h
2631 30-12-2008 22:30:56 -6 C 2.6 g/m*3 -6 C 0 km/h
2632 30-12-2008 22:42:56 -6.2 C 2.56 g/m*3 -6.2 C 0 km/h
2633 30-12-2008 22:54:56 -6.3 C 2.54 g/m*3 -6.3 C 0 km/h
2634 30-12-2008 23:06:56 -6.3 C 2.54 g/m*3 -6.3 C 0 km/h
2635 30-12-2008 23:18:56 -6.3 C 2.57 g/m*3 -6.3 C 0 km/h
2636 30-12-2008 23:30:56 -6.5 C 2.53 g/m*3 -6.5 C 0 km/h
2637 30-12-2008 23:42:56 -6.4 C 2.55 g/m*3 -6.4 C 0 km/h
2638 30-12-2008 23:54:56 -6.4 C 2.55 g/m*3 -6.4 C 0 km/h
2639 31-12-2008 00:06:57 -6.4 C 2.55 g/m*3 -6.4 C 0 km/h
2640 31-12-2008 00:18:57 -6.4 C 2.55 g/m*3 -6.4 C 0 km/h
2641 31-12-2008 00:30:57 -6.2 C 2.62 g/m*3 -6.2 C 0 km/h
2642 31-12-2008 00:42:57 -6.2 C 2.62 g/m*3 -6.2 C 0 km/h
2643 31-12-2008 00:54:57 -6.4 C 2.58 g/m*3 -6.4 C 0 km/h
2644 31-12-2008 01:06:57 -6.4 C 2.58 g/m*3 -6.4 C 0 km/h
2645 31-12-2008 01:18:57 -6.6 C 2.55 g/m*3 -6.6 C 0 km/h
2646 31-12-2008 01:30:57 -6.8 C 2.48 g/m*3 -6.8 C 0 km/h
2647 31-12-2008 01:42:57 -6.7 C 2.5 g/m*3 -6.7 C 0 km/h
2648 31-12-2008 01:54:57 -6.7 C 2.5 g/m*3 -6.7 C 0 km/h
2649 31-12-2008 02:06:57 -6.9 C 2.46 g/m*3 -6.9 C 0 km/h
2650 31-12-2008 02:18:57 -7.1 C 2.43 g/m*3 -7.1 C 0 km/h
Sensor: Nr:Datum:Temp:Abs-Feuchte:Windchill:Wind:
Aussen-T/F 2651 31-12-2008 02:30:57 -7.1 C 2.43 g/m*3 -7.1 C 0 km/h
2652 31-12-2008 02:42:57 -7.2 C 2.41 g/m*3 -7.2 C 0 km/h
2653 31-12-2008 02:54:57 -7.3 C 2.39 g/m*3 -7.3 C 0 km/h
2654 31-12-2008 03:06:57 -7.2 C 2.41 g/m*3 -7.2 C 0 km/h
2655 31-12-2008 03:18:57 -7.3 C 2.39 g/m*3 -7.3 C 0 km/h
2656 31-12-2008 03:30:57 -7.3 C 2.39 g/m*3 -7.3 C 0 km/h
2657 31-12-2008 03:42:57 -7.2 C 2.41 g/m*3 -7.2 C 0 km/h
2658 31-12-2008 03:54:57 -7.1 C 2.45 g/m*3 -7.1 C 0 km/h
2659 31-12-2008 04:06:58 -7.1 C 2.45 g/m*3 -7.1 C 0 km/h
2660 31-12-2008 04:18:58 -7.3 C 2.39 g/m*3 -7.3 C 0 km/h
2661 31-12-2008 04:30:58 -7.3 C 2.39 g/m*3 -7.3 C 0 km/h
2662 31-12-2008 04:42:58 -7.4 C 2.37 g/m*3 -7.4 C 0 km/h
2663 31-12-2008 04:54:55 -7.4 C 2.37 g/m*3 -7.4 C 0 km/h
2664 31-12-2008 05:06:56 -7.4 C 2.37 g/m*3 -7.4 C 0 km/h
2665 31-12-2008 05:18:55 -7.4 C 2.37 g/m*3 -7.4 C 0 km/h
2666 31-12-2008 05:30:55 -7.5 C 2.36 g/m*3 -7.5 C 0 km/h
2667 31-12-2008 05:42:55 -7.4 C 2.37 g/m*3 -7.4 C 0 km/h
2668 31-12-2008 05:54:55 -7.5 C 2.36 g/m*3 -7.5 C 0 km/h
2669 31-12-2008 06:06:55 -7.5 C 2.36 g/m*3 -7.5 C 0 km/h
2670 31-12-2008 06:18:55 -7.7 C 2.32 g/m*3 -7.7 C 0 km/h
2671 31-12-2008 06:30:55 -7.7 C 2.29 g/m*3 -7.7 C 0 km/h
2672 31-12-2008 06:42:55 -7.8 C 2.28 g/m*3 -7.8 C 0 km/h
2673 31-12-2008 06:54:54 -7.8 C 2.28 g/m*3 -7.8 C 0 km/h
2674 31-12-2008 07:06:55 -7.8 C 2.28 g/m*3 -7.8 C 0 km/h
2675 31-12-2008 07:18:54 -7.8 C 2.28 g/m*3 -7.8 C 0 km/h
Sensor: Nr:Datum:Temp:Abs-Feuchte:Windchill:Wind:
Aussen-T/F 2676 31-12-2008 07:30:54 -7.8 C 2.28 g/m*3 -7.8 C 0 km/h
2677 31-12-2008 07:42:54 -7.8 C 2.28 g/m*3 -7.8 C 0 km/h
2678 31-12-2008 07:54:54 -7.8 C 2.28 g/m*3 -7.8 C 0 km/h
2679 31-12-2008 08:06:54 -7.8 C 2.28 g/m*3 -7.8 C 0 km/h
2680 31-12-2008 08:18:54 -7.8 C 2.28 g/m*3 -7.8 C 0 km/h
2681 31-12-2008 08:30:54 -7.5 C 2.33 g/m*3 -7.5 C 0 km/h
2682 31-12-2008 08:42:54 -7.1 C 2.43 g/m*3 -7.1 C 0 km/h
2683 31-12-2008 08:54:53 -6.7 C 2.53 g/m*3 -6.7 C 0 km/h
2684 31-12-2008 09:06:53 -6.4 C 2.58 g/m*3 -6.4 C 0 km/h
2685 31-12-2008 09:18:53 -6 C 2.66 g/m*3 -6 C 0 km/h
2686 31-12-2008 09:30:53 -5.9 C 2.68 g/m*3 -5.9 C 0 km/h
2687 31-12-2008 09:42:53 -5.7 C 2.72 g/m*3 -5.7 C 0 km/h
2688 31-12-2008 09:54:52 -5.6 C 2.74 g/m*3 -5.6 C 0 km/h
2689 31-12-2008 10:06:53 -5.4 C 2.75 g/m*3 -5.4 C 0 km/h
2690 31-12-2008 10:18:53 -5.2 C 2.79 g/m*3 -5.2 C 0 km/h
2691 31-12-2008 10:30:52 -4.9 C 2.85 g/m*3 -4.9 C 0 km/h
2692 31-12-2008 10:42:52 -4.5 C 2.89 g/m*3 -4.5 C 0 km/h
2693 31-12-2008 10:54:02 -3.8 C 3.04 g/m*3 -3.8 C 0 km/h
2694 31-12-2008 11:06:01 -3.7 C 3.06 g/m*3 -3.7 C 0 km/h
2695 31-12-2008 11:18:01 -3.8 C 3.01 g/m*3 -3.8 C 0 km/h
2696 31-12-2008 11:30:01 -3.9 C 2.98 g/m*3 -3.9 C 0 km/h
2697 31-12-2008 11:42:01 -3.6 C 3.05 g/m*3 -3.6 C 0 km/h
2698 31-12-2008 11:54:01 -3 C 3.22 g/m*3 -3 C 0 km/h
2699 31-12-2008 12:06:01 -2.6 C 3.27 g/m*3 -2.6 C 0 km/h
2700 31-12-2008 12:18:02 -2.6 C 3.23 g/m*3 -2.6 C 0 km/h
Sensor: Nr:Datum:Temp:Abs-Feuchte:Windchill:Wind:
Aussen-T/F 2701 31-12-2008 12:30:02 -2.9 C 3.09 g/m*3 -2.9 C 0 km/h
2702 31-12-2008 12:42:01 -2.9 C 3.09 g/m*3 -2.9 C 0 km/h
2703 31-12-2008 12:54:00 -2.9 C 3.05 g/m*3 -2.9 C 0 km/h
2704 31-12-2008 13:06:01 -2.9 C 3.05 g/m*3 -2.9 C 0 km/h
2705 31-12-2008 13:18:01 -2.8 C 3.03 g/m*3 -2.8 C 0 km/h
2706 31-12-2008 13:30:01 -2.7 C 3.05 g/m*3 -2.7 C 0 km/h
2707 31-12-2008 13:42:00 -2.4 C 3.11 g/m*3 -2.4 C 0 km/h
2708 31-12-2008 13:54:01 -2.1 C 3.22 g/m*3 -2.1 C 0 km/h
2709 31-12-2008 14:06:00 -1.7 C 3.31 g/m*3 -1.7 C 0 km/h
2710 31-12-2008 14:18:00 -1.5 C 3.32 g/m*3 -1.5 C 0 km/h
2711 31-12-2008 14:30:00 -1.5 C 3.27 g/m*3 -1.5 C 0 km/h
2712 31-12-2008 14:42:00 -1.4 C 3.3 g/m*3 -1.4 C 0 km/h
2713 31-12-2008 14:54:00 -1.5 C 3.27 g/m*3 -1.5 C 0 km/h
2714 31-12-2008 15:06:59 -1.6 C 3.25 g/m*3 -1.6 C 0 km/h
2715 31-12-2008 15:29:59 -1.6 C 3.25 g/m*3 -1.6 C 0 km/h
2716 31-12-2008 15:30:00 -1.6 C 3.25 g/m*3 -1.6 C 0 km/h
2717 31-12-2008 15:42:00 -1.6 C 3.25 g/m*3 -1.6 C 0 km/h
2718 31-12-2008 15:54:59 -1.6 C 3.25 g/m*3 -1.6 C 0 km/h
2719 31-12-2008 16:05:59 -1.6 C 3.25 g/m*3 -1.6 C 0 km/h
2720 31-12-2008 16:18:59 -1.7 C 3.23 g/m*3 -1.7 C 0 km/h
2721 31-12-2008 16:30:59 -1.7 C 3.23 g/m*3 -1.7 C 0 km/h
2722 31-12-2008 16:43:00 -1.7 C 3.23 g/m*3 -1.7 C 0 km/h
2723 31-12-2008 16:54:59 -1.7 C 3.27 g/m*3 -1.7 C 0 km/h
2724 31-12-2008 17:06:59 -1.4 C 3.39 g/m*3 -1.4 C 0 km/h
2725 31-12-2008 17:18:59 -1.2 C 3.48 g/m*3 -1.2 C 0 km/h
Sensor: Nr:Datum:Temp:Abs-Feuchte:Windchill:Wind:
Aussen-T/F 2726 31-12-2008 17:30:58 -1 C 3.53 g/m*3 -1 C 0 km/h
2727 31-12-2008 17:42:58 -1.1 C 3.5 g/m*3 -1.1 C 0 km/h
2728 31-12-2008 17:54:59 -1.3 C 3.45 g/m*3 -1.3 C 0 km/h
2729 31-12-2008 18:06:58 -1.1 C 3.55 g/m*3 -1.1 C 0 km/h
2730 31-12-2008 18:18:58 -1.2 C 3.52 g/m*3 -1.2 C 0 km/h
2731 31-12-2008 18:30:57 -1.4 C 3.52 g/m*3 -1.4 C 0 km/h
2732 31-12-2008 18:42:57 -1.5 C 3.54 g/m*3 -1.5 C 0 km/h
2733 31-12-2008 18:54:58 -1.5 C 3.54 g/m*3 -1.5 C 0 km/h
2734 31-12-2008 19:06:57 -1.5 C 3.54 g/m*3 -1.5 C 0 km/h
2735 31-12-2008 19:18:57 -1.6 C 3.55 g/m*3 -1.6 C 0 km/h
2736 31-12-2008 19:30:57 -1.6 C 3.6 g/m*3 -1.6 C 0 km/h
2737 31-12-2008 19:42:57 -1.7 C 3.62 g/m*3 -1.7 C 0 km/h
2738 31-12-2008 19:54:57 -1.8 C 3.59 g/m*3 -1.8 C 0 km/h
2739 31-12-2008 20:06:56 -1.8 C 3.59 g/m*3 -1.8 C 0 km/h
2740 31-12-2008 20:18:57 -1.9 C 3.61 g/m*3 -1.9 C 0 km/h
2741 31-12-2008 20:30:57 -2.3 C 3.51 g/m*3 -2.3 C 0 km/h
2742 31-12-2008 20:42:57 -2.4 C 3.48 g/m*3 -2.4 C 0 km/h
2743 31-12-2008 20:54:56 -2.5 C 3.5 g/m*3 -2.5 C 0 km/h
2744 31-12-2008 21:06:57 -2.6 C 3.48 g/m*3 -2.6 C 0 km/h
2745 31-12-2008 21:18:56 -2.7 C 3.45 g/m*3 -2.7 C 0 km/h
2746 31-12-2008 21:30:56 -2.5 C 3.54 g/m*3 -2.5 C 0 km/h
2747 31-12-2008 21:42:56 -2.6 C 3.52 g/m*3 -2.6 C 0 km/h
2748 31-12-2008 21:54:55 -2.4 C 3.57 g/m*3 -2.4 C 0 km/h
2749 31-12-2008 22:06:56 -2.5 C 3.54 g/m*3 -2.5 C 0 km/h
2750 31-12-2008 22:18:56 -2.7 C 3.49 g/m*3 -2.7 C 0 km/h
Sensor: Nr:Datum:Temp:Abs-Feuchte:Windchill:Wind:
Aussen-T/F 2751 31-12-2008 22:30:55 -2.8 C 3.47 g/m*3 -2.8 C 0 km/h
2752 31-12-2008 22:42:55 -3.1 C 3.39 g/m*3 -3.1 C 0 km/h
2753 31-12-2008 22:54:55 -3.2 C 3.37 g/m*3 -3.2 C 0 km/h
2754 31-12-2008 23:07:53 -3.2 C 3.37 g/m*3 -3.2 C 0 km/h
2755 31-12-2008 23:19:53 -3 C 3.46 g/m*3 -3 C 0 km/h
2756 31-12-2008 23:31:53 -2.6 C 3.6 g/m*3 -2.6 C 0 km/h
2757 31-12-2008 23:43:53 -2.4 C 3.65 g/m*3 -2.4 C 0 km/h
2758 31-12-2008 23:55:53 -2.2 C 3.74 g/m*3 -2.2 C 0 km/h
2759 01-01-2009 00:07:53 -2.1 C 3.77 g/m*3 -2.1 C 0 km/h
2760 01-01-2009 00:19:53 -2 C 3.79 g/m*3 -2 C 0 km/h
2761 01-01-2009 00:31:53 -1.9 C 3.82 g/m*3 -1.9 C 0 km/h
2762 01-01-2009 00:43:53 -1.8 C 3.85 g/m*3 -1.8 C 0 km/h
2763 01-01-2009 00:55:53 -1.7 C 3.87 g/m*3 -1.7 C 0 km/h
2764 01-01-2009 01:07:54 -1.3 C 4.03 g/m*3 -1.3 C 0 km/h
2765 01-01-2009 01:19:54 -1.1 C 4.04 g/m*3 -1.1 C 0 km/h
2766 01-01-2009 01:31:54 -0.9 C 4.05 g/m*3 -0.9 C 0 km/h
2767 01-01-2009 01:43:54 -0.9 C 3.91 g/m*3 -0.9 C 0 km/h
2768 01-01-2009 01:55:54 -0.8 C 3.9 g/m*3 -0.8 C 0 km/h
2769 01-01-2009 02:07:54 -0.9 C 3.82 g/m*3 -0.9 C 0 km/h
2770 01-01-2009 02:19:54 -0.8 C 3.8 g/m*3 -0.8 C 0 km/h
2771 01-01-2009 02:31:54 -0.9 C 3.78 g/m*3 -0.9 C 0 km/h
2772 01-01-2009 02:43:54 -0.9 C 3.78 g/m*3 -0.9 C 0 km/h
2773 01-01-2009 02:55:54 -1 C 3.75 g/m*3 -1 C 0 km/h
2774 01-01-2009 03:07:54 -1.1 C 3.73 g/m*3 -1.1 C 0 km/h
2775 01-01-2009 03:19:53 -1.1 C 3.77 g/m*3 -1.1 C 0 km/h
Sensor: Nr:Datum:Temp:Abs-Feuchte:Windchill:Wind:
Aussen-T/F 2776 01-01-2009 03:31:53 -1.5 C 3.62 g/m*3 -1.5 C 0 km/h
2777 01-01-2009 03:43:53 -1.8 C 3.55 g/m*3 -1.8 C 0 km/h
2778 01-01-2009 03:55:53 -2 C 3.5 g/m*3 -2 C 0 km/h
2779 01-01-2009 04:07:53 -2.1 C 3.52 g/m*3 -2.1 C 0 km/h
2780 01-01-2009 04:19:53 -2.1 C 3.52 g/m*3 -2.1 C 0 km/h
2781 01-01-2009 04:31:52 -2.1 C 3.52 g/m*3 -2.1 C 0 km/h
2782 01-01-2009 04:43:52 -2.1 C 3.52 g/m*3 -2.1 C 0 km/h
2783 01-01-2009 04:55:52 -2.1 C 3.52 g/m*3 -2.1 C 0 km/h
2784 01-01-2009 05:07:53 -2 C 3.54 g/m*3 -2 C 0 km/h
2785 01-01-2009 05:19:52 -2 C 3.54 g/m*3 -2 C 0 km/h
2786 01-01-2009 05:31:52 -2 C 3.54 g/m*3 -2 C 0 km/h
2787 01-01-2009 05:43:53 -2.2 C 3.41 g/m*3 -2.2 C 0 km/h
2788 01-01-2009 05:55:52 -2.3 C 3.38 g/m*3 -2.3 C 0 km/h
2789 01-01-2009 06:07:51 -2.4 C 3.32 g/m*3 -2.4 C 0 km/h
2790 01-01-2009 06:19:52 -2.6 C 3.27 g/m*3 -2.6 C 0 km/h
2791 01-01-2009 06:31:52 -2.8 C 3.23 g/m*3 -2.8 C 0 km/h
2792 01-01-2009 06:43:52 -3.3 C 3.11 g/m*3 -3.3 C 0 km/h
2793 01-01-2009 06:55:51 -3.6 C 3.05 g/m*3 -3.6 C 0 km/h
2794 01-01-2009 07:07:52 -3.8 C 3.01 g/m*3 -3.8 C 0 km/h
2795 01-01-2009 07:19:51 -3.8 C 3.01 g/m*3 -3.8 C 0 km/h
2796 01-01-2009 07:31:51 -3.9 C 2.98 g/m*3 -3.9 C 0 km/h
2797 01-01-2009 07:43:51 -3.9 C 2.98 g/m*3 -3.9 C 0 km/h
2798 01-01-2009 07:55:51 -3.9 C 2.98 g/m*3 -3.9 C 0 km/h
2799 01-01-2009 08:07:51 -4.2 C 2.89 g/m*3 -4.2 C 0 km/h
2800 01-01-2009 08:19:51 -4.4 C 2.84 g/m*3 -4.4 C 0 km/h
Sensor: Nr:Datum:Temp:Abs-Feuchte:Windchill:Wind:
Aussen-T/F 2801 01-01-2009 08:31:50 -4.5 C 2.82 g/m*3 -4.5 C 0 km/h
2802 01-01-2009 08:43:50 -4.6 C 2.77 g/m*3 -4.6 C 0 km/h
2803 01-01-2009 08:55:51 -4.7 C 2.75 g/m*3 -4.7 C 0 km/h
2804 01-01-2009 09:07:50 -4.6 C 2.8 g/m*3 -4.6 C 0 km/h
2805 01-01-2009 09:19:50 -4.6 C 2.8 g/m*3 -4.6 C 0 km/h
2806 01-01-2009 09:31:50 -4.5 C 2.82 g/m*3 -4.5 C 0 km/h
2807 01-01-2009 09:43:50 -4.5 C 2.79 g/m*3 -4.5 C 0 km/h
2808 01-01-2009 09:55:50 -4.2 C 2.85 g/m*3 -4.2 C 0 km/h
2809 01-01-2009 10:07:49 -4.2 C 2.85 g/m*3 -4.2 C 0 km/h
2810 01-01-2009 10:19:50 -4.2 C 2.81 g/m*3 -4.2 C 0 km/h
2811 01-01-2009 10:31:50 -4.1 C 2.83 g/m*3 -4.1 C 0 km/h
2812 01-01-2009 10:43:50 -4.1 C 2.8 g/m*3 -4.1 C 0 km/h
2813 01-01-2009 10:55:49 -4.3 C 2.69 g/m*3 -4.3 C 0 km/h
2814 01-01-2009 11:07:50 -4.3 C 2.69 g/m*3 -4.3 C 0 km/h
2815 01-01-2009 11:19:49 -4 C 2.74 g/m*3 -4 C 0 km/h
2816 01-01-2009 11:31:49 -4 C 2.71 g/m*3 -4 C 0 km/h
2817 01-01-2009 11:43:49 -4.1 C 2.65 g/m*3 -4.1 C 0 km/h
2818 01-01-2009 11:55:48 -4.1 C 2.69 g/m*3 -4.1 C 0 km/h
2819 01-01-2009 12:07:49 -4.1 C 2.69 g/m*3 -4.1 C 0 km/h
2820 01-01-2009 12:19:48 -4.1 C 2.69 g/m*3 -4.1 C 0 km/h
2821 01-01-2009 12:31:48 -4.1 C 2.65 g/m*3 -4.1 C 0 km/h
2822 01-01-2009 12:43:48 -4 C 2.67 g/m*3 -4 C 0 km/h
2823 01-01-2009 12:55:48 -4 C 2.63 g/m*3 -4 C 0 km/h
2824 01-01-2009 13:07:48 -3.9 C 2.65 g/m*3 -3.9 C 0 km/h
2825 01-01-2009 13:19:48 -3.8 C 2.67 g/m*3 -3.8 C 0 km/h
Sensor: Nr:Datum:Temp:Abs-Feuchte:Windchill:Wind:
Aussen-T/F 2826 01-01-2009 13:31:48 -3.8 C 2.67 g/m*3 -3.8 C 0 km/h
2827 01-01-2009 13:43:48 -3.7 C 2.69 g/m*3 -3.7 C 0 km/h
2828 01-01-2009 13:55:48 -3.7 C 2.65 g/m*3 -3.7 C 0 km/h
2829 01-01-2009 14:07:47 -3.6 C 2.63 g/m*3 -3.6 C 0 km/h
2830 01-01-2009 14:19:48 -3.7 C 2.58 g/m*3 -3.7 C 0 km/h
2831 01-01-2009 14:31:01 -3.8 C 2.56 g/m*3 -3.8 C 0 km/h
2832 01-01-2009 14:43:01 -3.9 C 2.54 g/m*3 -3.9 C 0 km/h
2833 01-01-2009 14:55:02 -3.9 C 2.58 g/m*3 -3.9 C 0 km/h
2834 01-01-2009 15:07:01 -3.8 C 2.6 g/m*3 -3.8 C 0 km/h
2835 01-01-2009 15:19:01 -3.7 C 2.62 g/m*3 -3.7 C 0 km/h
2836 01-01-2009 15:31:01 -3.6 C 2.63 g/m*3 -3.6 C 0 km/h
2837 01-01-2009 15:43:01 -3.6 C 2.63 g/m*3 -3.6 C 0 km/h
2838 01-01-2009 15:55:01 -3.9 C 2.58 g/m*3 -3.9 C 0 km/h
2839 01-01-2009 16:07:00 -4.2 C 2.56 g/m*3 -4.2 C 0 km/h
2840 01-01-2009 16:19:00 -4.4 C 2.56 g/m*3 -4.4 C 0 km/h
2841 01-01-2009 16:31:01 -4.6 C 2.56 g/m*3 -4.6 C 0 km/h
2842 01-01-2009 16:43:01 -4.8 C 2.56 g/m*3 -4.8 C 0 km/h
2843 01-01-2009 16:55:00 -4.9 C 2.54 g/m*3 -4.9 C 0 km/h
2844 01-01-2009 17:07:00 -5.1 C 2.54 g/m*3 -5.1 C 0 km/h
2845 01-01-2009 17:19:00 -5.3 C 2.5 g/m*3 -5.3 C 0 km/h
2846 01-01-2009 17:31:59 -5.3 C 2.53 g/m*3 -5.3 C 0 km/h
2847 01-01-2009 17:42:59 -5 C 2.62 g/m*3 -5 C 0 km/h
2848 01-01-2009 17:55:00 -4.9 C 2.64 g/m*3 -4.9 C 0 km/h
2849 01-01-2009 18:07:59 -4.8 C 2.66 g/m*3 -4.8 C 0 km/h
2850 01-01-2009 18:19:59 -4.6 C 2.7 g/m*3 -4.6 C 0 km/h
Sensor: Nr:Datum:Temp:Abs-Feuchte:Windchill:Wind:
Aussen-T/F 2851 01-01-2009 18:31:00 -4.6 C 2.73 g/m*3 -4.6 C 0 km/h
2852 01-01-2009 18:43:00 -4.4 C 2.77 g/m*3 -4.4 C 0 km/h
2853 01-01-2009 18:55:59 -4.3 C 2.79 g/m*3 -4.3 C 0 km/h
2854 01-01-2009 19:07:59 -4.2 C 2.78 g/m*3 -4.2 C 0 km/h
2855 01-01-2009 19:19:59 -4.2 C 2.78 g/m*3 -4.2 C 0 km/h
2856 01-01-2009 19:31:59 -4.2 C 2.7 g/m*3 -4.2 C 0 km/h
2857 01-01-2009 19:44:00 -4.2 C 2.67 g/m*3 -4.2 C 0 km/h
2858 01-01-2009 19:55:58 -4.1 C 2.69 g/m*3 -4.1 C 0 km/h
2859 01-01-2009 20:07:59 -4.1 C 2.69 g/m*3 -4.1 C 0 km/h
2860 01-01-2009 20:19:58 -4.1 C 2.69 g/m*3 -4.1 C 0 km/h
2861 01-01-2009 20:31:58 -4 C 2.71 g/m*3 -4 C 0 km/h
2862 01-01-2009 20:43:58 -4 C 2.71 g/m*3 -4 C 0 km/h
2863 01-01-2009 20:55:58 -4 C 2.71 g/m*3 -4 C 0 km/h
2864 01-01-2009 21:07:58 -3.9 C 2.73 g/m*3 -3.9 C 0 km/h
2865 01-01-2009 21:19:58 -3.9 C 2.73 g/m*3 -3.9 C 0 km/h
2866 01-01-2009 21:31:57 -3.9 C 2.73 g/m*3 -3.9 C 0 km/h
2867 01-01-2009 21:43:57 -3.9 C 2.73 g/m*3 -3.9 C 0 km/h
2868 01-01-2009 21:55:58 -3.9 C 2.73 g/m*3 -3.9 C 0 km/h
2869 01-01-2009 22:07:57 -3.9 C 2.73 g/m*3 -3.9 C 0 km/h
2870 01-01-2009 22:20:58 -3.9 C 2.76 g/m*3 -3.9 C 0 km/h
2871 01-01-2009 22:32:58 -3.9 C 2.76 g/m*3 -3.9 C 0 km/h
2872 01-01-2009 22:44:59 -3.9 C 2.76 g/m*3 -3.9 C 0 km/h
2873 01-01-2009 22:56:59 -4 C 2.78 g/m*3 -4 C 0 km/h
2874 01-01-2009 23:08:59 -4 C 2.78 g/m*3 -4 C 0 km/h
2875 01-01-2009 23:20:59 -3.9 C 2.8 g/m*3 -3.9 C 0 km/h
Sensor: Nr:Datum:Temp:Abs-Feuchte:Windchill:Wind:
Aussen-T/F 2876 01-01-2009 23:32:59 -3.9 C 2.8 g/m*3 -3.9 C 0 km/h
2877 01-01-2009 23:44:59 -4 C 2.78 g/m*3 -4 C 0 km/h
2878 01-01-2009 23:56:59 -4.1 C 2.76 g/m*3 -4.1 C 0 km/h
2879 02-01-2009 00:08:59 -4 C 2.78 g/m*3 -4 C 0 km/h
2880 02-01-2009 00:20:59 -4 C 2.78 g/m*3 -4 C 0 km/h
2881 02-01-2009 00:32:59 -4.1 C 2.76 g/m*3 -4.1 C 0 km/h
2882 02-01-2009 00:44:59 -4.1 C 2.76 g/m*3 -4.1 C 0 km/h
2883 02-01-2009 00:56:59 -4 C 2.78 g/m*3 -4 C 0 km/h
2884 02-01-2009 01:08:59 -4 C 2.78 g/m*3 -4 C 0 km/h
2885 02-01-2009 01:20:59 -4 C 2.78 g/m*3 -4 C 0 km/h
2886 02-01-2009 01:32:59 -4 C 2.78 g/m*3 -4 C 0 km/h
2887 02-01-2009 01:44:59 -4 C 2.78 g/m*3 -4 C 0 km/h
2888 02-01-2009 01:56:59 -4 C 2.82 g/m*3 -4 C 0 km/h
2889 02-01-2009 02:08:59 -3.9 C 2.84 g/m*3 -3.9 C 0 km/h
2890 02-01-2009 02:19:59 -3.9 C 2.8 g/m*3 -3.9 C 0 km/h
2891 02-01-2009 02:31:59 -3.9 C 2.8 g/m*3 -3.9 C 0 km/h
2892 02-01-2009 02:44:00 -3.9 C 2.8 g/m*3 -3.9 C 0 km/h
2893 02-01-2009 02:56:00 -3.9 C 2.8 g/m*3 -3.9 C 0 km/h
2894 02-01-2009 03:08:00 -4 C 2.78 g/m*3 -4 C 0 km/h
2895 02-01-2009 03:20:00 -4 C 2.78 g/m*3 -4 C 0 km/h
2896 02-01-2009 03:32:00 -3.9 C 2.84 g/m*3 -3.9 C 0 km/h
2897 02-01-2009 03:44:00 -3.9 C 2.84 g/m*3 -3.9 C 0 km/h
2898 02-01-2009 03:56:00 -3.9 C 2.84 g/m*3 -3.9 C 0 km/h
2899 02-01-2009 04:08:00 -3.8 C 2.86 g/m*3 -3.8 C 0 km/h
2900 02-01-2009 04:20:00 -3.8 C 2.86 g/m*3 -3.8 C 0 km/h
Sensor: Nr:Datum:Temp:Abs-Feuchte:Windchill:Wind:
Aussen-T/F 2901 02-01-2009 04:32:00 -3.7 C 2.84 g/m*3 -3.7 C 0 km/h
2902 02-01-2009 04:44:00 -3.7 C 2.84 g/m*3 -3.7 C 0 km/h
2903 02-01-2009 04:56:00 -3.7 C 2.88 g/m*3 -3.7 C 0 km/h
2904 02-01-2009 05:08:00 -3.6 C 2.9 g/m*3 -3.6 C 0 km/h
2905 02-01-2009 05:20:00 -3.6 C 2.9 g/m*3 -3.6 C 0 km/h
2906 02-01-2009 05:32:00 -3.5 C 2.92 g/m*3 -3.5 C 0 km/h
2907 02-01-2009 05:44:00 -3.5 C 2.88 g/m*3 -3.5 C 0 km/h
2908 02-01-2009 05:56:00 -3.5 C 2.92 g/m*3 -3.5 C 0 km/h
2909 02-01-2009 06:08:00 -3.4 C 2.94 g/m*3 -3.4 C 0 km/h
2910 02-01-2009 06:20:00 -3.4 C 2.94 g/m*3 -3.4 C 0 km/h
2911 02-01-2009 06:32:01 -3.4 C 2.94 g/m*3 -3.4 C 0 km/h
2912 02-01-2009 06:44:01 -3.3 C 2.96 g/m*3 -3.3 C 0 km/h
2913 02-01-2009 06:56:01 -3.3 C 2.96 g/m*3 -3.3 C 0 km/h
2914 02-01-2009 07:08:01 -3.2 C 2.98 g/m*3 -3.2 C 0 km/h
2915 02-01-2009 07:20:01 -3.2 C 2.94 g/m*3 -3.2 C 0 km/h
2916 02-01-2009 07:32:01 -3.2 C 2.98 g/m*3 -3.2 C 0 km/h
2917 02-01-2009 07:44:01 -3.2 C 2.98 g/m*3 -3.2 C 0 km/h
2918 02-01-2009 07:56:01 -3.2 C 2.98 g/m*3 -3.2 C 0 km/h
2919 02-01-2009 08:08:01 -3.3 C 3 g/m*3 -3.3 C 0 km/h
2920 02-01-2009 08:20:59 -3.3 C 3.04 g/m*3 -3.3 C 0 km/h
2921 02-01-2009 08:32:58 -3.3 C 3.11 g/m*3 -3.3 C 0 km/h
2922 02-01-2009 08:44:57 -3.3 C 3.15 g/m*3 -3.3 C 0 km/h
2923 02-01-2009 08:56:57 -3.3 C 3.15 g/m*3 -3.3 C 0 km/h
2924 02-01-2009 09:08:58 -3.2 C 3.18 g/m*3 -3.2 C 0 km/h
2925 02-01-2009 09:20:58 -3.1 C 3.2 g/m*3 -3.1 C 0 km/h
Sensor: Nr:Datum:Temp:Abs-Feuchte:Windchill:Wind:
Aussen-T/F 2926 02-01-2009 09:32:57 -3.1 C 3.2 g/m*3 -3.1 C 0 km/h
2927 02-01-2009 09:44:58 -3 C 3.22 g/m*3 -3 C 0 km/h
2928 02-01-2009 09:56:58 -3 C 3.22 g/m*3 -3 C 0 km/h
2929 02-01-2009 10:08:57 -2.8 C 3.27 g/m*3 -2.8 C 0 km/h
2930 02-01-2009 10:20:57 -2.8 C 3.27 g/m*3 -2.8 C 0 km/h
2931 02-01-2009 10:32:57 -2.7 C 3.25 g/m*3 -2.7 C 0 km/h
2932 02-01-2009 10:44:57 -2.7 C 3.25 g/m*3 -2.7 C 0 km/h
2933 02-01-2009 10:56:57 -2.5 C 3.3 g/m*3 -2.5 C 0 km/h
2934 02-01-2009 11:08:56 -2.3 C 3.34 g/m*3 -2.3 C 0 km/h
2935 02-01-2009 11:20:57 -2.1 C 3.39 g/m*3 -2.1 C 0 km/h
2936 02-01-2009 11:32:57 -2 C 3.37 g/m*3 -2 C 0 km/h
2937 02-01-2009 11:44:56 -1.8 C 3.42 g/m*3 -1.8 C 0 km/h
2938 02-01-2009 11:56:56 -1.7 C 3.44 g/m*3 -1.7 C 0 km/h
2939 02-01-2009 12:08:57 -1.7 C 3.44 g/m*3 -1.7 C 0 km/h
2940 02-01-2009 12:20:56 -1.7 C 3.49 g/m*3 -1.7 C 0 km/h
2941 02-01-2009 12:32:56 -1.6 C 3.51 g/m*3 -1.6 C 0 km/h
2942 02-01-2009 12:44:55 -1.5 C 3.54 g/m*3 -1.5 C 0 km/h
2943 02-01-2009 12:56:55 -1.3 C 3.59 g/m*3 -1.3 C 0 km/h
2944 02-01-2009 13:08:56 -1.1 C 3.64 g/m*3 -1.1 C 0 km/h
2945 02-01-2009 13:20:55 -1 C 3.66 g/m*3 -1 C 0 km/h
2946 02-01-2009 13:32:55 -0.8 C 3.71 g/m*3 -0.8 C 0 km/h
2947 02-01-2009 13:44:55 -0.8 C 3.71 g/m*3 -0.8 C 0 km/h
2948 02-01-2009 13:56:55 -0.8 C 3.71 g/m*3 -0.8 C 0 km/h
2949 02-01-2009 14:08:55 -0.6 C 3.76 g/m*3 -0.6 C 0 km/h
2950 02-01-2009 14:20:55 -0.6 C 3.76 g/m*3 -0.6 C 0 km/h
Sensor: Nr:Datum:Temp:Abs-Feuchte:Windchill:Wind:
Aussen-T/F 2951 02-01-2009 14:32:54 -0.5 C 3.79 g/m*3 -0.5 C 0 km/h
2952 02-01-2009 14:44:55 -0.5 C 3.79 g/m*3 -0.5 C 0 km/h
2953 02-01-2009 14:56:55 -0.5 C 3.79 g/m*3 -0.5 C 0 km/h
2954 02-01-2009 15:08:54 -0.5 C 3.79 g/m*3 -0.5 C 0 km/h
2955 02-01-2009 15:20:55 -0.5 C 3.79 g/m*3 -0.5 C 0 km/h
2956 02-01-2009 15:32:54 -0.5 C 3.79 g/m*3 -0.5 C 0 km/h
2957 02-01-2009 15:44:54 -0.5 C 3.79 g/m*3 -0.5 C 0 km/h
2958 02-01-2009 15:56:55 -0.5 C 3.84 g/m*3 -0.5 C 0 km/h
2959 02-01-2009 16:08:53 -0.5 C 3.84 g/m*3 -0.5 C 0 km/h
2960 02-01-2009 16:20:54 -0.6 C 3.81 g/m*3 -0.6 C 0 km/h
2961 02-01-2009 16:32:54 -0.6 C 3.86 g/m*3 -0.6 C 0 km/h
2962 02-01-2009 16:44:53 -0.6 C 3.86 g/m*3 -0.6 C 0 km/h
2963 02-01-2009 16:56:53 -0.6 C 3.9 g/m*3 -0.6 C 0 km/h
2964 02-01-2009 17:08:54 -0.6 C 3.9 g/m*3 -0.6 C 0 km/h
2965 02-01-2009 17:20:53 -0.4 C 3.96 g/m*3 -0.4 C 0 km/h
2966 02-01-2009 17:32:53 -0.5 C 3.93 g/m*3 -0.5 C 0 km/h
2967 02-01-2009 17:44:53 -0.5 C 3.93 g/m*3 -0.5 C 0 km/h
2968 02-01-2009 17:56:53 -0.5 C 3.93 g/m*3 -0.5 C 0 km/h
2969 02-01-2009 18:08:53 -0.6 C 3.9 g/m*3 -0.6 C 0 km/h
2970 02-01-2009 18:20:52 -0.4 C 3.96 g/m*3 -0.4 C 0 km/h
2971 02-01-2009 18:32:52 -0.6 C 3.9 g/m*3 -0.6 C 0 km/h
2972 02-01-2009 18:44:52 -0.4 C 3.96 g/m*3 -0.4 C 0 km/h
2973 02-01-2009 18:56:52 -0.4 C 3.96 g/m*3 -0.4 C 0 km/h
2974 02-01-2009 19:08:52 -0.6 C 3.9 g/m*3 -0.6 C 0 km/h
2975 02-01-2009 19:20:52 -0.6 C 3.9 g/m*3 -0.6 C 0 km/h
Sensor: Nr:Datum:Temp:Abs-Feuchte:Windchill:Wind:
Aussen-T/F 2976 02-01-2009 19:32:52 -0.4 C 3.96 g/m*3 -0.4 C 0 km/h
2977 02-01-2009 19:44:52 -0.5 C 3.98 g/m*3 -0.5 C 0 km/h
2978 02-01-2009 19:56:52 -0.6 C 3.95 g/m*3 -0.6 C 0 km/h
2979 02-01-2009 20:08:51 -0.6 C 3.95 g/m*3 -0.6 C 0 km/h
2980 02-01-2009 20:20:52 -0.6 C 3.95 g/m*3 -0.6 C 0 km/h
2981 02-01-2009 20:32:51 -0.6 C 3.95 g/m*3 -0.6 C 0 km/h
2982 02-01-2009 20:44:51 -0.6 C 3.95 g/m*3 -0.6 C 0 km/h
2983 02-01-2009 20:56:51 -0.6 C 3.95 g/m*3 -0.6 C 0 km/h
2984 02-01-2009 21:08:52 -0.6 C 3.95 g/m*3 -0.6 C 0 km/h
2985 02-01-2009 21:20:51 -0.6 C 3.95 g/m*3 -0.6 C 0 km/h
2986 02-01-2009 21:32:51 -0.6 C 3.95 g/m*3 -0.6 C 0 km/h
2987 02-01-2009 21:44:50 -0.5 C 3.98 g/m*3 -0.5 C 0 km/h
2988 02-01-2009 21:56:50 -0.6 C 3.95 g/m*3 -0.6 C 0 km/h
2989 02-01-2009 22:08:51 -0.6 C 3.95 g/m*3 -0.6 C 0 km/h
2990 02-01-2009 22:20:50 -0.6 C 3.95 g/m*3 -0.6 C 0 km/h
2991 02-01-2009 22:33:51 -0.6 C 3.95 g/m*3 -0.6 C 0 km/h
2992 02-01-2009 22:45:51 -0.6 C 3.95 g/m*3 -0.6 C 0 km/h
2993 02-01-2009 22:57:51 -0.7 C 3.92 g/m*3 -0.7 C 0 km/h
2994 02-01-2009 23:09:51 -0.8 C 3.9 g/m*3 -0.8 C 0 km/h
2995 02-01-2009 23:21:51 -0.8 C 3.9 g/m*3 -0.8 C 0 km/h
2996 02-01-2009 23:33:51 -0.8 C 3.9 g/m*3 -0.8 C 0 km/h
2997 02-01-2009 23:45:51 -0.7 C 3.92 g/m*3 -0.7 C 0 km/h
2998 02-01-2009 23:57:51 -0.7 C 3.92 g/m*3 -0.7 C 0 km/h
2999 03-01-2009 00:09:51 -0.7 C 3.92 g/m*3 -0.7 C 0 km/h
3000 03-01-2009 00:21:51 -0.6 C 3.95 g/m*3 -0.6 C 0 km/h
Sensor: Nr:Datum:Temp:Abs-Feuchte:Windchill:Wind:
Aussen-T/F 3001 03-01-2009 00:33:51 -0.7 C 3.92 g/m*3 -0.7 C 0 km/h
3002 03-01-2009 00:45:51 -0.7 C 3.88 g/m*3 -0.7 C 0 km/h
3003 03-01-2009 00:57:51 -0.8 C 3.67 g/m*3 -0.8 C 0 km/h
3004 03-01-2009 01:09:51 -1.2 C 3.43 g/m*3 -1.2 C 0 km/h
3005 03-01-2009 01:21:51 -1.7 C 3.31 g/m*3 -1.7 C 0 km/h
3006 03-01-2009 01:33:51 -2.1 C 3.26 g/m*3 -2.1 C 0 km/h
3007 03-01-2009 01:45:51 -2.5 C 3.21 g/m*3 -2.5 C 0 km/h
3008 03-01-2009 01:57:51 -2.9 C 3.16 g/m*3 -2.9 C 0 km/h
3009 03-01-2009 02:09:51 -3.1 C 3.12 g/m*3 -3.1 C 0 km/h
3010 03-01-2009 02:21:51 -3.2 C 3.14 g/m*3 -3.2 C 0 km/h
3011 03-01-2009 02:33:52 -3.1 C 3.2 g/m*3 -3.1 C 0 km/h
3012 03-01-2009 02:45:52 -2.7 C 3.29 g/m*3 -2.7 C 0 km/h
3013 03-01-2009 02:57:52 -2.6 C 3.31 g/m*3 -2.6 C 0 km/h
3014 03-01-2009 03:09:52 -2.5 C 3.34 g/m*3 -2.5 C 0 km/h
3015 03-01-2009 03:21:52 -2.4 C 3.36 g/m*3 -2.4 C 0 km/h
3016 03-01-2009 03:33:52 -2.3 C 3.38 g/m*3 -2.3 C 0 km/h
3017 03-01-2009 03:45:52 -2.2 C 3.41 g/m*3 -2.2 C 0 km/h
3018 03-01-2009 03:57:52 -2.1 C 3.39 g/m*3 -2.1 C 0 km/h
3019 03-01-2009 04:09:52 -2.2 C 3.28 g/m*3 -2.2 C 0 km/h
3020 03-01-2009 04:21:52 -2.5 C 3.17 g/m*3 -2.5 C 0 km/h
3021 03-01-2009 04:33:52 -2.9 C 3.05 g/m*3 -2.9 C 0 km/h
3022 03-01-2009 04:45:52 -3 C 3.06 g/m*3 -3 C 0 km/h
3023 03-01-2009 04:57:52 -3 C 3.02 g/m*3 -3 C 0 km/h
3024 03-01-2009 05:09:52 -2.8 C 3.07 g/m*3 -2.8 C 0 km/h
3025 03-01-2009 05:21:52 -2.7 C 3.09 g/m*3 -2.7 C 0 km/h
Sensor: Nr:Datum:Temp:Abs-Feuchte:Windchill:Wind:
Aussen-T/F 3026 03-01-2009 05:33:52 -2.6 C 3.11 g/m*3 -2.6 C 0 km/h
3027 03-01-2009 05:45:52 -2.6 C 3.11 g/m*3 -2.6 C 0 km/h
3028 03-01-2009 05:57:52 -2.6 C 3.07 g/m*3 -2.6 C 0 km/h
3029 03-01-2009 06:09:52 -2.6 C 3.11 g/m*3 -2.6 C 0 km/h
3030 03-01-2009 06:21:52 -2.6 C 3.11 g/m*3 -2.6 C 0 km/h
3031 03-01-2009 06:33:52 -2.6 C 3.11 g/m*3 -2.6 C 0 km/h
3032 03-01-2009 06:45:53 -2.6 C 3.11 g/m*3 -2.6 C 0 km/h
3033 03-01-2009 06:57:53 -2.6 C 3.11 g/m*3 -2.6 C 0 km/h
3034 03-01-2009 07:09:53 -2.8 C 2.99 g/m*3 -2.8 C 0 km/h
3035 03-01-2009 07:21:53 -2.9 C 2.97 g/m*3 -2.9 C 0 km/h
3036 03-01-2009 07:33:53 -3 C 2.91 g/m*3 -3 C 0 km/h
3037 03-01-2009 07:45:53 -3.4 C 2.83 g/m*3 -3.4 C 0 km/h
3038 03-01-2009 07:57:53 -3.9 C 2.73 g/m*3 -3.9 C 0 km/h
3039 03-01-2009 08:09:53 -4 C 2.74 g/m*3 -4 C 0 km/h
3040 03-01-2009 08:21:53 -4 C 2.78 g/m*3 -4 C 0 km/h
3041 03-01-2009 08:33:53 -4 C 2.78 g/m*3 -4 C 0 km/h
3042 03-01-2009 08:45:53 -4.2 C 2.74 g/m*3 -4.2 C 0 km/h
3043 03-01-2009 08:57:53 -4.4 C 2.7 g/m*3 -4.4 C 0 km/h
3044 03-01-2009 09:09:51 -4.7 C 2.64 g/m*3 -4.7 C 0 km/h
3045 03-01-2009 09:21:50 -4.7 C 2.68 g/m*3 -4.7 C 0 km/h
3046 03-01-2009 09:33:50 -4.7 C 2.68 g/m*3 -4.7 C 0 km/h
3047 03-01-2009 09:45:50 -4.7 C 2.68 g/m*3 -4.7 C 0 km/h
3048 03-01-2009 09:57:50 -4.7 C 2.71 g/m*3 -4.7 C 0 km/h
3049 03-01-2009 10:09:50 -4.7 C 2.71 g/m*3 -4.7 C 0 km/h
3050 03-01-2009 10:21:50 -4.7 C 2.71 g/m*3 -4.7 C 0 km/h
Sensor: Nr:Datum:Temp:Abs-Feuchte:Windchill:Wind:
Aussen-T/F 3051 03-01-2009 10:33:50 -4.6 C 2.73 g/m*3 -4.6 C 0 km/h
3052 03-01-2009 10:45:50 -4.6 C 2.73 g/m*3 -4.6 C 0 km/h
3053 03-01-2009 10:57:50 -4.6 C 2.73 g/m*3 -4.6 C 0 km/h
3054 03-01-2009 11:09:49 -4.5 C 2.75 g/m*3 -4.5 C 0 km/h
3055 03-01-2009 11:21:50 -4.4 C 2.77 g/m*3 -4.4 C 0 km/h
3056 03-01-2009 11:33:49 -4.4 C 2.77 g/m*3 -4.4 C 0 km/h
3057 03-01-2009 11:45:49 -4.3 C 2.79 g/m*3 -4.3 C 0 km/h
3058 03-01-2009 11:57:50 -4.2 C 2.81 g/m*3 -4.2 C 0 km/h
3059 03-01-2009 12:09:48 -4.2 C 2.81 g/m*3 -4.2 C 0 km/h
3060 03-01-2009 12:21:49 -4.1 C 2.8 g/m*3 -4.1 C 0 km/h
3061 03-01-2009 12:33:49 -4.1 C 2.8 g/m*3 -4.1 C 0 km/h
3062 03-01-2009 12:45:48 -3.9 C 2.84 g/m*3 -3.9 C 0 km/h
3063 03-01-2009 12:57:48 -3.8 C 2.86 g/m*3 -3.8 C 0 km/h
3064 03-01-2009 13:09:49 -3.8 C 2.86 g/m*3 -3.8 C 0 km/h
3065 03-01-2009 13:21:48 -3.7 C 2.88 g/m*3 -3.7 C 0 km/h
3066 03-01-2009 13:33:48 -3.6 C 2.9 g/m*3 -3.6 C 0 km/h
3067 03-01-2009 13:45:48 -3.5 C 2.92 g/m*3 -3.5 C 0 km/h
3068 03-01-2009 13:57:48 -3.4 C 2.9 g/m*3 -3.4 C 0 km/h
3069 03-01-2009 14:09:48 -3.4 C 2.9 g/m*3 -3.4 C 0 km/h
3070 03-01-2009 14:21:47 -3.4 C 2.9 g/m*3 -3.4 C 0 km/h
3071 03-01-2009 14:33:47 -3.3 C 2.92 g/m*3 -3.3 C 0 km/h
3072 03-01-2009 14:45:47 -3.3 C 2.92 g/m*3 -3.3 C 0 km/h
3073 03-01-2009 14:57:47 -3.2 C 2.94 g/m*3 -3.2 C 0 km/h
3074 03-01-2009 15:09:47 -3.3 C 2.92 g/m*3 -3.3 C 0 km/h
3075 03-01-2009 15:21:47 -3.3 C 2.92 g/m*3 -3.3 C 0 km/h
Sensor: Nr:Datum:Temp:Abs-Feuchte:Windchill:Wind:
Aussen-T/F 3076 03-01-2009 15:33:47 -3.3 C 2.92 g/m*3 -3.3 C 0 km/h
3077 03-01-2009 15:45:47 -3.3 C 2.92 g/m*3 -3.3 C 0 km/h
3078 03-01-2009 15:57:47 -3.4 C 2.86 g/m*3 -3.4 C 0 km/h
3079 03-01-2009 16:09:46 -3.4 C 2.86 g/m*3 -3.4 C 0 km/h
3080 03-01-2009 16:21:47 -3.5 C 2.84 g/m*3 -3.5 C 0 km/h
3081 03-01-2009 16:33:46 -3.6 C 2.82 g/m*3 -3.6 C 0 km/h
3082 03-01-2009 16:45:46 -3.6 C 2.86 g/m*3 -3.6 C 0 km/h
3083 03-01-2009 16:57:46 -3.8 C 2.82 g/m*3 -3.8 C 0 km/h
3084 03-01-2009 17:09:46 -4 C 2.78 g/m*3 -4 C 0 km/h
3085 03-01-2009 17:21:46 -4.3 C 2.72 g/m*3 -4.3 C 0 km/h
3086 03-01-2009 17:33:46 -4.3 C 2.79 g/m*3 -4.3 C 0 km/h
3087 03-01-2009 17:45:46 -4.5 C 2.75 g/m*3 -4.5 C 0 km/h
3088 03-01-2009 17:57:46 -4.4 C 2.81 g/m*3 -4.4 C 0 km/h
3089 03-01-2009 18:09:46 -4.6 C 2.77 g/m*3 -4.6 C 0 km/h
3090 03-01-2009 18:21:45 -4.7 C 2.75 g/m*3 -4.7 C 0 km/h
3091 03-01-2009 18:33:45 -4.7 C 2.78 g/m*3 -4.7 C 0 km/h
3092 03-01-2009 18:45:45 -4.8 C 2.8 g/m*3 -4.8 C 0 km/h
3093 03-01-2009 18:57:45 -4.6 C 2.84 g/m*3 -4.6 C 0 km/h
3094 03-01-2009 19:09:45 -4.6 C 2.87 g/m*3 -4.6 C 0 km/h
3095 03-01-2009 19:21:44 -4.6 C 2.87 g/m*3 -4.6 C 0 km/h
3096 03-01-2009 19:33:45 -4.9 C 2.78 g/m*3 -4.9 C 0 km/h
3097 03-01-2009 19:45:45 -5.2 C 2.72 g/m*3 -5.2 C 0 km/h
3098 03-01-2009 19:57:45 -5.1 C 2.77 g/m*3 -5.1 C 0 km/h
3099 03-01-2009 20:09:44 -5 C 2.83 g/m*3 -5 C 0 km/h
3100 03-01-2009 20:21:45 -5.2 C 2.79 g/m*3 -5.2 C 0 km/h
Sensor: Nr:Datum:Temp:Abs-Feuchte:Windchill:Wind:
Aussen-T/F 3101 03-01-2009 20:33:44 -5.2 C 2.79 g/m*3 -5.2 C 0 km/h
3102 03-01-2009 20:45:44 -5 C 2.86 g/m*3 -5 C 0 km/h
3103 03-01-2009 20:57:44 -4.6 C 2.98 g/m*3 -4.6 C 0 km/h
3104 03-01-2009 21:09:43 -4.3 C 3.01 g/m*3 -4.3 C 0 km/h
3105 03-01-2009 21:21:44 -4.2 C 2.99 g/m*3 -4.2 C 0 km/h
3106 03-01-2009 21:33:44 -4.2 C 2.92 g/m*3 -4.2 C 0 km/h
3107 03-01-2009 21:45:43 -4.2 C 2.92 g/m*3 -4.2 C 0 km/h
3108 03-01-2009 21:57:43 -4.1 C 2.91 g/m*3 -4.1 C 0 km/h
3109 03-01-2009 22:09:44 -4.1 C 2.91 g/m*3 -4.1 C 0 km/h
3110 03-01-2009 22:21:43 -4 C 2.89 g/m*3 -4 C 0 km/h
3111 03-01-2009 22:33:43 -4 C 2.89 g/m*3 -4 C 0 km/h
3112 03-01-2009 22:46:44 -4 C 2.89 g/m*3 -4 C 0 km/h
3113 03-01-2009 22:58:44 -4 C 2.89 g/m*3 -4 C 0 km/h
3114 03-01-2009 23:10:44 -3.9 C 2.91 g/m*3 -3.9 C 0 km/h
3115 03-01-2009 23:22:44 -3.9 C 2.91 g/m*3 -3.9 C 0 km/h
3116 03-01-2009 23:34:44 -3.8 C 2.89 g/m*3 -3.8 C 0 km/h
3117 03-01-2009 23:46:44 -3.6 C 2.9 g/m*3 -3.6 C 0 km/h
3118 03-01-2009 23:58:44 -3.5 C 2.88 g/m*3 -3.5 C 0 km/h
3119 04-01-2009 00:10:44 -3.5 C 2.84 g/m*3 -3.5 C 0 km/h
3120 04-01-2009 00:22:44 -3.4 C 2.86 g/m*3 -3.4 C 0 km/h
3121 04-01-2009 00:34:45 -3.4 C 2.86 g/m*3 -3.4 C 0 km/h
3122 04-01-2009 00:46:45 -3.4 C 2.86 g/m*3 -3.4 C 0 km/h
3123 04-01-2009 00:58:45 -3.4 C 2.83 g/m*3 -3.4 C 0 km/h
3124 04-01-2009 01:10:45 -3.4 C 2.83 g/m*3 -3.4 C 0 km/h
3125 04-01-2009 01:22:45 -3.3 C 2.85 g/m*3 -3.3 C 0 km/h
Sensor: Nr:Datum:Temp:Abs-Feuchte:Windchill:Wind:
Aussen-T/F 3126 04-01-2009 01:34:45 -3.3 C 2.81 g/m*3 -3.3 C 0 km/h
3127 04-01-2009 01:46:45 -3.3 C 2.77 g/m*3 -3.3 C 0 km/h
3128 04-01-2009 01:58:45 -3.3 C 2.77 g/m*3 -3.3 C 0 km/h
3129 04-01-2009 02:10:45 -3.2 C 2.79 g/m*3 -3.2 C 0 km/h
3130 04-01-2009 02:22:45 -3.1 C 2.77 g/m*3 -3.1 C 0 km/h
3131 04-01-2009 02:34:45 -3.1 C 2.77 g/m*3 -3.1 C 0 km/h
3132 04-01-2009 02:46:45 -3.1 C 2.77 g/m*3 -3.1 C 0 km/h
3133 04-01-2009 02:58:45 -3.1 C 2.81 g/m*3 -3.1 C 0 km/h
3134 04-01-2009 03:10:45 -3.1 C 2.81 g/m*3 -3.1 C 0 km/h
3135 04-01-2009 03:22:45 -3 C 2.79 g/m*3 -3 C 0 km/h
3136 04-01-2009 03:34:45 -3 C 2.79 g/m*3 -3 C 0 km/h
3137 04-01-2009 03:46:45 -3 C 2.79 g/m*3 -3 C 0 km/h
3138 04-01-2009 03:58:45 -3 C 2.79 g/m*3 -3 C 0 km/h
3139 04-01-2009 04:10:45 -2.9 C 2.81 g/m*3 -2.9 C 0 km/h
3140 04-01-2009 04:22:45 -2.8 C 2.83 g/m*3 -2.8 C 0 km/h
3141 04-01-2009 04:34:46 -2.7 C 2.85 g/m*3 -2.7 C 0 km/h
3142 04-01-2009 04:46:46 -2.8 C 2.83 g/m*3 -2.8 C 0 km/h
3143 04-01-2009 04:58:46 -2.7 C 2.85 g/m*3 -2.7 C 0 km/h
3144 04-01-2009 05:10:46 -2.6 C 2.83 g/m*3 -2.6 C 0 km/h
3145 04-01-2009 05:22:46 -2.6 C 2.83 g/m*3 -2.6 C 0 km/h
3146 04-01-2009 05:34:46 -2.5 C 2.85 g/m*3 -2.5 C 0 km/h
3147 04-01-2009 05:46:46 -2.4 C 2.83 g/m*3 -2.4 C 0 km/h
3148 04-01-2009 05:58:46 -2.4 C 2.83 g/m*3 -2.4 C 0 km/h
3149 04-01-2009 06:10:46 -2.3 C 2.85 g/m*3 -2.3 C 0 km/h
3150 04-01-2009 06:22:46 -2.3 C 2.85 g/m*3 -2.3 C 0 km/h
Sensor: Nr:Datum:Temp:Abs-Feuchte:Windchill:Wind:
Aussen-T/F 3151 04-01-2009 06:34:46 -2.3 C 2.85 g/m*3 -2.3 C 0 km/h
3152 04-01-2009 06:46:46 -2.3 C 2.89 g/m*3 -2.3 C 0 km/h
3153 04-01-2009 06:58:46 -2.2 C 2.87 g/m*3 -2.2 C 0 km/h
3154 04-01-2009 07:10:46 -2.2 C 2.87 g/m*3 -2.2 C 0 km/h
3155 04-01-2009 07:22:46 -2.1 C 2.89 g/m*3 -2.1 C 0 km/h
3156 04-01-2009 07:34:44 -2.1 C 2.89 g/m*3 -2.1 C 0 km/h
3157 04-01-2009 07:46:44 -2 C 2.91 g/m*3 -2 C 0 km/h
3158 04-01-2009 07:58:44 -1.9 C 2.89 g/m*3 -1.9 C 0 km/h
3159 04-01-2009 08:10:44 -1.8 C 2.95 g/m*3 -1.8 C 0 km/h
3160 04-01-2009 08:22:43 -1.7 C 2.97 g/m*3 -1.7 C 0 km/h
3161 04-01-2009 08:34:44 -1.6 C 2.95 g/m*3 -1.6 C 0 km/h
3162 04-01-2009 08:46:43 -1.5 C 2.92 g/m*3 -1.5 C 0 km/h
3163 04-01-2009 08:58:43 -1.5 C 2.92 g/m*3 -1.5 C 0 km/h
3164 04-01-2009 09:10:43 -1.4 C 2.95 g/m*3 -1.4 C 0 km/h
3165 04-01-2009 09:22:43 -1.4 C 2.95 g/m*3 -1.4 C 0 km/h
3166 04-01-2009 09:34:43 -1.3 C 2.97 g/m*3 -1.3 C 0 km/h
3167 04-01-2009 09:46:43 -1.2 C 2.99 g/m*3 -1.2 C 0 km/h
3168 04-01-2009 09:58:43 -1.1 C 2.96 g/m*3 -1.1 C 0 km/h
3169 04-01-2009 10:10:43 -1 C 2.98 g/m*3 -1 C 0 km/h
3170 04-01-2009 10:22:42 -1 C 2.98 g/m*3 -1 C 0 km/h
3171 04-01-2009 10:34:42 -0.9 C 3 g/m*3 -0.9 C 0 km/h
3172 04-01-2009 10:46:42 -0.4 C 3.11 g/m*3 -0.4 C 0 km/h
3173 04-01-2009 10:58:42 -0.4 C 3.06 g/m*3 -0.4 C 0 km/h
3174 04-01-2009 11:10:42 -0.3 C 3.08 g/m*3 -0.3 C 0 km/h
3175 04-01-2009 11:22:41 -0.2 C 3.11 g/m*3 -0.2 C 0 km/h
Sensor: Nr:Datum:Temp:Abs-Feuchte:Windchill:Wind:
Aussen-T/F 3176 04-01-2009 11:34:42 -0.2 C 3.06 g/m*3 -0.2 C 0 km/h
3177 04-01-2009 11:46:42 -0.2 C 3.06 g/m*3 -0.2 C 0 km/h
3178 04-01-2009 11:58:42 -0.1 C 3.08 g/m*3 -0.1 C 0 km/h
3179 04-01-2009 12:10:41 -0.1 C 3.08 g/m*3 -0.1 C 0 km/h
3180 04-01-2009 12:22:42 -0.1 C 3.13 g/m*3 -0.1 C 0 km/h
3181 04-01-2009 12:34:41 0 C 3.1 g/m*3 0 C 0 km/h
3182 04-01-2009 12:46:41 0 C 3.1 g/m*3 0 C 0 km/h
3183 04-01-2009 12:58:41 0.1 C 3.12 g/m*3 0.1 C 0 km/h
3184 04-01-2009 13:10:41 0.3 C 3.12 g/m*3 0.3 C 0 km/h
3185 04-01-2009 13:22:41 0.5 C 3.11 g/m*3 0.5 C 0 km/h
3186 04-01-2009 13:34:41 0.8 C 3.02 g/m*3 0.8 C 0 km/h
3187 04-01-2009 13:46:41 0.9 C 2.94 g/m*3 0.9 C 0 km/h
3188 04-01-2009 13:58:41 0.9 C 2.99 g/m*3 0.9 C 0 km/h
3189 04-01-2009 14:10:41 0.8 C 2.92 g/m*3 0.8 C 0 km/h
3190 04-01-2009 14:22:40 0.6 C 2.93 g/m*3 0.6 C 0 km/h
3191 04-01-2009 14:34:40 0.6 C 2.98 g/m*3 0.6 C 0 km/h
3192 04-01-2009 14:46:40 0.5 C 2.96 g/m*3 0.5 C 0 km/h
3193 04-01-2009 14:58:40 0.5 C 2.91 g/m*3 0.5 C 0 km/h
3194 04-01-2009 15:10:40 0.5 C 2.91 g/m*3 0.5 C 0 km/h
3195 04-01-2009 15:22:39 0.4 C 2.89 g/m*3 0.4 C 0 km/h
3196 04-01-2009 15:34:40 0.4 C 2.89 g/m*3 0.4 C 0 km/h
3197 04-01-2009 15:46:39 0.3 C 2.92 g/m*3 0.3 C 0 km/h
3198 04-01-2009 15:58:39 0.3 C 2.87 g/m*3 0.3 C 0 km/h
3199 04-01-2009 16:10:39 0.2 C 2.9 g/m*3 0.2 C 0 km/h
3200 04-01-2009 16:22:39 0.2 C 2.95 g/m*3 0.2 C 0 km/h
Sensor: Nr:Datum:Temp:Abs-Feuchte:Windchill:Wind:
Aussen-T/F 3201 04-01-2009 16:34:39 0.1 C 2.93 g/m*3 0.1 C 0 km/h
3202 04-01-2009 16:46:39 0 C 2.96 g/m*3 0 C 0 km/h
3203 04-01-2009 16:58:39 0 C 2.96 g/m*3 0 C 0 km/h
3204 04-01-2009 17:10:39 0 C 2.91 g/m*3 0 C 0 km/h
3205 04-01-2009 17:22:39 0.1 C 2.93 g/m*3 0.1 C 0 km/h
3206 04-01-2009 17:34:38 0 C 2.91 g/m*3 0 C 0 km/h
3207 04-01-2009 17:46:39 0 C 2.96 g/m*3 0 C 0 km/h
3208 04-01-2009 17:58:39 -0.1 C 2.98 g/m*3 -0.1 C 0 km/h
3209 04-01-2009 18:10:38 -0.2 C 3.01 g/m*3 -0.2 C 0 km/h
3210 04-01-2009 18:22:38 -0.2 C 3.01 g/m*3 -0.2 C 0 km/h
3211 04-01-2009 18:34:38 -0.2 C 3.01 g/m*3 -0.2 C 0 km/h
3212 04-01-2009 18:46:37 -0.2 C 3.01 g/m*3 -0.2 C 0 km/h
3213 04-01-2009 18:58:37 -0.1 C 3.03 g/m*3 -0.1 C 0 km/h
3214 04-01-2009 19:10:38 0.1 C 3.02 g/m*3 0.1 C 0 km/h
3215 04-01-2009 19:22:37 0.1 C 3.02 g/m*3 0.1 C 0 km/h
3216 04-01-2009 19:34:37 0.1 C 3.02 g/m*3 0.1 C 0 km/h
3217 04-01-2009 19:46:37 0 C 3.05 g/m*3 0 C 0 km/h
3218 04-01-2009 19:58:37 0 C 3.05 g/m*3 0 C 0 km/h
3219 04-01-2009 20:10:37 0 C 3.05 g/m*3 0 C 0 km/h
3220 04-01-2009 20:22:37 0 C 3.05 g/m*3 0 C 0 km/h
3221 04-01-2009 20:34:36 0 C 3.05 g/m*3 0 C 0 km/h
3222 04-01-2009 20:46:37 -0.1 C 3.03 g/m*3 -0.1 C 0 km/h
3223 04-01-2009 20:58:37 -0.1 C 3.03 g/m*3 -0.1 C 0 km/h
3224 04-01-2009 21:10:37 -0.1 C 3.08 g/m*3 -0.1 C 0 km/h
3225 04-01-2009 21:22:36 -0.1 C 3.03 g/m*3 -0.1 C 0 km/h
Sensor: Nr:Datum:Temp:Abs-Feuchte:Windchill:Wind:
Aussen-T/F 3226 04-01-2009 21:34:36 -0.1 C 3.08 g/m*3 -0.1 C 0 km/h
3227 04-01-2009 21:46:36 -0.2 C 3.01 g/m*3 -0.2 C 0 km/h
3228 04-01-2009 21:58:36 -0.2 C 3.01 g/m*3 -0.2 C 0 km/h
3229 04-01-2009 22:10:36 -0.2 C 3.01 g/m*3 -0.2 C 0 km/h
3230 04-01-2009 22:22:35 -0.2 C 3.01 g/m*3 -0.2 C 0 km/h
3231 04-01-2009 22:34:36 -0.2 C 3.06 g/m*3 -0.2 C 0 km/h
3232 04-01-2009 22:46:35 -0.2 C 3.06 g/m*3 -0.2 C 0 km/h
3233 04-01-2009 22:58:35 -0.2 C 3.06 g/m*3 -0.2 C 0 km/h
3234 04-01-2009 23:10:35 -0.3 C 3.18 g/m*3 -0.3 C 0 km/h
3235 04-01-2009 23:22:36 -0.4 C 3.25 g/m*3 -0.4 C 0 km/h
3236 04-01-2009 23:34:35 -0.5 C 3.28 g/m*3 -0.5 C 0 km/h
3237 04-01-2009 23:46:35 -0.7 C 3.28 g/m*3 -0.7 C 0 km/h
3238 04-01-2009 23:58:35 -0.8 C 3.3 g/m*3 -0.8 C 0 km/h
3239 05-01-2009 00:10:34 -0.8 C 3.3 g/m*3 -0.8 C 0 km/h
3240 05-01-2009 00:22:35 -0.9 C 3.37 g/m*3 -0.9 C 0 km/h
3241 05-01-2009 00:34:35 -0.9 C 3.41 g/m*3 -0.9 C 0 km/h
3242 05-01-2009 00:46:34 -1 C 3.39 g/m*3 -1 C 0 km/h
3243 05-01-2009 00:58:34 -1.1 C 3.41 g/m*3 -1.1 C 0 km/h
3244 05-01-2009 01:10:35 -1.1 C 3.46 g/m*3 -1.1 C 0 km/h
3245 05-01-2009 01:22:34